Provisional Data: Sterling Run near Sterling Run, PA


Please select a monitoring station.
Please select start date.
Please select start date.

Toggle Unit: C/F Toggle Unit: C/F
Sample Time Temperature (C) Temperature (F) Specific Conductivity (mS/cm) pH   Turbidity (NTU+) DO (mg/L)
3/7/2021 12:00:00 AM 2.23 36.014 0.057 6.38 2.14 13.67
3/7/2021 12:15:00 AM 2.21 35.978 0.057 6.37 1.95 13.67
3/7/2021 12:30:00 AM 2.19 35.942 0.057 6.38 1.92 13.67
3/7/2021 12:45:00 AM 2.15 35.87 0.057 6.38 2 13.68
3/7/2021 1:00:00 AM 2.09 35.762 0.057 6.3 1.98 13.69
3/7/2021 1:15:00 AM 2.06 35.708 0.057 6.38 2.07 13.69
3/7/2021 1:30:00 AM 2.03 35.654 0.057 6.38 1.97 13.7
3/7/2021 1:45:00 AM 1.99 35.582 0.057 6.37 2 13.72
3/7/2021 2:00:00 AM 1.94 35.492 0.057 6.37 2.11 13.73
3/7/2021 2:15:00 AM 1.9 35.42 0.057 6.36 2.02 13.75
3/7/2021 2:30:00 AM 1.85 35.33 0.057 6.36 1.93 13.78
3/7/2021 2:45:00 AM 1.8 35.24 0.057 6.36 1.95 13.8
3/7/2021 3:00:00 AM 1.75 35.15 0.057 6.36 2.07 13.81
3/7/2021 3:15:00 AM 1.7 35.06 0.057 6.27 1.94 13.84
3/7/2021 3:30:00 AM 1.67 35.006 0.057 6.36 1.98 13.85
3/7/2021 3:45:00 AM 1.62 34.916 0.057 6.33 2.13 13.86
3/7/2021 4:00:00 AM 1.58 34.844 0.057 6.35 1.92 13.86
3/7/2021 4:15:00 AM 1.53 34.754 0.057 6.35 2.01 13.88
3/7/2021 4:30:00 AM 1.48 34.664 0.057 6.35 1.96 13.9
3/7/2021 4:45:00 AM 1.43 34.574 0.057 6.35 2.01 13.92
3/7/2021 5:00:00 AM 1.38 34.484 0.057 6.34 1.99 13.94
3/7/2021 5:15:00 AM 1.33 34.394 0.057 6.34 1.97 13.96
3/7/2021 5:30:00 AM 1.28 34.304 0.057 6.34 2.75 13.98
3/7/2021 5:45:00 AM 1.24 34.232 0.057 6.33 2.02 14.01
3/7/2021 6:00:00 AM 1.18 34.124 0.057 6.29 1.93 14.04
3/7/2021 6:15:00 AM 1.14 34.052 0.057 6.34 1.99 14.06
3/7/2021 6:30:00 AM 1.1 33.98 0.057 6.33 2.12 14.08
3/7/2021 6:45:00 AM 1.05 33.89 0.057 6.33 2.02 14.09
3/7/2021 7:00:00 AM 1.01 33.818 0.057 6.34 2.02 14.11
3/7/2021 7:15:00 AM 0.97 33.746 0.057 6.29 1.98 14.13
3/7/2021 7:30:00 AM 0.95 33.71 0.057 6.35 2.09 14.15
3/7/2021 7:45:00 AM 0.92 33.656 0.057 6.35 2.05 14.17
3/7/2021 8:00:00 AM 0.93 33.674 0.057 6.3 1.97 14.19
3/7/2021 8:15:00 AM 0.98 33.764 0.057 6.36 1.96 14.21
3/7/2021 8:30:00 AM 1 33.8 0.057 6.35 1.97 14.22
3/7/2021 8:45:00 AM 1.04 33.872 0.057 6.36 2.04 14.24
3/7/2021 9:00:00 AM 1.1 33.98 0.057 6.39 1.96 14.23
3/7/2021 9:15:00 AM 1.18 34.124 0.057 6.33 2.03 14.23
3/7/2021 9:30:00 AM 1.29 34.322 0.057 6.4 1.98 14.2
3/7/2021 9:45:00 AM 1.38 34.484 0.056 6.38 1.99 14.17
3/7/2021 10:00:00 AM 1.49 34.682 0.056 6.4 1.89 14.15
3/7/2021 10:15:00 AM 1.59 34.862 0.056 6.41 1.93 14.13
3/7/2021 10:30:00 AM 1.69 35.042 0.056 6.41 1.92 14.11
3/7/2021 10:45:00 AM 1.82 35.276 0.056 6.42 1.9 14.07
3/7/2021 11:00:00 AM 1.94 35.492 0.056 6.42 2.03 14.02
3/7/2021 11:15:00 AM 2.05 35.69 0.057 6.37 2 13.98
3/7/2021 11:30:00 AM 2.18 35.924 0.057 6.43 1.82 13.95
3/7/2021 11:45:00 AM 2.29 36.122 0.057 6.42 1.9 13.91
3/7/2021 12:00:00 PM 2.39 36.302 0.057 6.41 1.9 13.86
3/7/2021 12:15:00 PM 2.49 36.482 0.057 6.43 1.91 13.8
3/7/2021 12:30:00 PM 2.6 36.68 0.057 6.43 1.88 13.76
3/7/2021 12:45:00 PM 2.7 36.86 0.058 6.39 1.87 13.74
3/7/2021 1:00:00 PM 2.81 37.058 0.058 6.44 1.9 13.7
3/7/2021 1:15:00 PM 2.87 37.166 0.058 6.44 1.93 13.66
3/7/2021 1:30:00 PM 2.94 37.292 0.058 6.44 1.9 13.62
3/7/2021 1:45:00 PM 2.98 37.364 0.058 6.39 1.88 13.59
3/7/2021 2:00:00 PM 3.03 37.454 0.059 6.44 1.92 13.54
3/7/2021 2:15:00 PM 3.07 37.526 0.059 6.44 2.03 13.51
3/7/2021 2:30:00 PM 3.1 37.58 0.059 6.44 1.91 13.48
3/7/2021 2:45:00 PM 3.11 37.598 0.059 6.4 1.87 13.47
3/7/2021 3:00:00 PM 3.14 37.652 0.059 6.44 1.82 13.45
3/7/2021 3:15:00 PM 3.15 37.67 0.059 6.44 1.85 13.43
3/7/2021 3:30:00 PM 3.16 37.688 0.059 6.44 2.14 13.43
3/7/2021 3:45:00 PM 3.17 37.706 0.059 6.44 1.84 13.41
3/7/2021 4:00:00 PM 3.15 37.67 0.059 6.44 1.88 13.39
3/7/2021 4:15:00 PM 3.14 37.652 0.059 6.44 1.87 13.4
3/7/2021 4:30:00 PM 3.1 37.58 0.059 6.38 1.9 13.41
3/7/2021 4:45:00 PM 3.08 37.544 0.059 6.42 1.86 13.41
3/7/2021 5:00:00 PM 3.05 37.49 0.058 6.44 1.91 13.43
3/7/2021 5:15:00 PM 3.01 37.418 0.058 6.41 1.93 13.45
3/7/2021 5:30:00 PM 2.97 37.346 0.058 6.44 1.88 13.47
3/7/2021 5:45:00 PM 2.91 37.238 0.058 6.43 1.9 13.49
3/7/2021 6:00:00 PM 2.85 37.13 0.058 6.43 1.96 13.5
3/7/2021 6:15:00 PM 2.79 37.022 0.058 6.43 1.88 13.52
3/7/2021 6:30:00 PM 2.72 36.896 0.058 6.41 1.88 13.54
3/7/2021 6:45:00 PM 2.66 36.788 0.058 6.41 1.92 13.54
3/7/2021 7:00:00 PM 2.6 36.68 0.058 6.42 1.92 13.55
3/7/2021 7:15:00 PM 2.55 36.59 0.058 6.42 2.02 13.57
3/7/2021 7:30:00 PM 2.5 36.5 0.058 6.4 1.89 13.59
3/7/2021 7:45:00 PM 2.45 36.41 0.058 6.42 1.9 13.61
3/7/2021 8:00:00 PM 2.4 36.32 0.058 6.42 1.92 13.63
3/7/2021 8:15:00 PM 2.36 36.248 0.058 6.39 1.88 13.66
3/7/2021 8:30:00 PM 2.32 36.176 0.058 6.41 1.91 13.67
3/7/2021 8:45:00 PM 2.27 36.086 0.058 6.37 1.87 13.69
3/7/2021 9:00:00 PM 2.23 36.014 0.058 6.41 1.94 13.7
3/7/2021 9:15:00 PM 2.19 35.942 0.058 6.38 2.13 13.72
3/7/2021 9:30:00 PM 2.15 35.87 0.058 6.41 2.01 13.73
3/7/2021 9:45:00 PM 2.12 35.816 0.058 6.4 1.92 13.74
3/7/2021 10:00:00 PM 2.07 35.726 0.058 6.41 1.91 13.75
3/7/2021 10:15:00 PM 2.03 35.654 0.058 6.41 1.89 13.76
3/7/2021 10:30:00 PM 1.99 35.582 0.058 6.41 1.91 13.77
3/7/2021 10:45:00 PM 1.95 35.51 0.058 6.39 2 13.78
3/7/2021 11:00:00 PM 1.9 35.42 0.058 6.34 1.87 13.81
3/7/2021 11:15:00 PM 1.86 35.348 0.058 6.39 1.93 13.83
3/7/2021 11:30:00 PM 1.82 35.276 0.058 6.38 1.9 13.85
3/7/2021 11:45:00 PM 1.79 35.222 0.058 6.4 1.85 13.86
3/8/2021 12:00:00 AM 1.73 35.114 0.058 6.35 1.92 13.88
3/8/2021 12:15:00 AM 1.7 35.06 0.058 6.38 1.84 13.9
3/8/2021 12:30:00 AM 1.66 34.988 0.058 6.4 1.88 13.91
3/8/2021 12:45:00 AM 1.61 34.898 0.058 6.39 1.84 13.92
3/8/2021 1:00:00 AM 1.57 34.826 0.058 6.39 1.82 13.93
3/8/2021 1:15:00 AM 1.53 34.754 0.058 6.39 1.87 13.94
3/8/2021 1:30:00 AM 1.48 34.664 0.058 6.37 1.85 13.95
3/8/2021 1:45:00 AM 1.43 34.574 0.058 6.36 1.88 13.97
3/8/2021 2:00:00 AM 1.39 34.502 0.058 6.38 1.82 13.99
3/8/2021 2:15:00 AM 1.35 34.43 0.058 6.37 1.85 14.01
3/8/2021 2:30:00 AM 1.31 34.358 0.058 6.37 1.87 14.03
3/8/2021 2:45:00 AM 1.26 34.268 0.058 6.37 1.93 14.05
3/8/2021 3:00:00 AM 1.21 34.178 0.058 6.36 1.95 14.07
3/8/2021 3:15:00 AM 1.17 34.106 0.058 6.36 1.87 14.09
3/8/2021 3:30:00 AM 1.12 34.016 0.058 6.36 1.87 14.11
3/8/2021 3:45:00 AM 1.08 33.944 0.058 6.35 1.86 14.13
3/8/2021 4:00:00 AM 1.04 33.872 0.058 6.36 1.84 14.13
3/8/2021 4:15:00 AM 0.99 33.782 0.058 6.29 1.88 14.14
3/8/2021 4:30:00 AM 0.95 33.71 0.058 6.36 1.9 14.16
3/8/2021 4:45:00 AM 0.9 33.62 0.058 6.35 1.86 14.17
3/8/2021 5:00:00 AM 0.86 33.548 0.058 6.35 1.86 14.2
3/8/2021 5:15:00 AM 0.83 33.494 0.058 6.35 1.88 14.22
3/8/2021 5:30:00 AM 0.78 33.404 0.058 6.36 1.92 14.23
3/8/2021 5:45:00 AM 0.72 33.296 0.058 6.28 1.89 14.27
3/8/2021 6:00:00 AM 0.69 33.242 0.058 6.35 1.82 14.29
3/8/2021 6:15:00 AM 0.66 33.188 0.058 6.35 1.78 14.3
3/8/2021 6:30:00 AM 0.63 33.134 0.058 6.35 1.92 14.32
3/8/2021 6:45:00 AM 0.65 33.17 0.058 6.36 1.85 14.35
3/8/2021 7:00:00 AM 0.67 33.206 0.058 6.37 1.91 14.37
3/8/2021 7:15:00 AM 0.66 33.188 0.058 6.35 1.91 14.39
3/8/2021 7:30:00 AM 0.67 33.206 0.057 6.39 1.92 14.4
3/8/2021 7:45:00 AM 0.67 33.206 0.057 6.38 1.87 14.41
3/8/2021 8:00:00 AM 0.68 33.224 0.057 6.39 1.91 14.41
3/8/2021 8:15:00 AM 0.69 33.242 0.057 6.39 1.89 14.41
3/8/2021 8:30:00 AM 0.7 33.26 0.057 6.4 1.99 14.4
3/8/2021 8:45:00 AM 0.7 33.26 0.057 6.41 1.97 14.4
3/8/2021 9:00:00 AM 0.71 33.278 0.057 6.41 1.89 14.4
3/8/2021 9:15:00 AM 0.74 33.332 0.057 6.42 1.91 14.38
3/8/2021 9:30:00 AM 0.82 33.476 0.057 6.34 1.94 14.35
3/8/2021 9:45:00 AM 1.01 33.818 0.057 6.42 2.02 14.3
3/8/2021 10:00:00 AM 1.15 34.07 0.057 6.38 1.87 14.32
3/8/2021 10:15:00 AM 1.27 34.286 0.057 6.43 1.93 14.28
3/8/2021 10:30:00 AM 1.33 34.394 0.057 6.43 1.85 14.25
3/8/2021 10:45:00 AM 1.39 34.502 0.057 6.38 1.74 14.23
3/8/2021 11:00:00 AM 1.59 34.862 0.057 6.42 1.87 14.2
3/8/2021 11:15:00 AM 1.69 35.042 0.057 6.44 1.88 14.18
3/8/2021 11:30:00 AM 1.85 35.33 0.057 6.44 1.91 14.12
3/8/2021 11:45:00 AM 1.93 35.474 0.057 6.43 1.8 14.05
3/8/2021 12:00:00 PM 1.95 35.51 0.057 6.44 2.04 14.01
3/8/2021 12:15:00 PM 2.01 35.618 0.057 6.44 1.84 13.98
3/8/2021 12:30:00 PM 2.01 35.618 0.058 6.35 1.88 13.97
3/8/2021 12:45:00 PM 2.11 35.798 0.058 6.44 1.84 13.94
3/8/2021 1:00:00 PM 2.24 36.032 0.058 6.4 1.78 13.93
3/8/2021 1:15:00 PM 2.36 36.248 0.059 6.44 1.83 13.89
3/8/2021 1:30:00 PM 2.42 36.356 0.059 6.41 1.83 13.86
3/8/2021 1:45:00 PM 2.52 36.536 0.059 6.43 1.8 13.81
3/8/2021 2:00:00 PM 2.57 36.626 0.06 6.43 1.77 13.78
3/8/2021 2:15:00 PM 2.62 36.716 0.06 6.45 1.72 13.75
3/8/2021 2:30:00 PM 2.7 36.86 0.06 6.42 1.7 13.72
3/8/2021 2:45:00 PM 2.81 37.058 0.061 6.45 1.75 13.69
3/8/2021 3:00:00 PM 2.84 37.112 0.061 6.44 1.78 13.66
3/8/2021 3:15:00 PM 2.85 37.13 0.061 6.44 1.75 13.64
3/8/2021 3:30:00 PM 2.91 37.238 0.061 6.45 1.72 13.6
3/8/2021 3:45:00 PM 2.97 37.346 0.061 6.45 1.72 13.57
3/8/2021 4:00:00 PM 2.96 37.328 0.061 6.4 1.78 13.56
3/8/2021 4:15:00 PM 2.97 37.346 0.061 6.45 1.69 13.54
3/8/2021 4:30:00 PM 2.99 37.382 0.061 6.45 1.76 13.52
3/8/2021 4:45:00 PM 3.01 37.418 0.06 6.45 1.9 13.5
3/8/2021 5:00:00 PM 3.02 37.436 0.06 6.45 1.74 13.48
3/8/2021 5:15:00 PM 3.01 37.418 0.06 6.44 1.81 13.48
3/8/2021 5:30:00 PM 3 37.4 0.06 6.41 1.86 13.47
3/8/2021 5:45:00 PM 2.99 37.382 0.06 6.44 1.76 13.47
3/8/2021 6:00:00 PM 2.97 37.346 0.06 6.44 1.97 13.47
3/8/2021 6:15:00 PM 2.94 37.292 0.06 6.44 1.78 13.47
3/8/2021 6:30:00 PM 2.91 37.238 0.06 6.42 1.75 13.47
3/8/2021 6:45:00 PM 2.87 37.166 0.06 6.4 1.76 13.49
3/8/2021 7:00:00 PM 2.83 37.094 0.06 6.43 1.77 13.49
3/8/2021 7:15:00 PM 2.79 37.022 0.06 6.42 1.77 13.5
3/8/2021 7:30:00 PM 2.76 36.968 0.06 6.42 1.74 13.5
3/8/2021 7:45:00 PM 2.73 36.914 0.06 6.43 1.79 13.51
3/8/2021 8:00:00 PM 2.69 36.842 0.06 6.4 1.77 13.52
3/8/2021 8:15:00 PM 2.66 36.788 0.06 6.42 1.7 13.52
3/8/2021 8:30:00 PM 2.63 36.734 0.06 6.42 1.69 13.53
3/8/2021 8:45:00 PM 2.59 36.662 0.06 6.38 1.66 13.54
3/8/2021 9:00:00 PM 2.56 36.608 0.06 6.39 1.73 13.55
3/8/2021 9:15:00 PM 2.54 36.572 0.06 6.42 1.57 13.55
3/8/2021 9:30:00 PM 2.51 36.518 0.06 6.42 1.64 13.57
3/8/2021 9:45:00 PM 2.5 36.5 0.06 6.42 1.63 13.56
3/8/2021 10:00:00 PM 2.49 36.482 0.06 6.42 1.7 13.58
3/8/2021 10:15:00 PM 2.49 36.482 0.06 6.41 1.74 13.59
3/8/2021 10:30:00 PM 2.48 36.464 0.06 6.39 1.61 13.6
3/8/2021 10:45:00 PM 2.49 36.482 0.06 6.42 1.72 13.59
3/8/2021 11:00:00 PM 2.49 36.482 0.06 6.38 1.62 13.6
3/8/2021 11:15:00 PM 2.48 36.464 0.06 6.41 1.65 13.59
3/8/2021 11:30:00 PM 2.47 36.446 0.06 6.42 1.62 13.6
3/8/2021 11:45:00 PM 2.45 36.41 0.06 6.41 1.64 13.6
3/9/2021 12:00:00 AM 2.44 36.392 0.06 6.42 1.63 13.6
3/9/2021 12:15:00 AM 2.41 36.338 0.06 6.4 1.94 13.6
3/9/2021 12:30:00 AM 2.4 36.32 0.06 6.41 1.59 13.61
3/9/2021 12:45:00 AM 2.41 36.338 0.06 6.42 1.65 13.62
3/9/2021 1:00:00 AM 2.41 36.338 0.06 6.41 1.58 13.63
3/9/2021 1:15:00 AM 2.41 36.338 0.06 6.41 1.68 13.61
3/9/2021 1:30:00 AM 2.41 36.338 0.06 6.41 1.67 13.61
3/9/2021 1:45:00 AM 2.41 36.338 0.06 6.42 1.6 13.62
3/9/2021 2:00:00 AM 2.39 36.302 0.06 6.33 1.57 13.63
3/9/2021 2:15:00 AM 2.39 36.302 0.06 6.41 1.59 13.61
3/9/2021 2:30:00 AM 2.39 36.302 0.06 6.41 1.56 13.61
3/9/2021 2:45:00 AM 2.39 36.302 0.06 6.38 1.6 13.61
3/9/2021 3:00:00 AM 2.4 36.32 0.06 6.39 1.56 13.62
3/9/2021 3:15:00 AM 2.4 36.32 0.06 6.42 1.57 13.61
3/9/2021 3:30:00 AM 2.39 36.302 0.06 6.4 1.62 13.62
3/9/2021 3:45:00 AM 2.38 36.284 0.06 6.41 1.62 13.61
3/9/2021 4:00:00 AM 2.36 36.248 0.06 6.41 1.56 13.62
3/9/2021 4:15:00 AM 2.34 36.212 0.06 6.4 1.69 13.61
3/9/2021 4:30:00 AM 2.32 36.176 0.06 6.4 1.59 13.63
3/9/2021 4:45:00 AM 2.31 36.158 0.06 6.41 1.59 13.64
3/9/2021 5:00:00 AM 2.29 36.122 0.06 6.4 1.56 13.64
3/9/2021 5:15:00 AM 2.26 36.068 0.06 6.37 1.6 13.66
3/9/2021 5:30:00 AM 2.25 36.05 0.06 6.41 1.58 13.66
3/9/2021 5:45:00 AM 2.23 36.014 0.06 6.41 1.63 13.66
3/9/2021 6:00:00 AM 2.21 35.978 0.06 6.41 1.6 13.67
3/9/2021 6:15:00 AM 2.18 35.924 0.06 6.36 1.61 13.68
3/9/2021 6:30:00 AM 2.17 35.906 0.06 6.4 1.63 13.68
3/9/2021 6:45:00 AM 2.16 35.888 0.06 6.41 1.66 13.7
3/9/2021 7:00:00 AM 2.14 35.852 0.06 6.4 1.64 13.7
3/9/2021 7:15:00 AM 2.14 35.852 0.06 6.41 1.59 13.72
3/9/2021 7:30:00 AM 2.13 35.834 0.06 6.37 1.67 13.75
3/9/2021 7:45:00 AM 2.14 35.852 0.06 6.42 1.57 13.75
3/9/2021 8:00:00 AM 2.17 35.906 0.06 6.42 1.64 13.77
3/9/2021 8:15:00 AM 2.24 36.032 0.06 6.43 1.67 13.79
3/9/2021 8:30:00 AM 2.29 36.122 0.06 6.41 1.55 13.8
3/9/2021 8:45:00 AM 2.36 36.248 0.06 6.43 1.53 13.8
3/9/2021 9:00:00 AM 2.43 36.374 0.06 6.43 1.65 13.79
3/9/2021 9:15:00 AM 2.53 36.554 0.06 6.43 1.56 13.74
3/9/2021 9:30:00 AM 2.64 36.752 0.06 6.43 1.57 13.73
3/9/2021 9:45:00 AM 2.77 36.986 0.06 6.44 3.77 13.72
3/9/2021 10:00:00 AM 2.88 37.184 0.06 6.44 1.57 13.69
3/9/2021 10:15:00 AM 3 37.4 0.06 6.38 1.59 13.66
3/9/2021 10:30:00 AM 3.14 37.652 0.06 6.45 1.55 13.6
3/9/2021 10:45:00 AM 3.32 37.976 0.06 6.45 1.52 13.57
3/9/2021 11:00:00 AM 3.49 38.282 0.06 6.46 1.59 13.52
3/9/2021 11:15:00 AM 3.67 38.606 0.06 6.46 1.59 13.46
3/9/2021 11:30:00 AM 3.83 38.894 0.06 6.46 1.55 13.42
3/9/2021 11:45:00 AM 3.99 39.182 0.06 6.47 1.52 13.36
3/9/2021 12:00:00 PM 4.15 39.47 0.06 6.47 1.62 13.29
3/9/2021 12:15:00 PM 4.28 39.704 0.06 6.43 1.45 13.24
3/9/2021 12:30:00 PM 4.43 39.974 0.06 6.48 1.65 13.2
3/9/2021 12:45:00 PM 4.59 40.262 0.06 6.48 1.48 13.14
3/9/2021 1:00:00 PM 4.72 40.496 0.06 6.48 1.54 13.08
3/9/2021 1:15:00 PM 4.84 40.712 0.06 6.48 1.55 13.03
3/9/2021 1:30:00 PM 4.95 40.91 0.06 6.48 1.53 13
3/9/2021 1:45:00 PM 5.04 41.072 0.06 6.44 1.53 12.97
3/9/2021 2:00:00 PM 5.1 41.18 0.06 6.48 1.65 12.92
3/9/2021 2:15:00 PM 5.15 41.27 0.06 6.48 1.59 12.88
3/9/2021 2:30:00 PM 5.21 41.378 0.06 6.49 1.59 12.84
3/9/2021 2:45:00 PM 5.24 41.432 0.06 6.42 1.7 12.81
3/9/2021 3:00:00 PM 5.28 41.504 0.06 6.49 1.65 12.78
3/9/2021 3:15:00 PM 5.3 41.54 0.06 6.45 1.66 12.75
3/9/2021 3:30:00 PM 5.32 41.576 0.061 6.5 1.66 12.73
3/9/2021 3:45:00 PM 5.32 41.576 0.061 6.49 1.78 12.72
3/9/2021 4:00:00 PM 5.31 41.558 0.061 6.48 1.84 12.71
3/9/2021 4:15:00 PM 5.3 41.54 0.061 6.43 1.82 12.7
3/9/2021 4:30:00 PM 5.29 41.522 0.061 6.49 1.9 12.7
3/9/2021 4:45:00 PM 5.25 41.45 0.061 6.48 1.96 12.72
3/9/2021 5:00:00 PM 5.2 41.36 0.061 6.48 2.07 12.73
3/9/2021 5:15:00 PM 5.14 41.252 0.061 6.47 2.14 12.76
3/9/2021 5:30:00 PM 5.06 41.108 0.061 6.41 2.13 12.78
3/9/2021 5:45:00 PM 4.99 40.982 0.061 6.47 2.21 12.8
3/9/2021 6:00:00 PM 4.9 40.82 0.061 6.46 2.25 12.81
3/9/2021 6:15:00 PM 4.81 40.658 0.061 6.44 2.38 12.82
3/9/2021 6:30:00 PM 4.72 40.496 0.062 6.44 2.23 12.85
3/9/2021 6:45:00 PM 4.64 40.352 0.062 6.44 2.66 12.88
3/9/2021 7:00:00 PM 4.55 40.19 0.062 6.35 2.67 12.92
3/9/2021 7:15:00 PM 4.49 40.082 0.062 6.42 2.46 12.94
3/9/2021 7:30:00 PM 4.41 39.938 0.062 6.42 2.51 12.97
3/9/2021 7:45:00 PM 4.35 39.83 0.062 6.41 2.6 12.98
3/9/2021 8:00:00 PM 4.28 39.704 0.063 6.41 2.89 12.99
3/9/2021 8:15:00 PM 4.22 39.596 0.063 6.41 2.83 13.01
3/9/2021 8:30:00 PM 4.17 39.506 0.063 6.4 2.72 13.03
3/9/2021 8:45:00 PM 4.11 39.398 0.063 6.34 2.79 13.07
3/9/2021 9:00:00 PM 4.06 39.308 0.063 6.39 2.77 13.09
3/9/2021 9:15:00 PM 4.01 39.218 0.064 6.39 2.78 13.1
3/9/2021 9:30:00 PM 3.96 39.128 0.064 6.36 2.99 13.13
3/9/2021 9:45:00 PM 3.91 39.038 0.064 6.39 2.83 13.15
3/9/2021 10:00:00 PM 3.87 38.966 0.064 6.39 2.79 13.16
3/9/2021 10:15:00 PM 3.82 38.876 0.064 6.39 2.88 13.18
3/9/2021 10:30:00 PM 3.77 38.786 0.064 6.38 2.82 13.18
3/9/2021 10:45:00 PM 3.72 38.696 0.064 6.34 2.66 13.2
3/9/2021 11:00:00 PM 3.68 38.624 0.064 6.39 2.65 13.21
3/9/2021 11:15:00 PM 3.64 38.552 0.064 6.38 2.72 13.22
3/9/2021 11:30:00 PM 3.6 38.48 0.064 6.37 2.51 13.25
3/9/2021 11:45:00 PM 3.55 38.39 0.064 6.37 2.57 13.27
3/10/2021 12:00:00 AM 3.51 38.318 0.064 6.37 2.44 13.29
3/10/2021 12:15:00 AM 3.46 38.228 0.064 6.35 2.44 13.3
3/10/2021 12:30:00 AM 3.42 38.156 0.064 6.34 2.37 13.33
3/10/2021 12:45:00 AM 3.39 38.102 0.064 6.36 2.34 13.34
3/10/2021 1:00:00 AM 3.35 38.03 0.063 6.37 2.29 13.35
3/10/2021 1:15:00 AM 3.31 37.958 0.063 6.37 2.27 13.37
3/10/2021 1:30:00 AM 3.28 37.904 0.063 6.37 2.21 13.38
3/10/2021 1:45:00 AM 3.24 37.832 0.063 6.37 2.19 13.39
3/10/2021 2:00:00 AM 3.2 37.76 0.063 6.35 2.19 13.38
3/10/2021 2:15:00 AM 3.17 37.706 0.063 6.36 2.11 13.4
3/10/2021 2:30:00 AM 3.13 37.634 0.063 6.29 2.05 13.42
3/10/2021 2:45:00 AM 3.1 37.58 0.063 6.36 2.02 13.42
3/10/2021 3:00:00 AM 3.07 37.526 0.063 6.34 2.02 13.43
3/10/2021 3:15:00 AM 3.03 37.454 0.063 6.34 2.09 13.45
3/10/2021 3:30:00 AM 3 37.4 0.062 6.36 2.04 13.46
3/10/2021 3:45:00 AM 2.97 37.346 0.062 6.34 1.99 13.48
3/10/2021 4:00:00 AM 2.94 37.292 0.062 6.35 1.96 13.5
3/10/2021 4:15:00 AM 2.9 37.22 0.062 6.34 2 13.5
3/10/2021 4:30:00 AM 2.87 37.166 0.062 6.36 2.04 13.51
3/10/2021 4:45:00 AM 2.84 37.112 0.062 6.36 1.93 13.53
3/10/2021 5:00:00 AM 2.81 37.058 0.062 6.36 2 13.54
3/10/2021 5:15:00 AM 2.78 37.004 0.062 6.35 1.98 13.55
3/10/2021 5:30:00 AM 2.75 36.95 0.062 6.36 1.9 13.55
3/10/2021 5:45:00 AM 2.72 36.896 0.062 6.35 2.02 13.57
3/10/2021 6:00:00 AM 2.69 36.842 0.062 6.32 2.3 13.57
3/10/2021 6:15:00 AM 2.67 36.806 0.062 6.36 2.15 13.58
3/10/2021 6:30:00 AM 2.64 36.752 0.062 6.35 2 13.58
3/10/2021 6:45:00 AM 2.61 36.698 0.062 6.35 2 13.59
3/10/2021 7:00:00 AM 2.58 36.644 0.062 6.29 1.95 13.61
3/10/2021 7:15:00 AM 2.56 36.608 0.062 6.34 1.9 13.62
3/10/2021 7:30:00 AM 2.54 36.572 0.062 6.35 1.87 13.64
3/10/2021 7:45:00 AM 2.54 36.572 0.062 6.37 1.84 13.66
3/10/2021 8:00:00 AM 2.56 36.608 0.062 6.31 1.88 13.67
3/10/2021 8:15:00 AM 2.6 36.68 0.062 6.37 1.9 13.68
3/10/2021 8:30:00 AM 2.64 36.752 0.062 6.38 1.91 13.69
3/10/2021 8:45:00 AM 2.68 36.824 0.062 6.38 1.85 13.7
3/10/2021 9:00:00 AM 2.75 36.95 0.062 6.38 1.87 13.7
3/10/2021 9:15:00 AM 2.84 37.112 0.062 6.37 1.94 13.7
3/10/2021 9:30:00 AM 2.95 37.31 0.062 6.39 1.8 13.66
3/10/2021 9:45:00 AM 3.04 37.472 0.062 6.39 1.73 13.64
3/10/2021 10:00:00 AM 3.16 37.688 0.062 6.39 1.81 13.6
3/10/2021 10:15:00 AM 3.27 37.886 0.062 6.39 1.77 13.59
3/10/2021 10:30:00 AM 3.4 38.12 0.062 6.35 1.71 13.57
3/10/2021 10:45:00 AM 3.55 38.39 0.062 6.4 1.72 13.49
3/10/2021 11:00:00 AM 3.71 38.678 0.062 6.4 1.66 13.44
3/10/2021 11:15:00 AM 3.86 38.948 0.062 6.4 1.69 13.4
3/10/2021 11:30:00 AM 4.02 39.236 0.062 6.4 1.68 13.34
3/10/2021 11:45:00 AM 4.19 39.542 0.062 6.41 1.72 13.26
3/10/2021 12:00:00 PM 4.35 39.83 0.062 6.36 1.69 13.22
3/10/2021 12:15:00 PM 4.51 40.118 0.062 6.41 1.61 13.18
3/10/2021 12:30:00 PM 4.68 40.424 0.063 6.42 1.65 13.1
3/10/2021 12:45:00 PM 4.84 40.712 0.063 6.43 1.72 13.03
3/10/2021 1:00:00 PM 4.99 40.982 0.063 6.42 1.75 12.99
3/10/2021 1:15:00 PM 5.13 41.234 0.063 6.43 1.87 12.94
3/10/2021 1:30:00 PM 5.23 41.414 0.063 6.44 1.76 12.88
3/10/2021 1:45:00 PM 5.33 41.594 0.063 6.44 1.76 12.82
3/10/2021 2:00:00 PM 5.44 41.792 0.063 6.44 1.79 12.78
3/10/2021 2:15:00 PM 5.52 41.936 0.063 6.42 1.74 12.76
3/10/2021 2:30:00 PM 5.6 42.08 0.063 6.45 1.83 12.73
3/10/2021 2:45:00 PM 5.66 42.188 0.063 6.45 1.93 12.67
3/10/2021 3:00:00 PM 5.72 42.296 0.063 6.39 2.11 12.66
3/10/2021 3:15:00 PM 5.79 42.422 0.063 6.45 2.02 12.62
3/10/2021 3:30:00 PM 5.84 42.512 0.063 6.45 1.91 12.57
3/10/2021 3:45:00 PM 5.88 42.584 0.063 6.45 2.02 12.55
3/10/2021 4:00:00 PM 5.89 42.602 0.063 6.4 2.09 12.55
3/10/2021 4:15:00 PM 5.89 42.602 0.063 6.43 2.29 12.54
3/10/2021 4:30:00 PM 5.89 42.602 0.063 6.45 2.66 12.55
3/10/2021 4:45:00 PM 5.85 42.53 0.063 6.44 3.12 12.56
3/10/2021 5:00:00 PM 5.79 42.422 0.063 6.44 3.54 12.56
3/10/2021 5:15:00 PM 5.73 42.314 0.063 6.43 3.94 12.59
3/10/2021 5:30:00 PM 5.65 42.17 0.064 6.42 4.51 12.6
3/10/2021 5:45:00 PM 5.59 42.062 0.064 6.4 5.04 12.62
3/10/2021 6:00:00 PM 5.52 41.936 0.064 6.4 5.45 12.62
3/10/2021 6:15:00 PM 5.46 41.828 0.065 6.38 6.2 12.61
3/10/2021 6:30:00 PM 5.39 41.702 0.065 6.37 6.36 12.63
3/10/2021 6:45:00 PM 5.33 41.594 0.065 6.36 6.94 12.64
3/10/2021 7:00:00 PM 5.27 41.486 0.066 6.35 7.42 12.66
3/10/2021 7:15:00 PM 5.19 41.342 0.066 6.27 8.38 12.7
3/10/2021 7:30:00 PM 5.15 41.27 0.066 6.34 8.14 12.72
3/10/2021 7:45:00 PM 5.08 41.144 0.066 6.29 8.62 12.75
3/10/2021 8:00:00 PM 5.02 41.036 0.066 6.32 9.09 12.78
3/10/2021 8:15:00 PM 4.96 40.928 0.066 6.29 8.95 12.79
3/10/2021 8:30:00 PM 4.9 40.82 0.065 6.29 9.47 12.79
3/10/2021 8:45:00 PM 4.84 40.712 0.065 6.29 9.22 12.81
3/10/2021 9:00:00 PM 4.78 40.604 0.065 6.24 8.66 12.83
3/10/2021 9:15:00 PM 4.74 40.532 0.064 6.28 8.86 12.84
3/10/2021 9:30:00 PM 4.69 40.442 0.064 6.27 8.23 12.87
3/10/2021 9:45:00 PM 4.64 40.352 0.063 6.23 8.09 12.89
3/10/2021 10:00:00 PM 4.59 40.262 0.063 6.27 7.88 12.91
3/10/2021 10:15:00 PM 4.55 40.19 0.062 6.26 7.77 12.94
3/10/2021 10:30:00 PM 4.5 40.1 0.062 6.23 7.74 12.96
3/10/2021 10:45:00 PM 4.46 40.028 0.062 6.26 7.4 12.97
3/10/2021 11:00:00 PM 4.43 39.974 0.061 6.26 6.71 12.97
3/10/2021 11:15:00 PM 4.4 39.92 0.061 6.26 6.54 12.98
3/10/2021 11:30:00 PM 4.38 39.884 0.061 6.27 6.46 12.98
3/10/2021 11:45:00 PM 4.35 39.83 0.061 6.27 6.08 13
3/11/2021 12:00:00 AM 4.34 39.812 0.061 6.25 5.8 12.99
3/11/2021 12:15:00 AM 4.32 39.776 0.061 6.25 5.81 13
3/11/2021 12:30:00 AM 4.3 39.74 0.061 6.26 5.6 13
3/11/2021 12:45:00 AM 4.29 39.722 0.061 6.25 5.49 13
3/11/2021 1:00:00 AM 4.27 39.686 0.061 6.25 5.54 13.01
3/11/2021 1:15:00 AM 4.26 39.668 0.061 6.25 5.25 13.01
3/11/2021 1:30:00 AM 4.24 39.632 0.061 6.24 5.25 13.02
3/11/2021 1:45:00 AM 4.23 39.614 0.061 6.2 5.07 13.02
3/11/2021 2:00:00 AM 4.23 39.614 0.061 6.25 5.15 13.02
3/11/2021 2:15:00 AM 4.22 39.596 0.061 6.28 4.97 13.02
3/11/2021 2:30:00 AM 4.21 39.578 0.061 6.29 5.33 13.03
3/11/2021 2:45:00 AM 4.2 39.56 0.061 6.29 5.37 13.02
3/11/2021 3:00:00 AM 4.19 39.542 0.061 6.29 4.9 13.03
3/11/2021 3:15:00 AM 4.19 39.542 0.061 6.28 4.97 13.03
3/11/2021 3:30:00 AM 4.18 39.524 0.061 6.29 5.21 13.03
3/11/2021 3:45:00 AM 4.17 39.506 0.061 6.28 4.94 13.03
3/11/2021 4:00:00 AM 4.16 39.488 0.061 6.28 5.04 13.04
3/11/2021 4:15:00 AM 4.15 39.47 0.061 6.28 4.99 13.05
3/11/2021 4:30:00 AM 4.14 39.452 0.061 6.25 4.91 13.05
3/11/2021 4:45:00 AM 4.13 39.434 0.061 6.27 4.91 13.04
3/11/2021 5:00:00 AM 4.11 39.398 0.061 6.28 4.82 13.06
3/11/2021 5:15:00 AM 4.09 39.362 0.06 6.27 4.91 13.07
3/11/2021 5:30:00 AM 4.08 39.344 0.06 6.28 4.99 13.07
3/11/2021 5:45:00 AM 4.05 39.29 0.06 6.21 4.93 13.09
3/11/2021 6:00:00 AM 4.05 39.29 0.06 6.26 4.65 13.08
3/11/2021 6:15:00 AM 4.03 39.254 0.06 6.27 4.72 13.08
3/11/2021 6:30:00 AM 4.01 39.218 0.06 6.27 4.79 13.09
3/11/2021 6:45:00 AM 3.99 39.182 0.06 6.27 5.43 13.1
3/11/2021 7:00:00 AM 3.98 39.164 0.059 6.28 4.79 13.12
3/11/2021 7:15:00 AM 3.97 39.146 0.059 6.28 4.53 13.12
3/11/2021 7:30:00 AM 3.98 39.164 0.059 6.28 4.63 13.14
3/11/2021 7:45:00 AM 4 39.2 0.059 6.29 4.72 13.14
3/11/2021 8:00:00 AM 4.02 39.236 0.059 6.29 4.52 13.14
3/11/2021 8:15:00 AM 4.06 39.308 0.059 6.3 4.56 13.14
3/11/2021 8:30:00 AM 4.1 39.38 0.058 6.25 4.62 13.14
3/11/2021 8:45:00 AM 4.17 39.506 0.058 6.31 4.65 13.11
3/11/2021 9:00:00 AM 4.19 39.542 0.058 6.3 4.55 13.08
3/11/2021 9:15:00 AM 4.21 39.578 0.058 6.3 4.55 13.06
3/11/2021 9:30:00 AM 4.25 39.65 0.058 6.31 4.51 13.05
3/11/2021 9:45:00 AM 4.3 39.74 0.058 6.3 4.52 13.05
3/11/2021 10:00:00 AM 4.36 39.848 0.058 6.31 4.63 13.04
3/11/2021 10:15:00 AM 4.48 40.064 0.057 6.31 4.57 13.05
3/11/2021 10:30:00 AM 4.57 40.226 0.057 6.32 4.52 13.01
3/11/2021 10:45:00 AM 4.68 40.424 0.057 6.32 4.53 12.97
3/11/2021 11:00:00 AM 4.75 40.55 0.057 6.32 4.53 12.92
3/11/2021 11:15:00 AM 4.85 40.73 0.057 6.33 4.59 12.89
3/11/2021 11:30:00 AM 4.93 40.874 0.057 6.33 4.67 12.87
3/11/2021 11:45:00 AM 5.02 41.036 0.057 6.32 4.67 12.86
3/11/2021 12:00:00 PM 5.09 41.162 0.056 6.34 4.65 12.82
3/11/2021 12:15:00 PM 5.18 41.324 0.056 6.34 4.61 12.79
3/11/2021 12:30:00 PM 5.27 41.486 0.056 6.35 4.83 12.76
3/11/2021 12:45:00 PM 5.4 41.72 0.056 6.36 4.75 12.71
3/11/2021 1:00:00 PM 5.49 41.882 0.056 6.35 4.94 12.69
3/11/2021 1:15:00 PM 5.61 42.098 0.056 6.35 5.18 12.66
3/11/2021 1:30:00 PM 5.69 42.242 0.056 6.35 5.32 12.64
3/11/2021 1:45:00 PM 5.8 42.44 0.056 6.35 5.77 12.61
3/11/2021 2:00:00 PM 5.9 42.62 0.056 6.34 6.16 12.54
3/11/2021 2:15:00 PM 6 42.8 0.055 6.34 7.08 12.51
3/11/2021 2:30:00 PM 6.09 42.962 0.055 6.34 8.03 12.49
3/11/2021 2:45:00 PM 6.14 43.052 0.055 6.31 9.59 12.46
3/11/2021 3:00:00 PM 6.16 43.088 0.055 6.28 10.62 12.44
3/11/2021 3:15:00 PM 6.19 43.142 0.055 6.32 13.24 12.43
3/11/2021 3:30:00 PM 6.19 43.142 0.055 6.3 14.22 12.44
3/11/2021 3:45:00 PM 6.2 43.16 0.055 6.3 19.05 12.43
3/11/2021 4:00:00 PM 6.17 43.106 0.056 6.29 16.79 12.43
3/11/2021 4:15:00 PM 6.17 43.106 0.056 6.26 24.33 12.44
3/11/2021 4:30:00 PM 6.16 43.088 0.056 6.25 29.46 12.43
3/11/2021 4:45:00 PM 6.13 43.034 0.056 6.25 31.38 12.44
3/11/2021 5:00:00 PM 6.11 42.998 0.056 6.23 31.84 12.44
3/11/2021 5:15:00 PM 6.06 42.908 0.056 6.15 33.55 12.45
3/11/2021 5:30:00 PM 6.02 42.836 0.056 6.2 33.46 12.44
3/11/2021 5:45:00 PM 5.97 42.746 0.055 6.21 41.41 12.46
3/11/2021 6:00:00 PM 5.93 42.674 0.055 6.2 38.76 12.46
3/11/2021 6:15:00 PM 5.88 42.584 0.055 6.14 35.73 12.48
3/11/2021 6:30:00 PM 5.83 42.494 0.054 6.19 36.19 12.51
3/11/2021 6:45:00 PM 5.77 42.386 0.054 6.16 32.81 12.53
3/11/2021 7:00:00 PM 5.73 42.314 0.054 6.18 34.15 12.55
3/11/2021 7:15:00 PM 5.69 42.242 0.053 6.17 34.52 12.56
3/11/2021 7:30:00 PM 5.64 42.152 0.053 6.16 36.64 12.59
3/11/2021 7:45:00 PM 5.6 42.08 0.053 6.1 34.42 12.59
3/11/2021 8:00:00 PM 5.58 42.044 0.053 6.16 33.19 12.62
3/11/2021 8:15:00 PM 5.55 41.99 0.053 6.17 31.46 12.61
3/11/2021 8:30:00 PM 5.51 41.918 0.053 6.09 41.96 12.61
3/11/2021 8:45:00 PM 5.49 41.882 0.052 6.13 35.35 12.61
3/11/2021 9:00:00 PM 5.48 41.864 0.052 6.15 44.53 12.62
3/11/2021 9:15:00 PM 5.46 41.828 0.052 6.12 31.14 12.64
3/11/2021 9:30:00 PM 5.43 41.774 0.052 6.14 33.49 12.63
3/11/2021 9:45:00 PM 5.4 41.72 0.052 6.11 35.86 12.64
3/11/2021 10:00:00 PM 5.38 41.684 0.052 6.12 34.18 12.65
3/11/2021 10:15:00 PM 5.36 41.648 0.051 6.14 34.5 12.66
3/11/2021 10:30:00 PM 5.34 41.612 0.051 6.08 29.92 12.66
3/11/2021 10:45:00 PM 5.32 41.576 0.051 6.09 29.87 12.67
3/11/2021 11:00:00 PM 5.3 41.54 0.051 6.09 32.37 12.68
3/11/2021 11:15:00 PM 5.28 41.504 0.05 6.12 28.38 12.69
3/11/2021 11:30:00 PM 5.26 41.468 0.05 6.1 26.95 12.7
3/11/2021 11:45:00 PM 5.24 41.432 0.05 6.02 28.84 12.71
3/12/2021 12:00:00 AM 5.24 41.432 0.05 6.09 27.91 12.71
3/12/2021 12:15:00 AM 5.23 41.414 0.049 6.09 38.59 12.71
3/12/2021 12:30:00 AM 5.21 41.378 0.049 6.08 30.39 12.72
3/12/2021 12:45:00 AM 5.19 41.342 0.049 6.09 25.96 12.73
3/12/2021 1:00:00 AM 5.18 41.324 0.049 6.13 30.49 12.72
3/12/2021 1:15:00 AM 5.17 41.306 0.049 6.12 32.01 12.73
3/12/2021 1:30:00 AM 5.17 41.306 0.049 6.1 29.89 12.73
3/12/2021 1:45:00 AM 5.17 41.306 0.048 6.13 28.13 12.73
3/12/2021 2:00:00 AM 5.18 41.324 0.048 6.1 35.96 12.73
3/12/2021 2:15:00 AM 5.18 41.324 0.048 6 28.61 12.74
3/12/2021 2:30:00 AM 5.2 41.36 0.048 6.1 27.77 12.74
3/12/2021 2:45:00 AM 5.19 41.342 0.048 6.08 27.72 12.74
3/12/2021 3:00:00 AM 5.18 41.324 0.048 6.09 30.91 12.74
3/12/2021 3:15:00 AM 5.17 41.306 0.048 6.01 28.09 12.74
3/12/2021 3:30:00 AM 5.17 41.306 0.047 6.1 36.12 12.74
3/12/2021 3:45:00 AM 5.15 41.27 0.047 6.09 31.73 12.75
3/12/2021 4:00:00 AM 5.15 41.27 0.047 6.11 24.77 12.75
3/12/2021 4:15:00 AM 5.13 41.234 0.047 6.1 23.94 12.77
3/12/2021 4:30:00 AM 5.11 41.198 0.047 6.14 24.99 12.78
3/12/2021 4:45:00 AM 5.08 41.144 0.047 6.11 27.45 12.79
3/12/2021 5:00:00 AM 5.05 41.09 0.047 6.14 24.58 12.8
3/12/2021 5:15:00 AM 5.02 41.036 0.047 6.1 25.43 12.81
3/12/2021 5:30:00 AM 4.99 40.982 0.047 6.14 26.02 12.82
3/12/2021 5:45:00 AM 4.96 40.928 0.047 6.12 23.17 12.83
3/12/2021 6:00:00 AM 4.92 40.856 0.047 6.13 24.18 12.83
3/12/2021 6:15:00 AM 4.89 40.802 0.046 6.13 22.62 12.84
3/12/2021 6:30:00 AM 4.86 40.748 0.046 6.14 23.42 12.85
3/12/2021 6:45:00 AM 4.83 40.694 0.046 6.09 23.35 12.86
3/12/2021 7:00:00 AM 4.81 40.658 0.046 6.12 30.52 12.87
3/12/2021 7:15:00 AM 4.78 40.604 0.046 6.13 19.12 12.87
3/12/2021 7:30:00 AM 4.75 40.55 0.046 6.1 18.38 12.89
3/12/2021 7:45:00 AM 4.75 40.55 0.046 6.13 16.94 12.91
3/12/2021 8:00:00 AM 4.75 40.55 0.046 6.12 18.83 12.92
3/12/2021 8:15:00 AM 4.75 40.55 0.046 6.13 20.63 12.92
3/12/2021 8:30:00 AM 4.76 40.568 0.046 6.12 19.74 12.92
3/12/2021 8:45:00 AM 4.79 40.622 0.046 6.13 19.7 12.92
3/12/2021 9:00:00 AM 4.83 40.694 0.046 6.13 17.88 12.92
3/12/2021 9:15:00 AM 4.88 40.784 0.046 6.11 16.36 12.91
3/12/2021 9:30:00 AM 4.94 40.892 0.046 6.11 17.6 12.89
3/12/2021 9:45:00 AM 5.02 41.036 0.046 6.13 20.95 12.88
3/12/2021 10:00:00 AM 5.11 41.198 0.046 6.14 16.49 12.87
3/12/2021 10:15:00 AM 5.21 41.378 0.046 6.13 14.24 12.83
3/12/2021 10:30:00 AM 5.32 41.576 0.046 6.13 16.99 12.77
3/12/2021 10:45:00 AM 5.45 41.81 0.046 6.12 17.07 12.74
3/12/2021 11:00:00 AM 5.57 42.026 0.046 6.11 16.45 12.7
3/12/2021 11:15:00 AM 5.7 42.26 0.045 6.17 15.65 12.68
3/12/2021 11:30:00 AM 5.82 42.476 0.045 6.16 15.73 12.61
3/12/2021 11:45:00 AM 5.95 42.71 0.045 6.19 15.15 12.56
3/12/2021 12:00:00 PM 6.09 42.962 0.045 6.08 15.01 12.52
3/12/2021 12:15:00 PM 6.22 43.196 0.045 6.17 15.09 12.49
3/12/2021 12:30:00 PM 6.35 43.43 0.045 6.19 15.93 12.45
3/12/2021 12:45:00 PM 6.48 43.664 0.045 6.2 15.43 12.4
3/12/2021 1:00:00 PM 6.59 43.862 0.045 6.2 14.98 12.34
3/12/2021 1:15:00 PM 6.7 44.06 0.045 6.21 14.99 12.31
3/12/2021 1:30:00 PM 6.79 44.222 0.045 6.21 14.79 12.29
3/12/2021 1:45:00 PM 6.88 44.384 0.045 6.21 14.98 12.26
3/12/2021 2:00:00 PM 6.96 44.528 0.045 6.21 14.95 12.22
3/12/2021 2:15:00 PM 7.03 44.654 0.046 6.2 14.87 12.19
3/12/2021 2:30:00 PM 7.08 44.744 0.046 6.18 15.64 12.16
3/12/2021 2:45:00 PM 7.12 44.816 0.046 6.2 16.03 12.14
3/12/2021 3:00:00 PM 7.15 44.87 0.046 6.21 17.93 12.13
3/12/2021 3:15:00 PM 7.17 44.906 0.046 6.13 16.1 12.1
3/12/2021 3:30:00 PM 7.18 44.924 0.046 6.19 16.74 12.1
3/12/2021 3:45:00 PM 7.18 44.924 0.046 6.18 16.55 12.1
3/12/2021 4:00:00 PM 7.16 44.888 0.046 6.17 16.94 12.1
3/12/2021 4:15:00 PM 7.13 44.834 0.046 6.16 25 12.11
3/12/2021 4:30:00 PM 7.1 44.78 0.046 6.17 16.6 12.12
3/12/2021 4:45:00 PM 7.05 44.69 0.046 6.17 17.37 12.14
3/12/2021 5:00:00 PM 7 44.6 0.046 6.15 19.55 12.16
3/12/2021 5:15:00 PM 6.94 44.492 0.046 6.16 19.92 12.17
3/12/2021 5:30:00 PM 6.88 44.384 0.046 6.15 18.64 12.2
3/12/2021 5:45:00 PM 6.81 44.258 0.046 6.14 21.5 12.21
3/12/2021 6:00:00 PM 6.74 44.132 0.046 6.12 20.26 12.22
3/12/2021 6:15:00 PM 6.67 44.006 0.046 6.08 18.97 12.23
3/12/2021 6:30:00 PM 6.59 43.862 0.046 6.14 20.62 12.25
3/12/2021 6:45:00 PM 6.52 43.736 0.046 6.12 18.01 12.28
3/12/2021 7:00:00 PM 6.44 43.592 0.046 6.12 19.16 12.32
3/12/2021 7:15:00 PM 6.36 43.448 0.046 6.13 16.63 12.36
3/12/2021 7:30:00 PM 6.28 43.304 0.045 6.12 15.6 12.39
3/12/2021 7:45:00 PM 6.21 43.178 0.045 6.12 14.96 12.42
3/12/2021 8:00:00 PM 6.14 43.052 0.045 6.14 15.78 12.43
3/12/2021 8:15:00 PM 6.07 42.926 0.045 6.14 15.2 12.44
3/12/2021 8:30:00 PM 6.01 42.818 0.045 6.14 14.5 12.47
3/12/2021 8:45:00 PM 5.94 42.692 0.045 6.13 14.9 12.48
3/12/2021 9:00:00 PM 5.88 42.584 0.045 6.14 13.97 12.5
3/12/2021 9:15:00 PM 5.83 42.494 0.045 6.14 13.9 12.55
3/12/2021 9:30:00 PM 5.78 42.404 0.045 6.15 13.81 12.57
3/12/2021 9:45:00 PM 5.73 42.314 0.045 6.16 13.63 12.58
3/12/2021 10:00:00 PM 5.68 42.224 0.045 6.15 13.1 12.62
3/12/2021 10:15:00 PM 5.63 42.134 0.045 6.14 12.81 12.63
3/12/2021 10:30:00 PM 5.58 42.044 0.045 6.16 13.19 12.63
3/12/2021 10:45:00 PM 5.53 41.954 0.045 6.15 12.64 12.64
3/12/2021 11:00:00 PM 5.48 41.864 0.045 6.16 12.19 12.66
3/12/2021 11:15:00 PM 5.42 41.756 0.045 6.16 12.32 12.68
3/12/2021 11:30:00 PM 5.36 41.648 0.045 6.16 11.94 12.7
3/12/2021 11:45:00 PM 5.31 41.558 0.045 6.17 11.94 12.72
3/13/2021 12:00:00 AM 5.25 41.45 0.045 6.09 11.83 12.75
3/13/2021 12:15:00 AM 5.2 41.36 0.045 6.17 11.61 12.78
3/13/2021 12:30:00 AM 5.14 41.252 0.045 6.17 11.15 12.8
3/13/2021 12:45:00 AM 5.08 41.144 0.045 6.16 11.44 12.82
3/13/2021 1:00:00 AM 5.03 41.054 0.045 6.17 11.31 12.83
3/13/2021 1:15:00 AM 4.98 40.964 0.045 6.16 10.93 12.85
3/13/2021 1:30:00 AM 4.93 40.874 0.045 6.18 11.2 12.85
3/13/2021 1:45:00 AM 4.88 40.784 0.045 6.17 10.97 12.86
3/13/2021 2:00:00 AM 4.83 40.694 0.045 6.17 10.89 12.88
3/13/2021 2:15:00 AM 4.78 40.604 0.045 6.17 10.65 12.89
3/13/2021 2:30:00 AM 4.73 40.514 0.045 6.1 10.09 12.93
3/13/2021 2:45:00 AM 4.69 40.442 0.045 6.17 10.33 12.94
3/13/2021 3:00:00 AM 4.64 40.352 0.045 6.17 10.5 12.96
3/13/2021 3:15:00 AM 4.6 40.28 0.045 6.15 10.33 12.98
3/13/2021 3:30:00 AM 4.56 40.208 0.045 6.17 9.6 12.99
3/13/2021 3:45:00 AM 4.53 40.154 0.045 6.17 9.57 13.01
3/13/2021 4:00:00 AM 4.49 40.082 0.045 6.17 9.72 13.02
3/13/2021 4:15:00 AM 4.46 40.028 0.045 6.14 9.72 13.03
3/13/2021 4:30:00 AM 4.42 39.956 0.045 6.15 9.42 13.02
3/13/2021 4:45:00 AM 4.39 39.902 0.045 6.14 9.36 13.04
3/13/2021 5:00:00 AM 4.36 39.848 0.045 6.14 9.32 13.04
3/13/2021 5:15:00 AM 4.33 39.794 0.045 6.14 9.25 13.06
3/13/2021 5:30:00 AM 4.3 39.74 0.045 6.13 8.95 13.07
3/13/2021 5:45:00 AM 4.27 39.686 0.045 6.15 9.25 13.07
3/13/2021 6:00:00 AM 4.24 39.632 0.045 6.14 9.04 13.08
3/13/2021 6:15:00 AM 4.21 39.578 0.045 6.14 9 13.1
3/13/2021 6:30:00 AM 4.17 39.506 0.045 6.12 8.65 13.1
3/13/2021 6:45:00 AM 4.15 39.47 0.045 6.14 8.88 13.12
3/13/2021 7:00:00 AM 4.12 39.416 0.045 6.13 8.46 13.15
3/13/2021 7:15:00 AM 4.1 39.38 0.045 6.13 8.58 13.15
3/13/2021 7:30:00 AM 4.08 39.344 0.045 6.14 8.31 13.17
3/13/2021 7:45:00 AM 4.08 39.344 0.045 6.14 8.4 13.17
3/13/2021 8:00:00 AM 4.07 39.326 0.045 6.15 8.24 13.18
3/13/2021 8:15:00 AM 4.06 39.308 0.045 6.04 8.18 13.19
3/13/2021 8:30:00 AM 4.08 39.344 0.045 6.15 8.32 13.2
3/13/2021 8:45:00 AM 4.11 39.398 0.045 6.16 8.23 13.19
3/13/2021 9:00:00 AM 4.13 39.434 0.045 6.15 8.11 13.18
3/13/2021 9:15:00 AM 4.17 39.506 0.045 6.15 8.04 13.18
3/13/2021 9:30:00 AM 4.21 39.578 0.045 6.17 7.8 13.16
3/13/2021 9:45:00 AM 4.27 39.686 0.045 6.16 7.71 13.14
3/13/2021 10:00:00 AM 4.33 39.794 0.045 6.11 7.58 13.14
3/13/2021 10:15:00 AM 4.41 39.938 0.045 6.17 7.46 13.12
3/13/2021 10:30:00 AM 4.49 40.082 0.045 6.11 7.3 13.12
3/13/2021 10:45:00 AM 4.6 40.28 0.045 6.17 7.59 13.06
3/13/2021 11:00:00 AM 4.71 40.478 0.045 6.17 8.12 13.03
3/13/2021 11:15:00 AM 4.82 40.676 0.045 6.12 7.33 12.99
3/13/2021 11:30:00 AM 4.94 40.892 0.045 6.19 7.43 12.95
3/13/2021 11:45:00 AM 5.06 41.108 0.045 6.18 7.59 12.93
3/13/2021 12:00:00 PM 5.19 41.342 0.045 6.17 7.5 12.87
3/13/2021 12:15:00 PM 5.32 41.576 0.046 6.14 7.21 12.81
3/13/2021 12:30:00 PM 5.45 41.81 0.046 6.16 7.19 12.75
3/13/2021 12:45:00 PM 5.57 42.026 0.046 6.18 7.29 12.73
3/13/2021 1:00:00 PM 5.69 42.242 0.046 6.2 7.02 12.67
3/13/2021 1:15:00 PM 5.81 42.458 0.046 6.19 7 12.64
3/13/2021 1:30:00 PM 5.91 42.638 0.046 6.2 6.88 12.59
3/13/2021 1:45:00 PM 6 42.8 0.046 6.19 7.34 12.54
3/13/2021 2:00:00 PM 6.09 42.962 0.046 6.18 6.73 12.51
3/13/2021 2:15:00 PM 6.16 43.088 0.046 6.2 7.14 12.48
3/13/2021 2:30:00 PM 6.21 43.178 0.046 6.21 7.01 12.46
3/13/2021 2:45:00 PM 6.27 43.286 0.046 6.15 6.7 12.45
3/13/2021 3:00:00 PM 6.31 43.358 0.046 6.22 6.91 12.42
3/13/2021 3:15:00 PM 6.34 43.412 0.046 6.2 6.91 12.4
3/13/2021 3:30:00 PM 6.36 43.448 0.046 6.22 6.42 12.38
3/13/2021 3:45:00 PM 6.37 43.466 0.046 6.21 6.39 12.38
3/13/2021 4:00:00 PM 6.37 43.466 0.046 6.22 6.55 12.38
3/13/2021 4:15:00 PM 6.36 43.448 0.046 6.21 6.59 12.36
3/13/2021 4:30:00 PM 6.34 43.412 0.046 6.22 6.45 12.37
3/13/2021 4:45:00 PM 6.32 43.376 0.046 6.19 6.46 12.37
3/13/2021 5:00:00 PM 6.28 43.304 0.046 6.18 6.5 12.38
3/13/2021 5:15:00 PM 6.24 43.232 0.046 6.21 6.76 12.39
3/13/2021 5:30:00 PM 6.2 43.16 0.046 6.22 6.27 12.4
3/13/2021 5:45:00 PM 6.16 43.088 0.046 6.21 6.49 12.41
3/13/2021 6:00:00 PM 6.11 42.998 0.046 6.21 6.61 12.41
3/13/2021 6:15:00 PM 6.07 42.926 0.046 6.22 6.65 12.42
3/13/2021 6:30:00 PM 6.02 42.836 0.046 6.2 6.42 12.43
3/13/2021 6:45:00 PM 5.97 42.746 0.046 6.21 6.43 12.45
3/13/2021 7:00:00 PM 5.92 42.656 0.046 6.21 6.66 12.47
3/13/2021 7:15:00 PM 5.86 42.548 0.046 6.21 6.39 12.49
3/13/2021 7:30:00 PM 5.8 42.44 0.046 6.21 6.69 12.5
3/13/2021 7:45:00 PM 5.74 42.332 0.046 6.14 6.62 12.54
3/13/2021 8:00:00 PM 5.68 42.224 0.046 6.21 6.29 12.55
3/13/2021 8:15:00 PM 5.62 42.116 0.046 6.2 6.69 12.58
3/13/2021 8:30:00 PM 5.56 42.008 0.046 6.21 6.15 12.6
3/13/2021 8:45:00 PM 5.49 41.882 0.046 6.21 6.35 12.6
3/13/2021 9:00:00 PM 5.43 41.774 0.046 6.22 6.22 12.62
3/13/2021 9:15:00 PM 5.36 41.648 0.046 6.22 6.3 12.63
3/13/2021 9:30:00 PM 5.31 41.558 0.046 6.21 6.18 12.65
3/13/2021 9:45:00 PM 5.24 41.432 0.047 6.19 6.14 12.67
3/13/2021 10:00:00 PM 5.19 41.342 0.047 6.21 6.08 12.69
3/13/2021 10:15:00 PM 5.14 41.252 0.047 6.21 6.2 12.71
3/13/2021 10:30:00 PM 5.09 41.162 0.047 6.22 6.34 12.74
3/13/2021 10:45:00 PM 5.04 41.072 0.047 6.22 6.07 12.75
3/13/2021 11:00:00 PM 4.99 40.982 0.047 6.18 6.23 12.76
3/13/2021 11:15:00 PM 4.95 40.91 0.047 6.21 5.89 12.76
3/13/2021 11:30:00 PM 4.91 40.838 0.047 6.22 6.08 12.77
3/13/2021 11:45:00 PM 4.86 40.748 0.047 6.22 5.92 12.78
3/14/2021 12:00:00 AM 4.82 40.676 0.047 6.22 6.11 12.79
3/14/2021 12:15:00 AM 4.78 40.604 0.047 6.22 6.1 12.8
3/14/2021 12:30:00 AM 4.73 40.514 0.047 6.18 5.86 12.83
3/14/2021 12:45:00 AM 4.7 40.46 0.047 6.22 5.77 12.83
3/14/2021 1:00:00 AM 4.66 40.388 0.047 6.23 5.66 12.85
3/14/2021 1:15:00 AM 4.63 40.334 0.047 6.23 5.43 12.86
3/14/2021 1:30:00 AM 4.6 40.28 0.047 6.22 5.79 12.87
3/14/2021 1:45:00 AM 4.57 40.226 0.047 6.21 5.69 12.88
3/14/2021 3:00:00 AM 4.45 40.01 0.047 6.23 5.49 12.9
3/14/2021 3:15:00 AM 4.43 39.974 0.047 6.22 6.54 12.91
3/14/2021 3:30:00 AM 4.41 39.938 0.047 6.23 5.88 12.91
3/14/2021 3:45:00 AM 4.38 39.884 0.047 6.22 5.42 12.92
3/14/2021 4:00:00 AM 4.37 39.866 0.047 6.23 5.42 12.9
3/14/2021 5:15:00 AM 4.35 39.83 0.047 6.23 5.44 12.92
3/14/2021 5:30:00 AM 4.33 39.794 0.047 6.22 5.15 12.92
3/14/2021 5:45:00 AM 4.32 39.776 0.047 6.22 5.41 12.92
3/14/2021 6:00:00 AM 4.31 39.758 0.047 6.22 5.25 12.92
3/14/2021 6:15:00 AM 4.3 39.74 0.047 6.23 5.2 12.93
3/14/2021 6:30:00 AM 4.29 39.722 0.047 6.22 5.13 12.92
3/14/2021 6:45:00 AM 4.28 39.704 0.047 6.23 5.06 12.93
3/14/2021 7:00:00 AM 4.26 39.668 0.047 6.23 5.3 12.93
3/14/2021 7:15:00 AM 4.24 39.632 0.047 6.15 5 12.94
3/14/2021 7:30:00 AM 4.24 39.632 0.047 6.23 4.85 12.94
3/14/2021 7:45:00 AM 4.23 39.614 0.047 6.24 4.88 12.95
3/14/2021 8:00:00 AM 4.2 39.56 0.047 6.15 5.03 12.96
3/14/2021 8:15:00 AM 4.2 39.56 0.047 6.21 4.89 12.97
3/14/2021 8:30:00 AM 4.2 39.56 0.047 6.24 4.74 12.97
3/14/2021 8:45:00 AM 4.22 39.596 0.047 6.24 4.83 12.98
3/14/2021 9:00:00 AM 4.24 39.632 0.047 6.24 5.09 12.99
3/14/2021 9:15:00 AM 4.25 39.65 0.047 6.15 4.83 12.99
3/14/2021 9:30:00 AM 4.31 39.758 0.047 6.24 4.61 12.98
3/14/2021 9:45:00 AM 4.37 39.866 0.047 6.23 4.7 12.98
3/14/2021 10:00:00 AM 4.45 40.01 0.047 6.25 4.71 12.98
3/14/2021 10:15:00 AM 4.51 40.118 0.047 6.17 4.61 12.98
3/14/2021 10:30:00 AM 4.6 40.28 0.047 6.26 4.84 12.94
3/14/2021 10:45:00 AM 4.69 40.442 0.047 6.25 4.86 12.91
3/14/2021 11:00:00 AM 4.79 40.622 0.047 6.24 4.66 12.87
3/14/2021 11:15:00 AM 4.9 40.82 0.047 6.26 4.56 12.84
3/14/2021 11:30:00 AM 5.01 41.018 0.047 6.22 4.5 12.83
3/14/2021 11:45:00 AM 5.12 41.216 0.048 6.26 4.42 12.79
3/14/2021 12:00:00 PM 5.23 41.414 0.048 6.26 4.59 12.76
3/14/2021 12:15:00 PM 5.33 41.594 0.048 6.26 4.39 12.71
3/14/2021 12:30:00 PM 5.45 41.81 0.048 6.27 4.45 12.67
3/14/2021 12:45:00 PM 5.58 42.044 0.048 6.26 4.54 12.64
3/14/2021 1:00:00 PM 5.67 42.206 0.048 6.27 4.61 12.61
3/14/2021 1:15:00 PM 5.72 42.296 0.048 6.27 4.56 12.57
3/14/2021 1:30:00 PM 5.9 42.62 0.048 6.27 4.85 12.51
3/14/2021 1:45:00 PM 6.02 42.836 0.048 6.27 4.19 12.48
3/14/2021 2:00:00 PM 6.13 43.034 0.048 6.27 4.27 12.45
3/14/2021 2:15:00 PM 6.22 43.196 0.048 6.28 4.25 12.43
3/14/2021 2:30:00 PM 6.29 43.322 0.048 6.28 4.39 12.4
3/14/2021 2:45:00 PM 6.33 43.394 0.048 6.28 4.41 12.37
3/14/2021 3:00:00 PM 6.34 43.412 0.048 6.26 4.28 12.37
3/14/2021 3:15:00 PM 6.37 43.466 0.048 6.25 4.47 12.34
3/14/2021 3:30:00 PM 6.37 43.466 0.048 6.29 4.37 12.34
3/14/2021 3:45:00 PM 6.4 43.52 0.048 6.29 4.14 12.33
3/14/2021 4:00:00 PM 6.43 43.574 0.048 6.28 4.45 12.32
3/14/2021 4:15:00 PM 6.46 43.628 0.048 6.22 4.35 12.31
3/14/2021 4:30:00 PM 6.48 43.664 0.048 6.29 4.29 12.3
3/14/2021 4:45:00 PM 6.51 43.718 0.048 6.28 4.48 12.27
3/14/2021 5:00:00 PM 6.49 43.682 0.048 6.29 4.34 12.27
3/14/2021 5:15:00 PM 6.44 43.592 0.048 6.29 4.37 12.29
3/14/2021 5:30:00 PM 6.39 43.502 0.048 6.28 4.44 12.31
3/14/2021 5:45:00 PM 6.32 43.376 0.048 6.29 4.37 12.33
3/14/2021 6:00:00 PM 6.24 43.232 0.048 6.28 4.64 12.37
3/14/2021 6:15:00 PM 6.15 43.07 0.049 6.28 4.42 12.38
3/14/2021 6:30:00 PM 6.04 42.872 0.049 6.28 4.35 12.4
3/14/2021 6:45:00 PM 5.93 42.674 0.049 6.28 4.05 12.43
3/14/2021 7:00:00 PM 5.83 42.494 0.049 6.28 4.46 12.48
3/14/2021 7:15:00 PM 5.73 42.314 0.049 6.23 4.58 12.52
3/14/2021 7:30:00 PM 5.66 42.188 0.049 6.28 4.38 12.55
3/14/2021 7:45:00 PM 5.57 42.026 0.049 6.27 4.27 12.56
3/14/2021 8:00:00 PM 5.49 41.882 0.049 6.27 4.27 12.59
3/14/2021 8:15:00 PM 5.41 41.738 0.049 6.28 4.21 12.6
3/14/2021 8:30:00 PM 5.33 41.594 0.049 6.26 4.26 12.62
3/14/2021 8:45:00 PM 5.25 41.45 0.049 6.23 4.25 12.67
3/14/2021 9:00:00 PM 5.19 41.342 0.049 6.27 4.22 12.7
3/14/2021 9:15:00 PM 5.11 41.198 0.049 6.27 4.05 12.73
3/14/2021 9:30:00 PM 5.04 41.072 0.049 6.27 4.32 12.76
3/14/2021 9:45:00 PM 4.95 40.91 0.049 6.27 4.16 12.78
3/14/2021 10:00:00 PM 4.86 40.748 0.049 6.27 3.94 12.8
3/14/2021 10:15:00 PM 4.8 40.64 0.049 6.27 3.99 12.82
3/14/2021 10:30:00 PM 4.74 40.532 0.049 6.26 4.09 12.85
3/14/2021 10:45:00 PM 4.67 40.406 0.049 6.27 3.95 12.88
3/14/2021 11:00:00 PM 4.59 40.262 0.049 6.27 4.01 12.91
3/14/2021 11:15:00 PM 4.5 40.1 0.049 6.26 3.91 12.94
3/14/2021 11:30:00 PM 4.43 39.974 0.049 6.26 3.73 12.97
3/14/2021 11:45:00 PM 4.37 39.866 0.049 6.26 3.92 12.99
3/15/2021 12:00:00 AM 4.3 39.74 0.049 6.26 3.95 13.01
3/15/2021 12:15:00 AM 4.22 39.596 0.049 6.15 4.01 13.03
3/15/2021 12:30:00 AM 4.17 39.506 0.049 6.25 4.11 13.05
3/15/2021 12:45:00 AM 4.11 39.398 0.049 6.24 3.86 13.08
3/15/2021 1:00:00 AM 4.06 39.308 0.049 6.23 3.81 13.1
3/15/2021 1:15:00 AM 3.99 39.182 0.049 6.23 3.85 13.14
3/15/2021 1:30:00 AM 3.92 39.056 0.049 6.23 3.91 13.17
3/15/2021 1:45:00 AM 3.85 38.93 0.049 6.14 3.77 13.19
3/15/2021 2:00:00 AM 3.81 38.858 0.049 6.22 3.83 13.19
3/15/2021 2:15:00 AM 3.75 38.75 0.049 6.21 3.89 13.2
3/15/2021 2:30:00 AM 3.7 38.66 0.049 6.22 3.77 13.22
3/15/2021 2:45:00 AM 3.65 38.57 0.049 6.21 3.71 13.23
3/15/2021 3:00:00 AM 3.58 38.444 0.049 6.17 3.84 13.25
3/15/2021 3:15:00 AM 3.53 38.354 0.049 6.21 3.78 13.29
3/15/2021 3:30:00 AM 3.49 38.282 0.049 6.21 3.69 13.31
3/15/2021 3:45:00 AM 3.44 38.192 0.049 6.19 3.78 13.33
3/15/2021 4:00:00 AM 3.39 38.102 0.049 6.21 3.81 13.33
3/15/2021 4:15:00 AM 3.35 38.03 0.049 6.2 3.83 13.37
3/15/2021 4:30:00 AM 3.3 37.94 0.049 6.21 3.54 13.36
3/15/2021 4:45:00 AM 3.26 37.868 0.049 6.2 3.88 13.37
3/15/2021 5:00:00 AM 3.2 37.76 0.049 6.13 3.48 13.39
3/15/2021 5:15:00 AM 3.18 37.724 0.049 6.21 3.76 13.39
3/15/2021 5:30:00 AM 3.13 37.634 0.049 6.2 3.68 13.4
3/15/2021 5:45:00 AM 3.09 37.562 0.049 6.21 3.66 13.42
3/15/2021 6:00:00 AM 3.05 37.49 0.049 6.21 3.69 13.43
3/15/2021 6:15:00 AM 3 37.4 0.049 6.13 3.46 13.47
3/15/2021 6:30:00 AM 2.98 37.364 0.049 6.2 3.46 13.48
3/15/2021 6:45:00 AM 2.94 37.292 0.049 6.19 3.64 13.5
3/15/2021 7:00:00 AM 2.91 37.238 0.05 6.21 3.6 13.51
3/15/2021 7:15:00 AM 2.86 37.148 0.05 6.2 3.54 13.53
3/15/2021 7:30:00 AM 2.83 37.094 0.05 6.21 3.65 13.54
3/15/2021 7:45:00 AM 2.8 37.04 0.05 6.21 3.84 13.57
3/15/2021 8:00:00 AM 2.77 36.986 0.05 6.22 3.58 13.58
3/15/2021 8:15:00 AM 2.75 36.95 0.05 6.22 3.56 13.59
3/15/2021 8:30:00 AM 2.71 36.878 0.05 6.17 3.53 13.6
3/15/2021 8:45:00 AM 2.73 36.914 0.05 6.23 3.58 13.61
3/15/2021 9:00:00 AM 2.74 36.932 0.05 6.24 3.43 13.62
3/15/2021 9:15:00 AM 2.75 36.95 0.05 6.24 3.34 13.63
3/15/2021 9:30:00 AM 2.76 36.968 0.05 6.25 3.38 13.64
3/15/2021 9:45:00 AM 2.8 37.04 0.05 6.26 3.37 13.64
3/15/2021 10:00:00 AM 2.83 37.094 0.05 6.17 3.55 13.65
3/15/2021 10:15:00 AM 2.9 37.22 0.05 6.26 3.24 13.62
3/15/2021 10:30:00 AM 2.95 37.31 0.05 6.26 3.35 13.61
3/15/2021 10:45:00 AM 3.02 37.436 0.05 6.27 3.17 13.59
3/15/2021 11:00:00 AM 3.09 37.562 0.05 6.27 3.25 13.56
3/15/2021 11:15:00 AM 3.18 37.724 0.05 6.27 3.25 13.54
3/15/2021 11:30:00 AM 3.27 37.886 0.05 6.27 3.2 13.52
3/15/2021 11:45:00 AM 3.39 38.102 0.05 6.28 3.37 13.51
3/15/2021 12:00:00 PM 3.48 38.264 0.05 6.19 3.27 13.47
3/15/2021 12:15:00 PM 3.61 38.498 0.05 6.29 3.16 13.41
3/15/2021 12:30:00 PM 3.73 38.714 0.05 6.29 3.18 13.37
3/15/2021 12:45:00 PM 3.86 38.948 0.05 6.28 3.11 13.33
3/15/2021 1:00:00 PM 3.98 39.164 0.05 6.3 3.15 13.3
3/15/2021 1:15:00 PM 4.1 39.38 0.05 6.3 3.01 13.24
3/15/2021 1:30:00 PM 4.21 39.578 0.05 6.28 3.08 13.19
3/15/2021 1:45:00 PM 4.3 39.74 0.05 6.3 3.26 13.14
3/15/2021 2:00:00 PM 4.43 39.974 0.05 6.3 3.21 13.11
3/15/2021 2:15:00 PM 4.53 40.154 0.05 6.3 3.14 13.09
3/15/2021 2:30:00 PM 4.62 40.316 0.05 6.25 3.04 13.04
3/15/2021 2:45:00 PM 4.7 40.46 0.05 6.31 3.1 13
3/15/2021 3:00:00 PM 4.76 40.568 0.05 6.31 2.93 12.95
3/15/2021 3:15:00 PM 4.82 40.676 0.05 6.26 3.04 12.92
3/15/2021 3:30:00 PM 4.89 40.802 0.05 6.3 3.01 12.89
3/15/2021 3:45:00 PM 4.94 40.892 0.051 6.31 3.01 12.87
3/15/2021 4:00:00 PM 4.95 40.91 0.051 6.31 3.14 12.86
3/15/2021 4:15:00 PM 4.97 40.946 0.051 6.32 3.13 12.84
3/15/2021 4:30:00 PM 4.98 40.964 0.051 6.31 3.14 12.84
3/15/2021 4:45:00 PM 4.98 40.964 0.051 6.31 2.99 12.83
3/15/2021 5:00:00 PM 4.99 40.982 0.051 6.32 3.06 12.82
3/15/2021 5:15:00 PM 4.99 40.982 0.051 6.31 3.13 12.83
3/15/2021 5:30:00 PM 4.97 40.946 0.051 6.32 3.14 12.82
3/15/2021 5:45:00 PM 4.93 40.874 0.051 6.25 3 12.83
3/15/2021 6:00:00 PM 4.91 40.838 0.051 6.32 3.1 12.83
3/15/2021 6:15:00 PM 4.87 40.766 0.051 6.3 3.06 12.84
3/15/2021 6:30:00 PM 4.84 40.712 0.051 6.32 3.08 12.85
3/15/2021 6:45:00 PM 4.8 40.64 0.051 6.31 3.11 12.86
3/15/2021 7:00:00 PM 4.75 40.55 0.051 6.3 3.13 12.86
3/15/2021 7:15:00 PM 4.7 40.46 0.051 6.3 3.07 12.87
3/15/2021 7:30:00 PM 4.66 40.388 0.051 6.31 3.21 12.87
3/15/2021 7:45:00 PM 4.62 40.316 0.051 6.3 3.13 12.9
3/15/2021 8:00:00 PM 4.58 40.244 0.051 6.3 3.16 12.9
3/15/2021 8:15:00 PM 4.54 40.172 0.051 6.3 3.15 12.91
3/15/2021 8:30:00 PM 4.51 40.118 0.051 6.3 3.15 12.92
3/15/2021 8:45:00 PM 4.46 40.028 0.051 6.2 3.25 12.94
3/15/2021 9:00:00 PM 4.44 39.992 0.051 6.3 3.09 12.95
3/15/2021 9:15:00 PM 4.4 39.92 0.051 6.3 3.41 12.94
3/15/2021 9:30:00 PM 4.38 39.884 0.051 6.29 3.23 12.95
3/15/2021 9:45:00 PM 4.35 39.83 0.051 6.3 3.14 12.97
3/15/2021 10:00:00 PM 4.32 39.776 0.051 6.29 3.02 12.97
3/15/2021 10:15:00 PM 4.3 39.74 0.051 6.3 3.09 12.97
3/15/2021 10:30:00 PM 4.27 39.686 0.051 6.28 3.01 12.99
3/15/2021 10:45:00 PM 4.25 39.65 0.051 6.29 3.06 12.99
3/15/2021 11:00:00 PM 4.23 39.614 0.051 6.26 3.15 12.99
3/15/2021 11:15:00 PM 4.21 39.578 0.051 6.3 3.2 12.99
3/15/2021 11:30:00 PM 4.19 39.542 0.051 6.29 3.01 13
3/15/2021 11:45:00 PM 4.18 39.524 0.051 6.3 3.11 13.01
3/16/2021 12:00:00 AM 4.15 39.47 0.051 6.29 3.06 13.01
3/16/2021 12:15:00 AM 4.14 39.452 0.051 6.3 3.02 13.03
3/16/2021 12:30:00 AM 4.13 39.434 0.051 6.3 2.98 13.03
3/16/2021 12:45:00 AM 4.11 39.398 0.051 6.3 2.94 13.03
3/16/2021 1:00:00 AM 4.09 39.362 0.051 6.3 3.04 13.03
3/16/2021 1:15:00 AM 4.07 39.326 0.051 6.3 2.98 13.03
3/16/2021 1:30:00 AM 4.05 39.29 0.052 6.25 3.08 13.04
3/16/2021 1:45:00 AM 4.04 39.272 0.052 6.3 3.01 13.05
3/16/2021 2:00:00 AM 4.04 39.272 0.052 6.3 3.04 13.06
3/16/2021 2:15:00 AM 4.02 39.236 0.052 6.26 3.06 13.07
3/16/2021 2:30:00 AM 4.01 39.218 0.052 6.3 2.92 13.07
3/16/2021 2:45:00 AM 3.99 39.182 0.052 6.31 2.95 13.07
3/16/2021 3:00:00 AM 3.98 39.164 0.052 6.26 3.04 13.08
3/16/2021 3:15:00 AM 3.99 39.182 0.052 6.31 3.6 13.07
3/16/2021 3:30:00 AM 3.97 39.146 0.052 6.31 3.31 13.07
3/16/2021 3:45:00 AM 3.96 39.128 0.052 6.31 7.06 13.08
3/16/2021 4:00:00 AM 3.95 39.11 0.052 6.31 2.77 13.07
3/16/2021 4:15:00 AM 3.93 39.074 0.052 6.22 2.95 13.09
3/16/2021 4:30:00 AM 3.93 39.074 0.052 6.31 2.72 13.08
3/16/2021 4:45:00 AM 3.92 39.056 0.052 6.31 2.75 13.08
3/16/2021 5:00:00 AM 3.89 39.002 0.052 6.24 9.13 13.08
3/16/2021 5:15:00 AM 3.89 39.002 0.052 6.31 3.47 13.08
3/16/2021 5:30:00 AM 3.86 38.948 0.052 6.31 2.68 13.09
3/16/2021 5:45:00 AM 3.85 38.93 0.052 6.31 2.49 13.09
3/16/2021 6:00:00 AM 3.81 38.858 0.052 6.22 2.38 13.09
3/16/2021 6:15:00 AM 3.81 38.858 0.052 6.31 2.52 13.09
3/16/2021 6:30:00 AM 3.79 38.822 0.052 6.31 2.6 13.08
3/16/2021 6:45:00 AM 3.76 38.768 0.052 6.31 2.57 13.09
3/16/2021 7:00:00 AM 3.74 38.732 0.052 6.31 2.63 13.09
3/16/2021 7:15:00 AM 3.72 38.696 0.052 6.25 2.57 13.11
3/16/2021 7:30:00 AM 3.74 38.732 0.052 6.3 2.65 13.11
3/16/2021 7:45:00 AM 3.74 38.732 0.052 6.3 2.83 13.1
3/16/2021 8:00:00 AM 3.74 38.732 0.052 6.3 2.64 13.1
3/16/2021 8:15:00 AM 3.74 38.732 0.052 6.31 2.58 13.11
3/16/2021 8:30:00 AM 3.74 38.732 0.052 6.31 2.58 13.11
3/16/2021 8:45:00 AM 3.74 38.732 0.052 6.31 2.6 13.12
3/16/2021 9:00:00 AM 3.74 38.732 0.052 6.31 2.47 13.12
3/16/2021 9:15:00 AM 3.74 38.732 0.052 6.31 2.63 13.12
3/16/2021 9:30:00 AM 3.73 38.714 0.052 6.32 2.57 13.13
3/16/2021 9:45:00 AM 3.74 38.732 0.052 6.32 2.47 13.13
3/16/2021 10:00:00 AM 3.74 38.732 0.052 6.31 2.4 13.13
3/16/2021 10:15:00 AM 3.74 38.732 0.052 6.23 2.4 13.14
3/16/2021 10:30:00 AM 3.77 38.786 0.052 6.31 2.45 13.13
3/16/2021 10:45:00 AM 3.8 38.84 0.052 6.32 2.42 13.13
3/16/2021 11:00:00 AM 3.84 38.912 0.052 6.32 2.42 13.13
3/16/2021 11:15:00 AM 3.86 38.948 0.052 6.32 2.4 13.12
3/16/2021 11:30:00 AM 3.88 38.984 0.052 6.27 2.33 13.12
3/16/2021 11:45:00 AM 3.94 39.092 0.052 6.32 2.44 13.11
3/16/2021 12:00:00 PM 3.95 39.11 0.052 6.32 2.51 13.1
3/16/2021 12:15:00 PM 3.97 39.146 0.052 6.32 2.46 13.09
3/16/2021 12:30:00 PM 4 39.2 0.052 6.32 2.36 13.08
3/16/2021 12:45:00 PM 4.02 39.236 0.052 6.31 2.33 13.06
3/16/2021 1:00:00 PM 4.04 39.272 0.052 6.32 2.49 13.06
3/16/2021 1:15:00 PM 4.06 39.308 0.052 6.25 2.35 13.06
3/16/2021 1:30:00 PM 4.1 39.38 0.052 6.33 2.35 13.04
3/16/2021 1:45:00 PM 4.12 39.416 0.052 6.32 2.4 13.03
3/16/2021 2:00:00 PM 4.15 39.47 0.053 6.27 2.35 13.02
3/16/2021 2:15:00 PM 4.19 39.542 0.053 6.33 2.42 13
3/16/2021 2:30:00 PM 4.23 39.614 0.053 6.32 2.33 12.98
3/16/2021 2:45:00 PM 4.27 39.686 0.053 6.33 2.35 12.97
3/16/2021 3:00:00 PM 4.3 39.74 0.053 6.32 2.36 12.96
3/16/2021 3:15:00 PM 4.33 39.794 0.053 6.28 2.33 12.96
3/16/2021 3:30:00 PM 4.35 39.83 0.053 6.31 2.29 12.95
3/16/2021 3:45:00 PM 4.37 39.866 0.053 6.33 2.36 12.93
3/16/2021 4:00:00 PM 4.38 39.884 0.053 6.33 2.34 12.93
3/16/2021 4:15:00 PM 4.38 39.884 0.053 6.25 2.33 12.93
3/16/2021 4:30:00 PM 4.4 39.92 0.053 6.33 2.38 12.92
3/16/2021 4:45:00 PM 4.41 39.938 0.053 6.33 2.28 12.92
3/16/2021 5:00:00 PM 4.43 39.974 0.053 6.33 2.31 12.92
3/16/2021 5:15:00 PM 4.45 40.01 0.053 6.33 2.57 12.92
3/16/2021 5:30:00 PM 4.47 40.046 0.053 6.33 3.06 12.9
3/16/2021 5:45:00 PM 4.48 40.064 0.053 6.34 2.32 12.9
3/16/2021 6:00:00 PM 4.5 40.1 0.053 6.31 2.36 12.89
3/16/2021 6:15:00 PM 4.51 40.118 0.053 6.33 2.4 12.89
3/16/2021 6:30:00 PM 4.51 40.118 0.053 6.33 2.38 12.88
3/16/2021 6:45:00 PM 4.51 40.118 0.053 6.33 2.46 12.88
3/16/2021 7:00:00 PM 4.51 40.118 0.053 6.32 2.3 12.86
3/16/2021 7:15:00 PM 4.5 40.1 0.053 6.33 2.48 12.86
3/16/2021 7:30:00 PM 4.49 40.082 0.053 6.33 2.35 12.85
3/16/2021 7:45:00 PM 4.47 40.046 0.053 6.32 2.4 12.84
3/16/2021 8:00:00 PM 4.46 40.028 0.053 6.32 2.41 12.85
3/16/2021 8:15:00 PM 4.44 39.992 0.053 6.24 2.36 12.86
3/16/2021 8:30:00 PM 4.44 39.992 0.053 6.32 2.43 12.85
3/16/2021 8:45:00 PM 4.42 39.956 0.053 6.27 2.42 12.86
3/16/2021 9:00:00 PM 4.42 39.956 0.053 6.32 2.27 12.86
3/16/2021 9:15:00 PM 4.41 39.938 0.053 6.26 2.34 12.88
3/16/2021 9:30:00 PM 4.41 39.938 0.053 6.32 2.27 12.87
3/16/2021 9:45:00 PM 4.4 39.92 0.053 6.31 2.42 12.88
3/16/2021 10:00:00 PM 4.4 39.92 0.053 6.32 2.32 12.88
3/16/2021 10:15:00 PM 4.39 39.902 0.053 6.32 2.33 12.88
3/16/2021 10:30:00 PM 4.38 39.884 0.053 6.32 2.24 12.87
3/16/2021 10:45:00 PM 4.38 39.884 0.053 6.31 2.32 12.88
3/16/2021 11:00:00 PM 4.37 39.866 0.053 6.32 2.26 12.89
3/16/2021 11:15:00 PM 4.36 39.848 0.053 6.32 2.27 12.88
3/16/2021 11:30:00 PM 4.36 39.848 0.054 6.32 2.29 12.87
3/16/2021 11:45:00 PM 4.36 39.848 0.054 6.32 2.25 12.88
3/17/2021 12:00:00 AM 4.35 39.83 0.054 6.32 2.29 12.88
3/17/2021 12:15:00 AM 4.35 39.83 0.054 6.31 2.33 12.88
3/17/2021 12:30:00 AM 4.34 39.812 0.054 6.32 2.16 12.88
3/17/2021 12:45:00 AM 4.32 39.776 0.054 6.24 2.12 12.9
3/17/2021 1:00:00 AM 4.33 39.794 0.054 6.31 2.33 12.89
3/17/2021 1:15:00 AM 4.32 39.776 0.054 6.33 2.31 12.89
3/17/2021 1:30:00 AM 4.32 39.776 0.054 6.32 2.18 12.88
3/17/2021 1:45:00 AM 4.31 39.758 0.054 6.29 2.42 12.89
3/17/2021 2:00:00 AM 4.32 39.776 0.054 6.33 2.18 12.89
3/17/2021 2:15:00 AM 4.32 39.776 0.054 6.33 2.18 12.88
3/17/2021 2:30:00 AM 4.32 39.776 0.054 6.33 2.31 12.88
3/17/2021 2:45:00 AM 4.31 39.758 0.054 6.32 2.34 12.89
3/17/2021 3:00:00 AM 4.3 39.74 0.054 6.25 2.38 12.9
3/17/2021 3:15:00 AM 4.3 39.74 0.054 6.33 2.15 12.88
3/17/2021 3:30:00 AM 4.3 39.74 0.054 6.33 2.26 12.88
3/17/2021 3:45:00 AM 4.29 39.722 0.054 6.33 2.2 12.89
3/17/2021 4:00:00 AM 4.3 39.74 0.054 6.32 2.15 12.89
3/17/2021 4:15:00 AM 4.29 39.722 0.054 6.28 2.26 12.89
3/17/2021 4:30:00 AM 4.3 39.74 0.054 6.33 2.31 12.89
3/17/2021 4:45:00 AM 4.3 39.74 0.054 6.33 2.14 12.89
3/17/2021 5:00:00 AM 4.3 39.74 0.054 6.32 2.23 12.88
3/17/2021 5:15:00 AM 4.29 39.722 0.054 6.27 2.3 12.9
3/17/2021 5:30:00 AM 4.3 39.74 0.054 6.33 2.26 12.9
3/17/2021 5:45:00 AM 4.3 39.74 0.054 6.31 2.22 12.89
3/17/2021 6:00:00 AM 4.3 39.74 0.054 6.33 2.26 12.9
3/17/2021 6:15:00 AM 4.3 39.74 0.054 6.33 2.17 12.9
3/17/2021 6:30:00 AM 4.3 39.74 0.054 6.33 2.21 12.9
3/17/2021 6:45:00 AM 4.29 39.722 0.054 6.25 2.27 12.9
3/17/2021 7:00:00 AM 4.3 39.74 0.054 6.33 2.18 12.9
3/17/2021 7:15:00 AM 4.3 39.74 0.054 6.33 2.11 12.9
3/17/2021 7:30:00 AM 4.29 39.722 0.054 6.26 2.22 12.91
3/17/2021 7:45:00 AM 4.3 39.74 0.054 6.33 2.21 12.91
3/17/2021 8:00:00 AM 4.3 39.74 0.054 6.33 2.4 12.91
3/17/2021 8:15:00 AM 4.31 39.758 0.054 6.33 2.32 12.92
3/17/2021 8:30:00 AM 4.32 39.776 0.054 6.33 2.19 12.9
3/17/2021 8:45:00 AM 4.34 39.812 0.054 6.34 2.28 12.93
3/17/2021 9:00:00 AM 4.35 39.83 0.054 6.34 2.11 12.94
3/17/2021 9:15:00 AM 4.37 39.866 0.054 6.35 2.16 12.94
3/17/2021 9:30:00 AM 4.4 39.92 0.054 6.35 2.25 12.94
3/17/2021 9:45:00 AM 4.43 39.974 0.054 6.35 2.12 12.94
3/17/2021 10:00:00 AM 4.46 40.028 0.054 6.34 2.22 12.94
3/17/2021 10:15:00 AM 4.5 40.1 0.054 6.35 2.11 12.94
3/17/2021 10:30:00 AM 4.54 40.172 0.054 6.35 2.03 12.94
3/17/2021 10:45:00 AM 4.59 40.262 0.054 6.35 2.06 12.93
3/17/2021 11:00:00 AM 4.65 40.37 0.054 6.35 2.14 12.9
3/17/2021 11:15:00 AM 4.72 40.496 0.054 6.36 2.07 12.89
3/17/2021 11:30:00 AM 4.8 40.64 0.054 6.35 2.17 12.86
3/17/2021 11:45:00 AM 4.91 40.838 0.054 6.36 2.16 12.84
3/17/2021 12:00:00 PM 5.1 41.18 0.054 6.34 2.16 12.83
3/17/2021 12:15:00 PM 5.24 41.432 0.054 6.36 2.01 12.77
3/17/2021 12:30:00 PM 5.4 41.72 0.055 6.36 2.1 12.71
3/17/2021 12:45:00 PM 5.55 41.99 0.055 6.36 2.1 12.67
3/17/2021 1:00:00 PM 5.68 42.224 0.055 6.36 2.12 12.63
3/17/2021 1:15:00 PM 5.84 42.512 0.055 6.33 2.17 12.58
3/17/2021 1:30:00 PM 5.99 42.782 0.055 6.36 2.05 12.5
3/17/2021 1:45:00 PM 6.13 43.034 0.055 6.37 2.12 12.45
3/17/2021 2:00:00 PM 6.25 43.25 0.055 6.37 2.14 12.43
3/17/2021 2:15:00 PM 6.37 43.466 0.055 6.28 2.03 12.38
3/17/2021 2:30:00 PM 6.47 43.646 0.055 6.37 2.11 12.33
3/17/2021 2:45:00 PM 6.57 43.826 0.055 6.37 2.06 12.28
3/17/2021 3:00:00 PM 6.68 44.024 0.055 6.37 2.07 12.24
3/17/2021 3:15:00 PM 6.76 44.168 0.055 6.31 2.16 12.21
3/17/2021 3:30:00 PM 6.84 44.312 0.055 6.38 2.21 12.19
3/17/2021 3:45:00 PM 6.93 44.474 0.055 6.38 2.09 12.16
3/17/2021 4:00:00 PM 6.97 44.546 0.055 6.38 2.18 12.13
3/17/2021 4:15:00 PM 7.03 44.654 0.055 6.38 2.17 12.09
3/17/2021 4:30:00 PM 7.08 44.744 0.055 6.38 2.11 12.06
3/17/2021 4:45:00 PM 7.12 44.816 0.055 6.38 2.11 12.04
3/17/2021 5:00:00 PM 7.13 44.834 0.055 6.39 2.04 12.02
3/17/2021 5:15:00 PM 7.13 44.834 0.055 6.38 2.14 12.02
3/17/2021 5:30:00 PM 7.13 44.834 0.055 6.38 2.07 12.01
3/17/2021 5:45:00 PM 7.12 44.816 0.055 6.38 2.17 12.01
3/17/2021 6:00:00 PM 7.1 44.78 0.055 6.38 2.19 12.01
3/17/2021 6:15:00 PM 7.08 44.744 0.055 6.39 2.14 12.02
3/17/2021 6:30:00 PM 7.05 44.69 0.055 6.37 2.12 12.03
3/17/2021 6:45:00 PM 7.01 44.618 0.055 6.38 2.27 12.03
3/17/2021 7:00:00 PM 6.96 44.528 0.055 6.33 2.13 12.04
3/17/2021 7:15:00 PM 6.9 44.42 0.055 6.38 2.13 12.05
3/17/2021 7:30:00 PM 6.83 44.294 0.055 6.37 2.29 12.08
3/17/2021 7:45:00 PM 6.77 44.186 0.056 6.37 2.27 12.08
3/17/2021 8:00:00 PM 6.7 44.06 0.056 6.37 2.43 12.1
3/17/2021 8:15:00 PM 6.64 43.952 0.056 6.37 2.34 12.11
3/17/2021 8:30:00 PM 6.58 43.844 0.056 6.35 2.19 12.11
3/17/2021 8:45:00 PM 6.52 43.736 0.056 6.34 2.33 12.15
3/17/2021 9:00:00 PM 6.45 43.61 0.056 6.36 2.24 12.17
3/17/2021 9:15:00 PM 6.39 43.502 0.056 6.36 2.15 12.17
3/17/2021 9:30:00 PM 6.34 43.412 0.056 6.29 2.28 12.22
3/17/2021 9:45:00 PM 6.28 43.304 0.056 6.35 2.32 12.24
3/17/2021 10:00:00 PM 6.22 43.196 0.056 6.36 2.16 12.26
3/17/2021 10:15:00 PM 6.18 43.124 0.056 6.36 2.19 12.27
3/17/2021 10:30:00 PM 6.12 43.016 0.056 6.29 2.38 12.28
3/17/2021 10:45:00 PM 6.07 42.926 0.056 6.34 2.22 12.29
3/17/2021 11:00:00 PM 6.01 42.818 0.056 6.35 2.1 12.3
3/17/2021 11:15:00 PM 5.96 42.728 0.056 6.36 2.19 12.31
3/17/2021 11:30:00 PM 5.9 42.62 0.056 6.35 2.3 12.35
3/17/2021 11:45:00 PM 5.84 42.512 0.056 6.33 2.14 12.36
3/18/2021 12:00:00 AM 5.78 42.404 0.056 6.35 2.16 12.37
3/18/2021 12:15:00 AM 5.72 42.296 0.056 6.34 2.29 12.39
3/18/2021 12:30:00 AM 5.67 42.206 0.056 6.27 2.17 12.41
3/18/2021 12:45:00 AM 5.63 42.134 0.056 6.35 2.16 12.43
3/18/2021 1:00:00 AM 5.6 42.08 0.056 6.27 2.14 12.44
3/18/2021 1:15:00 AM 5.58 42.044 0.056 6.36 2.38 12.46
3/18/2021 1:30:00 AM 5.57 42.026 0.056 6.36 2.13 12.44
3/18/2021 1:45:00 AM 5.55 41.99 0.056 6.35 2.21 12.46
3/18/2021 2:00:00 AM 5.53 41.954 0.056 6.35 2.28 12.47
3/18/2021 2:15:00 AM 5.52 41.936 0.056 6.36 2.3 12.48
3/18/2021 2:30:00 AM 5.5 41.9 0.056 6.35 2.28 12.46
3/18/2021 2:45:00 AM 5.5 41.9 0.056 6.36 2.11 12.46
3/18/2021 3:00:00 AM 5.49 41.882 0.056 6.36 2.19 12.46
3/18/2021 3:15:00 AM 5.48 41.864 0.056 6.35 2.21 12.46
3/18/2021 3:30:00 AM 5.47 41.846 0.056 6.32 2.2 12.46
3/18/2021 3:45:00 AM 5.46 41.828 0.056 6.36 2.28 12.46
3/18/2021 4:00:00 AM 5.46 41.828 0.056 6.35 2.25 12.47
3/18/2021 4:15:00 AM 5.45 41.81 0.056 6.35 2.16 12.46
3/18/2021 4:30:00 AM 5.45 41.81 0.056 6.36 2.26 12.47
3/18/2021 4:45:00 AM 5.45 41.81 0.056 6.36 2.25 12.48
3/18/2021 5:00:00 AM 5.44 41.792 0.056 6.33 2.22 12.46
3/18/2021 5:15:00 AM 5.44 41.792 0.056 6.34 2.21 12.47
3/18/2021 5:30:00 AM 5.44 41.792 0.056 6.32 2.18 12.47
3/18/2021 5:45:00 AM 5.44 41.792 0.056 6.35 2.31 12.46
3/18/2021 6:00:00 AM 5.43 41.774 0.056 6.35 2.14 12.46
3/18/2021 6:15:00 AM 5.43 41.774 0.056 6.35 2.22 12.46
3/18/2021 6:30:00 AM 5.42 41.756 0.056 6.28 2.33 12.47
3/18/2021 6:45:00 AM 5.42 41.756 0.056 6.34 2.19 12.46
3/18/2021 7:00:00 AM 5.41 41.738 0.056 6.35 2.33 12.47
3/18/2021 7:15:00 AM 5.4 41.72 0.056 6.27 2.31 12.47
3/18/2021 7:30:00 AM 5.4 41.72 0.056 6.35 2.33 12.46
3/18/2021 7:45:00 AM 5.4 41.72 0.056 6.34 2.4 12.46
3/18/2021 8:00:00 AM 5.4 41.72 0.056 6.34 2.37 12.46
3/18/2021 8:15:00 AM 5.39 41.702 0.056 6.34 2.51 12.46
3/18/2021 8:30:00 AM 5.39 41.702 0.056 6.34 2.4 12.47
3/18/2021 8:45:00 AM 5.39 41.702 0.056 6.29 2.51 12.47
3/18/2021 9:00:00 AM 5.39 41.702 0.056 6.34 2.77 12.47
3/18/2021 9:15:00 AM 5.39 41.702 0.056 6.31 2.76 12.48
3/18/2021 9:30:00 AM 5.4 41.72 0.056 6.35 3.01 12.48
3/18/2021 9:45:00 AM 5.41 41.738 0.056 6.35 2.98 12.49
3/18/2021 10:00:00 AM 5.42 41.756 0.056 6.35 3.38 12.49
3/18/2021 10:15:00 AM 5.43 41.774 0.056 6.36 3.52 12.49
3/18/2021 10:30:00 AM 5.44 41.792 0.056 6.36 3.74 12.49
3/18/2021 10:45:00 AM 5.46 41.828 0.056 6.36 3.98 12.49
3/18/2021 11:00:00 AM 5.48 41.864 0.056 6.37 4.75 12.47
3/18/2021 11:15:00 AM 5.5 41.9 0.056 6.37 5.11 12.48
3/18/2021 11:30:00 AM 5.52 41.936 0.056 6.36 5.8 12.49
3/18/2021 11:45:00 AM 5.54 41.972 0.056 6.37 6.15 12.48
3/18/2021 12:00:00 PM 5.57 42.026 0.056 6.36 7.4 12.47
3/18/2021 12:15:00 PM 5.6 42.08 0.056 6.37 7.02 12.47
3/18/2021 12:30:00 PM 5.63 42.134 0.056 6.36 7.9 12.47
3/18/2021 12:45:00 PM 5.68 42.224 0.056 6.36 7.99 12.47
3/18/2021 1:00:00 PM 5.72 42.296 0.057 6.36 8.25 12.46
3/18/2021 1:15:00 PM 5.75 42.35 0.057 6.35 8.86 12.45
3/18/2021 1:30:00 PM 5.78 42.404 0.057 6.35 9.22 12.43
3/18/2021 1:45:00 PM 5.82 42.476 0.057 6.35 9.2 12.44
3/18/2021 2:00:00 PM 5.85 42.53 0.058 6.32 10.12 12.41
3/18/2021 2:15:00 PM 5.86 42.548 0.058 6.34 8.96 12.41
3/18/2021 2:30:00 PM 5.87 42.566 0.058 6.32 10.17 12.41
3/18/2021 2:45:00 PM 5.87 42.566 0.058 6.28 9.74 12.4
3/18/2021 3:00:00 PM 5.87 42.566 0.058 6.31 9.83 12.39
3/18/2021 3:15:00 PM 5.86 42.548 0.058 6.3 10.71 12.41
3/18/2021 3:30:00 PM 5.84 42.512 0.058 6.28 11.01 12.41
3/18/2021 3:45:00 PM 5.83 42.494 0.058 6.27 10.97 12.39
3/18/2021 4:00:00 PM 5.82 42.476 0.058 6.26 10.76 12.42
3/18/2021 4:15:00 PM 5.81 42.458 0.058 6.27 11.39 12.42
3/18/2021 4:30:00 PM 5.79 42.422 0.058 6.26 10.61 12.41
3/18/2021 4:45:00 PM 5.78 42.404 0.058 6.26 11.29 12.41
3/18/2021 5:00:00 PM 5.76 42.368 0.058 6.25 11.14 12.44
3/18/2021 5:15:00 PM 5.74 42.332 0.058 6.16 11.96 12.43
3/18/2021 5:30:00 PM 5.73 42.314 0.058 6.25 12.39 12.43
3/18/2021 5:45:00 PM 5.7 42.26 0.058 6.24 12.91 12.45
3/18/2021 6:00:00 PM 5.67 42.206 0.057 6.23 12.88 12.45
3/18/2021 6:15:00 PM 5.64 42.152 0.057 6.22 12.56 12.45
3/18/2021 6:30:00 PM 5.61 42.098 0.057 6.22 12.67 12.47
3/18/2021 6:45:00 PM 5.58 42.044 0.057 6.21 13.62 12.5
3/18/2021 7:00:00 PM 5.55 41.99 0.058 6.21 12.88 12.48
3/18/2021 7:15:00 PM 5.52 41.936 0.058 6.21 14.44 12.48
3/18/2021 7:30:00 PM 5.49 41.882 0.058 6.2 13.27 12.5
3/18/2021 7:45:00 PM 5.46 41.828 0.058 6.2 12.18 12.5
3/18/2021 8:00:00 PM 5.44 41.792 0.058 6.2 10.94 12.51
3/18/2021 8:15:00 PM 5.41 41.738 0.058 6.19 10.93 12.51
3/18/2021 8:30:00 PM 5.39 41.702 0.058 6.19 11.22 12.52
3/18/2021 8:45:00 PM 5.36 41.648 0.058 6.2 10.11 12.53
3/18/2021 9:00:00 PM 5.33 41.594 0.059 6.2 10.21 12.54
3/18/2021 9:15:00 PM 5.3 41.54 0.059 6.17 9.5 12.56
3/18/2021 9:30:00 PM 5.26 41.468 0.059 6.2 8.84 12.58
3/18/2021 9:45:00 PM 5.23 41.414 0.058 6.21 9 12.59
3/18/2021 10:00:00 PM 5.19 41.342 0.058 6.21 8.93 12.61
3/18/2021 10:15:00 PM 5.15 41.27 0.058 6.21 8.34 12.63
3/18/2021 10:30:00 PM 5.12 41.216 0.058 6.21 8.03 12.64
3/18/2021 10:45:00 PM 5.08 41.144 0.058 6.21 7.7 12.66
3/18/2021 11:00:00 PM 5.05 41.09 0.058 6.17 7.59 12.67
3/18/2021 11:15:00 PM 5 41 0.058 6.21 7.54 12.68
3/18/2021 11:30:00 PM 4.96 40.928 0.058 6.21 7.12 12.68
3/18/2021 11:45:00 PM 4.92 40.856 0.058 6.22 7.13 12.7
3/19/2021 12:00:00 AM 4.87 40.766 0.058 6.22 6.97 12.7
3/19/2021 12:15:00 AM 4.83 40.694 0.058 6.22 6.52 12.72
3/19/2021 12:30:00 AM 4.79 40.622 0.058 6.22 6.7 12.73
3/19/2021 12:45:00 AM 4.75 40.55 0.058 6.23 6.58 12.75
3/19/2021 1:00:00 AM 4.71 40.478 0.058 6.23 6.59 12.77
3/19/2021 1:15:00 AM 4.68 40.424 0.058 6.2 6.52 12.79
3/19/2021 1:30:00 AM 4.64 40.352 0.058 6.23 6.44 12.8
3/19/2021 1:45:00 AM 4.59 40.262 0.057 6.23 6.04 12.82
3/19/2021 2:00:00 AM 4.54 40.172 0.057 6.23 5.79 12.84
3/19/2021 2:15:00 AM 4.47 40.046 0.057 6.18 5.74 12.87
3/19/2021 2:30:00 AM 4.43 39.974 0.057 6.23 5.36 12.87
3/19/2021 2:45:00 AM 4.38 39.884 0.057 6.23 5.27 12.89
3/19/2021 3:00:00 AM 4.33 39.794 0.057 6.23 5.32 12.9
3/19/2021 3:15:00 AM 4.27 39.686 0.057 6.23 5.26 12.91
3/19/2021 3:30:00 AM 4.21 39.578 0.056 6.23 5.31 12.93
3/19/2021 3:45:00 AM 4.15 39.47 0.056 6.22 5.06 12.96
3/19/2021 4:00:00 AM 4.1 39.38 0.056 6.21 4.98 12.99
3/19/2021 4:15:00 AM 4.05 39.29 0.056 6.21 4.96 13.01
3/19/2021 4:30:00 AM 4 39.2 0.056 6.21 5.1 13.03
3/19/2021 4:45:00 AM 3.94 39.092 0.056 6.21 4.8 13.05
3/19/2021 5:00:00 AM 3.89 39.002 0.056 6.2 4.7 13.08
3/19/2021 5:15:00 AM 3.84 38.912 0.056 6.21 4.49 13.08
3/19/2021 5:30:00 AM 3.8 38.84 0.055 6.21 4.44 13.1
3/19/2021 5:45:00 AM 3.74 38.732 0.055 6.12 4.48 13.12
3/19/2021 6:00:00 AM 3.71 38.678 0.055 6.2 4.45 13.13
3/19/2021 6:15:00 AM 3.66 38.588 0.055 6.14 4.34 13.15
3/19/2021 6:30:00 AM 3.63 38.534 0.055 6.2 4.4 13.16
3/19/2021 6:45:00 AM 3.59 38.462 0.055 6.2 4.27 13.19
3/19/2021 7:00:00 AM 3.54 38.372 0.055 6.13 4.75 13.21
3/19/2021 7:15:00 AM 3.5 38.3 0.055 6.2 4.25 13.22
3/19/2021 7:30:00 AM 3.47 38.246 0.055 6.2 4.2 13.25
3/19/2021 7:45:00 AM 3.43 38.174 0.055 6.2 4.09 13.28
3/19/2021 8:00:00 AM 3.39 38.102 0.054 6.14 4.14 13.31
3/19/2021 8:15:00 AM 3.37 38.066 0.054 6.21 4.02 13.31
3/19/2021 8:30:00 AM 3.33 37.994 0.054 6.21 3.9 13.34
3/19/2021 8:45:00 AM 3.34 38.012 0.054 6.21 3.78 13.34
3/19/2021 9:00:00 AM 3.34 38.012 0.054 6.22 3.97 13.35
3/19/2021 9:15:00 AM 3.34 38.012 0.054 6.22 3.81 13.38
3/19/2021 9:30:00 AM 3.36 38.048 0.054 6.22 3.88 13.4
3/19/2021 9:45:00 AM 3.39 38.102 0.054 6.23 3.81 13.39
3/19/2021 10:00:00 AM 3.43 38.174 0.054 6.23 3.71 13.39
3/19/2021 10:15:00 AM 3.47 38.246 0.054 6.24 3.75 13.39
3/19/2021 10:30:00 AM 3.5 38.3 0.054 6.18 3.77 13.4
3/19/2021 10:45:00 AM 3.59 38.462 0.054 6.24 3.6 13.35
3/19/2021 11:00:00 AM 3.65 38.57 0.054 6.24 3.67 13.34
3/19/2021 11:15:00 AM 3.73 38.714 0.054 6.25 3.56 13.31
3/19/2021 11:30:00 AM 3.82 38.876 0.054 6.26 3.65 13.3
3/19/2021 11:45:00 AM 3.92 39.056 0.054 6.26 3.62 13.29
3/19/2021 12:00:00 PM 4.04 39.272 0.053 6.24 3.47 13.26
3/19/2021 12:15:00 PM 4.14 39.452 0.053 6.26 3.54 13.22
3/19/2021 12:30:00 PM 4.26 39.668 0.053 6.27 3.51 13.16
3/19/2021 12:45:00 PM 4.38 39.884 0.053 6.27 3.46 13.13
3/19/2021 1:00:00 PM 4.51 40.118 0.053 6.26 3.53 13.11
3/19/2021 1:15:00 PM 4.63 40.334 0.053 6.27 3.35 13.07
3/19/2021 1:30:00 PM 4.75 40.55 0.053 6.28 3.47 13
3/19/2021 1:45:00 PM 4.88 40.784 0.053 6.28 3.31 12.96
3/19/2021 2:00:00 PM 5 41 0.053 6.28 3.4 12.93
3/19/2021 2:15:00 PM 5.1 41.18 0.053 6.29 3.38 12.9
3/19/2021 2:30:00 PM 5.2 41.36 0.053 6.28 3.28 12.86
3/19/2021 2:45:00 PM 5.28 41.504 0.053 6.29 3.33 12.82
3/19/2021 3:00:00 PM 5.35 41.63 0.053 6.29 3.42 12.78
3/19/2021 3:15:00 PM 5.41 41.738 0.053 6.29 3.21 12.74
3/19/2021 3:30:00 PM 5.46 41.828 0.053 6.24 3.2 12.72
3/19/2021 3:45:00 PM 5.51 41.918 0.053 6.3 3.2 12.71
3/19/2021 4:00:00 PM 5.55 41.99 0.053 6.28 3.32 12.68
3/19/2021 4:15:00 PM 5.58 42.044 0.053 6.3 3.32 12.67
3/19/2021 4:30:00 PM 5.59 42.062 0.053 6.3 3.18 12.65
3/19/2021 4:45:00 PM 5.61 42.098 0.053 6.3 3.18 12.64
3/19/2021 5:00:00 PM 5.59 42.062 0.053 6.3 3.33 12.64
3/19/2021 5:15:00 PM 5.57 42.026 0.053 6.3 3.17 12.64
3/19/2021 5:30:00 PM 5.54 41.972 0.053 6.3 3.15 12.66
3/19/2021 5:45:00 PM 5.51 41.918 0.053 6.3 3.24 12.66
3/19/2021 6:00:00 PM 5.47 41.846 0.053 6.29 3.23 12.67
3/19/2021 6:15:00 PM 5.43 41.774 0.053 6.3 3.27 12.67
3/19/2021 6:30:00 PM 5.38 41.684 0.053 6.3 3.17 12.69
3/19/2021 6:45:00 PM 5.32 41.576 0.053 6.3 3.19 12.71
3/19/2021 7:00:00 PM 5.27 41.486 0.053 6.3 3.16 12.74
3/19/2021 7:15:00 PM 5.21 41.378 0.053 6.3 3.07 12.75
3/19/2021 7:30:00 PM 5.15 41.27 0.053 6.22 3.25 12.78
3/19/2021 7:45:00 PM 5.11 41.198 0.053 6.29 3.2 12.78
3/19/2021 8:00:00 PM 5.07 41.126 0.053 6.28 3.15 12.8
3/19/2021 8:15:00 PM 5.03 41.054 0.053 6.29 3.15 12.81
3/19/2021 8:30:00 PM 4.98 40.964 0.053 6.29 3.22 12.82
3/19/2021 8:45:00 PM 4.94 40.892 0.053 6.29 3.14 12.82
3/19/2021 9:00:00 PM 4.89 40.802 0.053 6.29 3.04 12.83
3/19/2021 9:15:00 PM 4.85 40.73 0.053 6.29 3.11 12.84
3/19/2021 9:30:00 PM 4.8 40.64 0.053 6.29 3.08 12.86
3/19/2021 9:45:00 PM 4.75 40.55 0.053 6.29 3.01 12.88
3/19/2021 10:00:00 PM 4.7 40.46 0.052 6.29 3.07 12.9
3/19/2021 10:15:00 PM 4.65 40.37 0.052 6.29 3.18 12.92
3/19/2021 10:30:00 PM 4.6 40.28 0.052 6.29 3.11 12.96
3/19/2021 10:45:00 PM 4.55 40.19 0.052 6.28 3.18 12.97
3/19/2021 11:00:00 PM 4.5 40.1 0.052 6.29 3.2 12.99
3/19/2021 11:15:00 PM 4.45 40.01 0.052 6.29 3.43 13.01
3/19/2021 11:30:00 PM 4.39 39.902 0.052 6.21 3.21 13.03
3/19/2021 11:45:00 PM 4.35 39.83 0.052 6.26 3.27 13.03
3/20/2021 12:00:00 AM 4.31 39.758 0.052 6.29 3.17 13.04
3/20/2021 12:15:00 AM 4.25 39.65 0.052 6.28 3.09 13.06
3/20/2021 12:30:00 AM 4.2 39.56 0.052 6.29 3.09 13.08
3/20/2021 12:45:00 AM 4.15 39.47 0.052 6.29 3.08 13.11
3/20/2021 1:00:00 AM 4.1 39.38 0.052 6.28 3.09 13.13
3/20/2021 1:15:00 AM 4.05 39.29 0.052 6.28 2.91 13.16
3/20/2021 1:30:00 AM 4 39.2 0.052 6.29 2.98 13.17
3/20/2021 1:45:00 AM 3.95 39.11 0.052 6.29 2.96 13.19
3/20/2021 2:00:00 AM 3.9 39.02 0.052 6.29 2.93 13.2
3/20/2021 2:15:00 AM 3.85 38.93 0.052 6.28 2.95 13.22
3/20/2021 2:30:00 AM 3.81 38.858 0.052 6.28 2.95 13.23
3/20/2021 2:45:00 AM 3.76 38.768 0.052 6.29 2.84 13.24
3/20/2021 3:00:00 AM 3.71 38.678 0.052 6.29 2.86 13.26
3/20/2021 3:15:00 AM 3.65 38.57 0.052 6.21 2.91 13.28
3/20/2021 3:30:00 AM 3.62 38.516 0.052 6.29 2.95 13.3
3/20/2021 3:45:00 AM 3.56 38.408 0.052 6.23 3.02 13.31
3/20/2021 4:00:00 AM 3.53 38.354 0.052 6.28 2.9 13.34
3/20/2021 4:15:00 AM 3.49 38.282 0.052 6.28 2.99 13.36
3/20/2021 4:30:00 AM 3.45 38.21 0.052 6.28 2.98 13.37
3/20/2021 4:45:00 AM 3.41 38.138 0.052 6.27 2.89 13.4
3/20/2021 5:00:00 AM 3.36 38.048 0.052 6.27 2.83 13.39
3/20/2021 5:15:00 AM 3.33 37.994 0.052 6.27 2.92 13.41
3/20/2021 5:30:00 AM 3.29 37.922 0.052 6.26 2.87 13.44
3/20/2021 5:45:00 AM 3.25 37.85 0.052 6.26 2.85 13.43
3/20/2021 6:00:00 AM 3.21 37.778 0.052 6.26 2.93 13.44
3/20/2021 6:15:00 AM 3.17 37.706 0.052 6.25 2.93 13.45
3/20/2021 6:30:00 AM 3.13 37.634 0.052 6.26 2.8 13.47
3/20/2021 6:45:00 AM 3.1 37.58 0.052 6.26 2.91 13.48
3/20/2021 7:00:00 AM 3.06 37.508 0.052 6.25 2.75 13.5
3/20/2021 7:15:00 AM 3.03 37.454 0.052 6.26 2.85 13.53
3/20/2021 7:30:00 AM 2.99 37.382 0.052 6.26 2.7 13.54
3/20/2021 7:45:00 AM 2.96 37.328 0.052 6.25 2.71 13.57
3/20/2021 8:00:00 AM 2.93 37.274 0.052 6.26 2.95 13.58
3/20/2021 8:15:00 AM 2.91 37.238 0.052 6.26 2.82 13.61
3/20/2021 8:30:00 AM 2.9 37.22 0.052 6.21 3.09 13.62
3/20/2021 8:45:00 AM 2.92 37.256 0.052 6.25 2.71 13.63
3/20/2021 9:00:00 AM 2.94 37.292 0.052 6.27 2.74 13.63
3/20/2021 9:15:00 AM 2.97 37.346 0.052 6.28 2.73 13.63
3/20/2021 9:30:00 AM 3.01 37.418 0.052 6.28 2.7 13.62
3/20/2021 9:45:00 AM 3.08 37.544 0.052 6.28 2.74 13.61
3/20/2021 10:00:00 AM 3.15 37.67 0.052 6.28 2.63 13.59
3/20/2021 10:15:00 AM 3.23 37.814 0.052 6.24 2.64 13.58
3/20/2021 10:30:00 AM 3.34 38.012 0.052 6.29 2.73 13.59
3/20/2021 10:45:00 AM 3.45 38.21 0.052 6.29 2.65 13.56
3/20/2021 11:00:00 AM 3.58 38.444 0.052 6.29 2.67 13.49
3/20/2021 11:15:00 AM 3.72 38.696 0.052 6.3 2.63 13.45
3/20/2021 11:30:00 AM 3.87 38.966 0.052 6.3 2.65 13.42
3/20/2021 11:45:00 AM 4.03 39.254 0.052 6.3 2.51 13.38
3/20/2021 12:00:00 PM 4.2 39.56 0.052 6.31 2.55 13.3
3/20/2021 12:15:00 PM 4.37 39.866 0.052 6.31 2.47 13.26
3/20/2021 12:30:00 PM 4.55 40.19 0.052 6.32 2.53 13.22
3/20/2021 12:45:00 PM 4.73 40.514 0.052 6.32 2.57 13.15
3/20/2021 1:00:00 PM 4.91 40.838 0.052 6.32 2.49 13.07
3/20/2021 1:15:00 PM 5.09 41.162 0.052 6.32 2.49 13.01
3/20/2021 1:30:00 PM 5.28 41.504 0.052 6.33 2.5 12.94
3/20/2021 1:45:00 PM 5.45 41.81 0.052 6.33 2.53 12.86
3/20/2021 2:00:00 PM 5.63 42.134 0.052 6.33 2.55 12.8
3/20/2021 2:15:00 PM 5.78 42.404 0.052 6.28 2.53 12.74
3/20/2021 2:30:00 PM 5.93 42.674 0.052 6.33 2.61 12.69
3/20/2021 2:45:00 PM 6.06 42.908 0.052 6.34 2.49 12.62
3/20/2021 3:00:00 PM 6.16 43.088 0.052 6.35 2.46 12.59
3/20/2021 3:15:00 PM 6.27 43.286 0.052 6.35 2.58 12.56
3/20/2021 3:30:00 PM 6.37 43.466 0.052 6.35 2.45 12.51
3/20/2021 3:45:00 PM 6.44 43.592 0.052 6.35 2.56 12.47
3/20/2021 4:00:00 PM 6.52 43.736 0.052 6.28 2.47 12.43
3/20/2021 4:15:00 PM 6.57 43.826 0.052 6.36 2.57 12.39
3/20/2021 4:30:00 PM 6.6 43.88 0.052 6.36 2.67 12.37
3/20/2021 4:45:00 PM 6.63 43.934 0.052 6.36 2.75 12.36
3/20/2021 5:00:00 PM 6.63 43.934 0.052 6.36 2.62 12.35
3/20/2021 5:15:00 PM 6.62 43.916 0.053 6.36 2.63 12.34
3/20/2021 5:30:00 PM 6.61 43.898 0.053 6.36 2.5 12.34
3/20/2021 5:45:00 PM 6.59 43.862 0.053 6.35 2.63 12.34
3/20/2021 6:00:00 PM 6.56 43.808 0.053 6.34 2.68 12.35
3/20/2021 6:15:00 PM 6.52 43.736 0.053 6.35 2.63 12.36
3/20/2021 6:30:00 PM 6.48 43.664 0.053 6.35 2.67 12.38
3/20/2021 6:45:00 PM 6.42 43.556 0.053 6.33 2.62 12.41
3/20/2021 7:00:00 PM 6.35 43.43 0.053 6.35 2.71 12.42
3/20/2021 7:15:00 PM 6.29 43.322 0.053 6.32 2.64 12.44
3/20/2021 7:30:00 PM 6.22 43.196 0.053 6.34 2.74 12.45
3/20/2021 7:45:00 PM 6.16 43.088 0.053 6.32 2.67 12.46
3/20/2021 8:00:00 PM 6.09 42.962 0.053 6.34 2.8 12.46
3/20/2021 8:15:00 PM 6.02 42.836 0.053 6.33 2.69 12.49
3/20/2021 8:30:00 PM 5.96 42.728 0.053 6.33 2.68 12.5
3/20/2021 8:45:00 PM 5.9 42.62 0.053 6.31 2.89 12.54
3/20/2021 9:00:00 PM 5.84 42.512 0.053 6.33 2.9 12.55
3/20/2021 9:15:00 PM 5.77 42.386 0.053 6.33 3.04 12.58
3/20/2021 9:30:00 PM 5.71 42.278 0.053 6.33 2.89 12.59
3/20/2021 9:45:00 PM 5.65 42.17 0.053 6.25 2.94 12.62
3/20/2021 10:00:00 PM 5.59 42.062 0.053 6.33 2.73 12.63
3/20/2021 10:15:00 PM 5.52 41.936 0.053 6.33 2.94 12.67
3/20/2021 10:30:00 PM 5.46 41.828 0.053 6.33 2.89 12.67
3/20/2021 10:45:00 PM 5.39 41.702 0.053 6.25 2.64 12.69
3/20/2021 11:00:00 PM 5.32 41.576 0.053 6.32 2.77 12.71
3/20/2021 11:15:00 PM 5.26 41.468 0.053 6.33 2.73 12.75
3/20/2021 11:30:00 PM 5.19 41.342 0.053 6.33 2.65 12.77
3/20/2021 11:45:00 PM 5.13 41.234 0.053 6.32 2.66 12.8
3/21/2021 12:00:00 AM 5.06 41.108 0.053 6.32 2.63 12.82
3/21/2021 12:15:00 AM 4.99 40.982 0.053 6.32 2.62 12.84
3/21/2021 12:30:00 AM 4.93 40.874 0.053 6.32 2.61 12.84
3/21/2021 12:45:00 AM 4.87 40.766 0.053 6.32 2.67 12.86
3/21/2021 1:00:00 AM 4.81 40.658 0.053 6.32 2.7 12.88
3/21/2021 1:15:00 AM 4.75 40.55 0.053 6.32 2.59 12.9
3/21/2021 1:30:00 AM 4.69 40.442 0.053 6.3 2.59 12.93
3/21/2021 1:45:00 AM 4.64 40.352 0.053 6.32 2.63 12.95
3/21/2021 2:00:00 AM 4.58 40.244 0.053 6.32 2.62 12.97
3/21/2021 2:15:00 AM 4.53 40.154 0.053 6.32 2.62 13
3/21/2021 2:30:00 AM 4.47 40.046 0.053 6.32 2.64 13.01
3/21/2021 2:45:00 AM 4.42 39.956 0.053 6.32 2.67 13.02
3/21/2021 3:00:00 AM 4.37 39.866 0.053 6.32 2.56 13.03
3/21/2021 3:15:00 AM 4.32 39.776 0.053 6.32 2.67 13.05
3/21/2021 3:30:00 AM 4.26 39.668 0.053 6.31 2.55 13.05
3/21/2021 3:45:00 AM 4.21 39.578 0.053 6.3 2.55 13.08
3/21/2021 4:00:00 AM 4.17 39.506 0.053 6.32 2.62 13.1
3/21/2021 4:15:00 AM 4.11 39.398 0.053 6.31 2.52 13.12
3/21/2021 4:30:00 AM 4.07 39.326 0.053 6.31 2.61 13.14
3/21/2021 4:45:00 AM 4.02 39.236 0.053 6.32 2.68 13.16
3/21/2021 5:00:00 AM 3.95 39.11 0.053 6.21 2.51 13.2
3/21/2021 5:15:00 AM 3.92 39.056 0.053 6.31 2.49 13.2
3/21/2021 5:30:00 AM 3.87 38.966 0.053 6.31 2.58 13.22
3/21/2021 5:45:00 AM 3.82 38.876 0.053 6.31 2.62 13.22
3/21/2021 6:00:00 AM 3.77 38.786 0.053 6.31 2.46 13.23
3/21/2021 6:15:00 AM 3.73 38.714 0.053 6.31 2.57 13.24
3/21/2021 6:30:00 AM 3.68 38.624 0.053 6.31 2.5 13.26
3/21/2021 6:45:00 AM 3.64 38.552 0.053 6.31 2.52 13.28
3/21/2021 7:00:00 AM 3.59 38.462 0.053 6.31 2.5 13.31
3/21/2021 7:15:00 AM 3.55 38.39 0.053 6.31 2.45 13.32
3/21/2021 7:30:00 AM 3.49 38.282 0.053 6.22 2.57 13.35
3/21/2021 7:45:00 AM 3.47 38.246 0.053 6.3 2.48 13.36
3/21/2021 8:00:00 AM 3.44 38.192 0.053 6.3 2.47 13.39
3/21/2021 8:15:00 AM 3.4 38.12 0.053 6.28 2.5 13.41
3/21/2021 8:30:00 AM 3.39 38.102 0.053 6.3 2.56 13.44
3/21/2021 8:45:00 AM 3.41 38.138 0.053 6.3 2.39 13.45
3/21/2021 9:00:00 AM 3.43 38.174 0.053 6.3 2.53 13.45
3/21/2021 9:15:00 AM 3.45 38.21 0.053 6.31 2.52 13.45
3/21/2021 9:30:00 AM 3.49 38.282 0.053 6.31 2.37 13.46
3/21/2021 9:45:00 AM 3.56 38.408 0.053 6.31 2.53 13.45
3/21/2021 10:00:00 AM 3.64 38.552 0.053 6.29 2.41 13.42
3/21/2021 10:15:00 AM 3.74 38.732 0.053 6.31 2.38 13.4
3/21/2021 10:30:00 AM 3.83 38.894 0.053 6.32 2.32 13.38
3/21/2021 10:45:00 AM 3.94 39.092 0.053 6.25 2.52 13.37
3/21/2021 11:00:00 AM 4.08 39.344 0.053 6.32 2.52 13.33
3/21/2021 11:15:00 AM 4.23 39.614 0.053 6.32 2.31 13.27
3/21/2021 11:30:00 AM 4.39 39.902 0.053 6.31 2.43 13.23
3/21/2021 11:45:00 AM 4.56 40.208 0.053 6.33 2.61 13.19
3/21/2021 12:00:00 PM 4.74 40.532 0.053 6.33 2.33 13.12
3/21/2021 12:15:00 PM 4.93 40.874 0.053 6.33 2.33 13.05
3/21/2021 12:30:00 PM 5.12 41.216 0.053 6.34 2.23 13.02
3/21/2021 12:45:00 PM 5.31 41.558 0.053 6.34 2.32 12.93
3/21/2021 1:00:00 PM 5.51 41.918 0.053 6.35 2.26 12.85
3/21/2021 1:15:00 PM 5.71 42.278 0.053 6.35 3.15 12.79
3/21/2021 1:30:00 PM 5.91 42.638 0.053 6.36 2.84 12.72
3/21/2021 1:45:00 PM 6.1 42.98 0.053 6.36 2.33 12.63
3/21/2021 2:00:00 PM 6.28 43.304 0.053 6.32 2.3 12.59
3/21/2021 2:15:00 PM 6.44 43.592 0.053 6.37 2.42 12.52
3/21/2021 2:30:00 PM 6.6 43.88 0.054 6.37 2.2 12.44
3/21/2021 2:45:00 PM 6.74 44.132 0.054 6.38 2.2 12.39
3/21/2021 3:00:00 PM 6.86 44.348 0.054 6.37 2.26 12.36
3/21/2021 3:15:00 PM 6.97 44.546 0.054 6.38 2.22 12.3
3/21/2021 3:30:00 PM 7.08 44.744 0.054 6.38 2.27 12.27
3/21/2021 3:45:00 PM 7.16 44.888 0.054 6.38 2.31 12.21
3/21/2021 4:00:00 PM 7.24 45.032 0.054 6.38 2.28 12.18
3/21/2021 4:15:00 PM 7.29 45.122 0.054 6.39 2.27 12.15
3/21/2021 4:30:00 PM 7.33 45.194 0.054 6.39 4.04 12.13
3/21/2021 4:45:00 PM 7.35 45.23 0.054 6.39 2.42 12.11
3/21/2021 5:00:00 PM 7.35 45.23 0.054 6.39 2.34 12.1
3/21/2021 5:15:00 PM 7.34 45.212 0.054 6.38 2.45 12.1
3/21/2021 5:30:00 PM 7.33 45.194 0.054 6.39 2.34 12.09
3/21/2021 5:45:00 PM 7.3 45.14 0.054 6.38 2.4 12.09
3/21/2021 6:00:00 PM 7.27 45.086 0.054 6.38 2.54 12.1
3/21/2021 6:15:00 PM 7.22 44.996 0.054 6.39 2.46 12.1
3/21/2021 6:30:00 PM 7.16 44.888 0.054 6.36 3.11 12.12
3/21/2021 6:45:00 PM 7.11 44.798 0.054 6.35 2.18 12.13
3/21/2021 7:00:00 PM 7.03 44.654 0.054 6.38 2.1 12.16
3/21/2021 7:15:00 PM 6.95 44.51 0.054 6.37 2.37 12.19
3/21/2021 7:30:00 PM 6.87 44.366 0.054 6.37 2.41 12.22
3/21/2021 7:45:00 PM 6.8 44.24 0.054 6.28 2.23 12.21
3/21/2021 8:00:00 PM 6.73 44.114 0.054 6.36 2.17 12.23
3/21/2021 8:15:00 PM 6.65 43.97 0.054 6.36 2.29 12.24
3/21/2021 8:30:00 PM 6.58 43.844 0.054 6.36 2.24 12.26
3/21/2021 8:45:00 PM 6.5 43.7 0.054 6.36 2.33 12.29
3/21/2021 9:00:00 PM 6.43 43.574 0.054 6.36 2.33 12.32
3/21/2021 9:15:00 PM 6.35 43.43 0.054 6.35 2.24 12.35
3/21/2021 9:30:00 PM 6.28 43.304 0.054 6.34 2.21 12.37
3/21/2021 9:45:00 PM 6.21 43.178 0.054 6.35 2.21 12.38
3/21/2021 10:00:00 PM 6.14 43.052 0.054 6.35 2.23 12.4
3/21/2021 10:15:00 PM 6.07 42.926 0.054 6.35 2.23 12.41
3/21/2021 10:30:00 PM 6 42.8 0.054 6.35 2.16 12.43
3/21/2021 10:45:00 PM 5.93 42.674 0.054 6.35 2.25 12.45
3/21/2021 11:00:00 PM 5.86 42.548 0.054 6.35 2.18 12.47
3/21/2021 11:15:00 PM 5.78 42.404 0.054 6.35 2.05 12.5
3/21/2021 11:30:00 PM 5.71 42.278 0.054 6.35 2.09 12.55
3/21/2021 11:45:00 PM 5.64 42.152 0.054 6.35 2.28 12.55
3/22/2021 12:00:00 AM 5.56 42.008 0.054 6.34 2.06 12.57
3/22/2021 12:15:00 AM 5.5 41.9 0.054 6.35 2.11 12.58
3/22/2021 12:30:00 AM 5.43 41.774 0.054 6.35 2.12 12.61
3/22/2021 12:45:00 AM 5.35 41.63 0.054 6.34 2.11 12.64
3/22/2021 1:00:00 AM 5.28 41.504 0.054 6.34 2.21 12.67
3/22/2021 1:15:00 AM 5.21 41.378 0.054 6.34 2.22 12.7
3/22/2021 1:30:00 AM 5.15 41.27 0.054 6.34 2.15 12.72
3/22/2021 1:45:00 AM 5.08 41.144 0.054 6.34 2.11 12.74
3/22/2021 2:00:00 AM 5.02 41.036 0.054 6.34 2.77 12.76
3/22/2021 2:15:00 AM 4.95 40.91 0.054 6.34 2.18 12.76
3/22/2021 2:30:00 AM 4.89 40.802 0.054 6.34 2.25 12.76
3/22/2021 2:45:00 AM 4.83 40.694 0.054 6.34 2.15 12.8
3/22/2021 3:00:00 AM 4.77 40.586 0.054 6.31 2.23 12.82
3/22/2021 3:15:00 AM 4.71 40.478 0.054 6.34 2.12 12.85
3/22/2021 3:30:00 AM 4.66 40.388 0.054 6.34 2.17 12.87
3/22/2021 3:45:00 AM 4.6 40.28 0.054 6.33 2.14 12.88
3/22/2021 4:00:00 AM 4.55 40.19 0.054 6.34 2.18 12.91
3/22/2021 4:15:00 AM 4.49 40.082 0.054 6.34 2.1 12.94
3/22/2021 4:30:00 AM 4.44 39.992 0.054 6.34 2.1 12.94
3/22/2021 4:45:00 AM 4.39 39.902 0.054 6.33 2.08 12.95
3/22/2021 5:00:00 AM 4.34 39.812 0.054 6.34 2.22 12.96
3/22/2021 5:15:00 AM 4.29 39.722 0.054 6.33 2.09 12.96
3/22/2021 5:30:00 AM 4.23 39.614 0.054 6.3 2.13 13
3/22/2021 5:45:00 AM 4.19 39.542 0.054 6.33 2.07 13.01
3/22/2021 6:00:00 AM 4.14 39.452 0.054 6.32 2.05 13.04
3/22/2021 6:15:00 AM 4.09 39.362 0.054 6.31 2.11 13.05
3/22/2021 6:30:00 AM 4.05 39.29 0.054 6.32 2.1 13.08
3/22/2021 6:45:00 AM 4 39.2 0.054 6.31 2.01 13.09
3/22/2021 7:00:00 AM 3.95 39.11 0.054 6.31 2.06 13.12
3/22/2021 7:15:00 AM 3.91 39.038 0.054 6.31 2.08 13.14
3/22/2021 7:30:00 AM 3.87 38.966 0.054 6.31 2.16 13.15
3/22/2021 7:45:00 AM 3.83 38.894 0.054 6.3 2.03 13.16
3/22/2021 8:00:00 AM 3.8 38.84 0.054 6.31 2.04 13.19
3/22/2021 8:15:00 AM 3.77 38.786 0.054 6.31 2.09 13.2
3/22/2021 8:30:00 AM 3.75 38.75 0.054 6.31 1.92 13.22
3/22/2021 8:45:00 AM 3.78 38.804 0.054 6.31 2.03 13.23
3/22/2021 9:00:00 AM 3.79 38.822 0.054 6.32 2.04 13.24
3/22/2021 9:15:00 AM 3.82 38.876 0.054 6.32 2.03 13.24
3/22/2021 9:30:00 AM 3.86 38.948 0.054 6.31 2.12 13.26
3/22/2021 9:45:00 AM 3.93 39.074 0.054 6.32 1.89 13.26
3/22/2021 10:00:00 AM 4.03 39.254 0.054 6.33 1.92 13.23
3/22/2021 10:15:00 AM 4.12 39.416 0.054 6.32 1.93 13.21
3/22/2021 10:30:00 AM 4.23 39.614 0.054 6.33 1.97 13.18
3/22/2021 10:45:00 AM 4.35 39.83 0.054 6.33 2.04 13.15
3/22/2021 11:00:00 AM 4.47 40.046 0.054 6.25 1.89 13.13
3/22/2021 11:15:00 AM 4.63 40.334 0.054 6.35 1.84 13.09
3/22/2021 11:30:00 AM 4.8 40.64 0.054 6.35 1.88 13.03
3/22/2021 11:45:00 AM 4.98 40.964 0.055 6.34 1.87 12.98
3/22/2021 12:00:00 PM 5.17 41.306 0.055 6.35 1.89 12.93
3/22/2021 12:15:00 PM 5.36 41.648 0.055 6.36 1.81 12.86
3/22/2021 12:30:00 PM 5.57 42.026 0.055 6.36 1.82 12.78
3/22/2021 12:45:00 PM 5.76 42.368 0.055 6.36 1.89 12.73
3/22/2021 1:00:00 PM 5.96 42.728 0.055 6.37 1.98 12.63
3/22/2021 1:15:00 PM 6.15 43.07 0.055 6.37 1.96 12.57
3/22/2021 1:30:00 PM 6.34 43.412 0.055 6.38 1.85 12.52
3/22/2021 1:45:00 PM 6.54 43.772 0.055 6.32 1.8 12.43
3/22/2021 2:00:00 PM 6.7 44.06 0.055 6.39 1.86 12.37
3/22/2021 2:15:00 PM 6.88 44.384 0.056 6.31 1.83 12.32
3/22/2021 2:30:00 PM 7.02 44.636 0.056 6.38 1.91 12.27
3/22/2021 2:45:00 PM 7.16 44.888 0.056 6.38 1.77 12.2
3/22/2021 3:00:00 PM 7.28 45.104 0.056 6.38 1.84 12.14
3/22/2021 3:15:00 PM 7.4 45.32 0.056 6.38 1.84 12.11
3/22/2021 3:30:00 PM 7.5 45.5 0.056 6.35 1.79 12.08
3/22/2021 3:45:00 PM 7.57 45.626 0.056 6.39 1.76 12.04
3/22/2021 4:00:00 PM 7.65 45.77 0.056 6.4 1.93 12
3/22/2021 4:15:00 PM 7.72 45.896 0.056 6.4 1.75 11.96
3/22/2021 4:30:00 PM 7.76 45.968 0.056 6.41 1.91 11.93
3/22/2021 4:45:00 PM 7.79 46.022 0.055 6.4 1.85 11.9
3/22/2021 5:00:00 PM 7.8 46.04 0.055 6.41 1.93 11.89
3/22/2021 5:15:00 PM 7.8 46.04 0.055 6.41 1.85 11.88
3/22/2021 5:30:00 PM 7.78 46.004 0.055 6.41 2.01 11.88
3/22/2021 5:45:00 PM 7.76 45.968 0.055 6.41 1.92 11.88
3/22/2021 6:00:00 PM 7.72 45.896 0.055 6.41 1.91 11.89
3/22/2021 6:15:00 PM 7.68 45.824 0.055 6.41 1.92 11.9
3/22/2021 6:30:00 PM 7.62 45.716 0.055 6.41 1.85 11.92
3/22/2021 6:45:00 PM 7.56 45.608 0.055 6.33 1.89 11.94
3/22/2021 7:00:00 PM 7.48 45.464 0.055 6.4 1.93 11.96
3/22/2021 7:15:00 PM 7.39 45.302 0.055 6.4 1.92 11.98
3/22/2021 7:30:00 PM 7.32 45.176 0.055 6.39 1.97 11.98
3/22/2021 7:45:00 PM 7.23 45.014 0.055 6.39 1.93 11.99
3/22/2021 8:00:00 PM 7.14 44.852 0.055 6.38 2.06 12.02
3/22/2021 8:15:00 PM 7.07 44.726 0.055 6.38 2.32 12.05
3/22/2021 8:30:00 PM 6.99 44.582 0.055 6.38 2.01 12.07
3/22/2021 8:45:00 PM 6.91 44.438 0.055 6.37 1.97 12.1
3/22/2021 9:00:00 PM 6.83 44.294 0.055 6.32 2.25 12.12
3/22/2021 9:15:00 PM 6.75 44.15 0.055 6.37 2.04 12.14
3/22/2021 9:30:00 PM 6.68 44.024 0.055 6.37 2.03 12.14
3/22/2021 9:45:00 PM 6.6 43.88 0.055 6.37 2.58 12.15
3/22/2021 10:00:00 PM 6.53 43.754 0.055 6.37 2.11 12.19
3/22/2021 10:15:00 PM 6.46 43.628 0.055 6.32 2.06 12.22
3/22/2021 10:30:00 PM 6.39 43.502 0.055 6.37 2.59 12.24
3/22/2021 10:45:00 PM 6.32 43.376 0.055 6.34 1.99 12.28
3/22/2021 11:00:00 PM 6.25 43.25 0.055 6.37 2.23 12.3
3/22/2021 11:15:00 PM 6.18 43.124 0.055 6.37 2.15 12.32
3/22/2021 11:30:00 PM 6.11 42.998 0.055 6.36 2.13 12.33
3/22/2021 11:45:00 PM 6.04 42.872 0.055 6.37 2.09 12.35
3/23/2021 12:00:00 AM 5.97 42.746 0.055 6.3 2.06 12.37
3/23/2021 12:15:00 AM 5.9 42.62 0.055 6.36 1.99 12.4
3/23/2021 12:30:00 AM 5.83 42.494 0.055 6.36 2.09 12.44
3/23/2021 12:45:00 AM 5.76 42.368 0.055 6.36 2.15 12.45
3/23/2021 1:00:00 AM 5.7 42.26 0.055 6.36 2.08 12.47
3/23/2021 1:15:00 AM 5.64 42.152 0.055 6.36 2.01 12.49
3/23/2021 1:30:00 AM 5.57 42.026 0.055 6.34 2.05 12.51
3/23/2021 1:45:00 AM 5.51 41.918 0.055 6.36 2.13 12.53
3/23/2021 2:00:00 AM 5.44 41.792 0.055 6.36 2.04 12.54
3/23/2021 2:15:00 AM 5.37 41.666 0.055 6.36 2.06 12.56
3/23/2021 2:30:00 AM 5.31 41.558 0.055 6.36 2.05 12.58
3/23/2021 2:45:00 AM 5.25 41.45 0.055 6.36 2.2 12.62
3/23/2021 3:00:00 AM 5.18 41.324 0.055 6.36 2.04 12.65
3/23/2021 3:15:00 AM 5.12 41.216 0.055 6.36 2.06 12.67
3/23/2021 3:30:00 AM 5.06 41.108 0.055 6.36 1.98 12.68
3/23/2021 3:45:00 AM 4.99 40.982 0.055 6.26 2 12.7
3/23/2021 4:00:00 AM 4.94 40.892 0.055 6.36 2.04 12.71
3/23/2021 4:15:00 AM 4.88 40.784 0.055 6.36 1.94 12.71
3/23/2021 4:30:00 AM 4.83 40.694 0.055 6.35 2.02 12.73
3/23/2021 4:45:00 AM 4.77 40.586 0.055 6.27 1.96 12.76
3/23/2021 5:00:00 AM 4.72 40.496 0.055 6.36 2.02 12.77
3/23/2021 5:15:00 AM 4.67 40.406 0.055 6.35 1.98 12.8
3/23/2021 5:30:00 AM 4.62 40.316 0.055 6.3 1.95 12.82
3/23/2021 5:45:00 AM 4.57 40.226 0.055 6.35 1.93 12.84
3/23/2021 6:00:00 AM 4.52 40.136 0.055 6.35 2.25 12.86
3/23/2021 6:15:00 AM 4.47 40.046 0.055 6.35 1.95 12.88
3/23/2021 6:30:00 AM 4.42 39.956 0.055 6.35 1.98 12.89
3/23/2021 6:45:00 AM 4.37 39.866 0.055 6.35 2.06 12.9
3/23/2021 7:00:00 AM 4.32 39.776 0.055 6.32 1.95 12.91
3/23/2021 7:15:00 AM 4.28 39.704 0.055 6.34 1.98 12.92
3/23/2021 7:30:00 AM 4.24 39.632 0.056 6.34 2.03 12.94
3/23/2021 7:45:00 AM 4.21 39.578 0.056 6.34 2.02 12.97
3/23/2021 8:00:00 AM 4.19 39.542 0.056 6.32 2 13
3/23/2021 8:15:00 AM 4.16 39.488 0.055 6.34 2 13.02
3/23/2021 8:30:00 AM 4.16 39.488 0.056 6.34 2 13.03
3/23/2021 8:45:00 AM 4.17 39.506 0.056 6.28 2.02 13.06
3/23/2021 9:00:00 AM 4.2 39.56 0.056 6.35 1.96 13.05
3/23/2021 9:15:00 AM 4.24 39.632 0.056 6.35 1.91 13.05
3/23/2021 9:30:00 AM 4.29 39.722 0.056 6.35 1.97 13.05
3/23/2021 9:45:00 AM 4.35 39.83 0.056 6.35 1.83 13.04
3/23/2021 10:00:00 AM 4.45 40.01 0.056 6.36 1.94 13.03
3/23/2021 10:15:00 AM 4.55 40.19 0.056 6.36 1.88 13.02
3/23/2021 10:30:00 AM 4.66 40.388 0.056 6.29 1.9 13.01
3/23/2021 10:45:00 AM 4.79 40.622 0.056 6.37 1.82 12.95
3/23/2021 11:00:00 AM 4.9 40.82 0.056 6.37 1.97 12.91
3/23/2021 11:15:00 AM 5.07 41.126 0.056 6.37 1.78 12.9
3/23/2021 11:30:00 AM 5.2 41.36 0.056 6.38 1.87 12.86
3/23/2021 11:45:00 AM 5.37 41.666 0.056 6.38 1.77 12.79
3/23/2021 12:00:00 PM 5.52 41.936 0.056 6.39 1.83 12.73
3/23/2021 12:15:00 PM 5.72 42.296 0.056 6.39 1.85 12.71
3/23/2021 12:30:00 PM 5.9 42.62 0.056 6.39 1.89 12.63
3/23/2021 12:45:00 PM 6.12 43.016 0.056 6.4 1.81 12.56
3/23/2021 1:00:00 PM 6.32 43.376 0.056 6.39 1.75 12.51
3/23/2021 1:15:00 PM 6.49 43.682 0.056 6.41 1.82 12.44
3/23/2021 1:30:00 PM 6.58 43.844 0.056 6.41 1.69 12.37
3/23/2021 1:45:00 PM 6.73 44.114 0.056 6.42 1.73 12.31
3/23/2021 2:00:00 PM 6.84 44.312 0.056 6.39 1.79 12.3
3/23/2021 2:15:00 PM 6.98 44.564 0.056 6.42 1.74 12.25
3/23/2021 2:30:00 PM 7.1 44.78 0.056 6.42 1.79 12.2
3/23/2021 2:45:00 PM 7.18 44.924 0.056 6.42 1.89 12.15
3/23/2021 3:00:00 PM 7.29 45.122 0.056 6.43 1.87 12.12
3/23/2021 3:15:00 PM 7.39 45.302 0.056 6.43 1.86 12.11
3/23/2021 3:30:00 PM 7.44 45.392 0.056 6.43 1.8 12.08
3/23/2021 3:45:00 PM 7.55 45.59 0.056 6.43 1.84 12.03
3/23/2021 4:00:00 PM 7.62 45.716 0.056 6.34 1.79 12.01
3/23/2021 4:15:00 PM 7.65 45.77 0.056 6.41 1.86 11.98
3/23/2021 4:30:00 PM 7.74 45.932 0.056 6.44 1.9 11.95
3/23/2021 4:45:00 PM 7.76 45.968 0.056 6.43 1.88 11.93
3/23/2021 5:00:00 PM 7.77 45.986 0.056 6.43 1.81 11.92
3/23/2021 5:15:00 PM 7.81 46.058 0.056 6.43 1.89 11.91
3/23/2021 5:30:00 PM 7.82 46.076 0.056 6.44 1.84 11.9
3/23/2021 5:45:00 PM 7.83 46.094 0.056 6.43 1.85 11.89
3/23/2021 6:00:00 PM 7.83 46.094 0.056 6.44 1.83 11.88
3/23/2021 6:15:00 PM 7.8 46.04 0.056 6.44 1.92 11.88
3/23/2021 6:30:00 PM 7.78 46.004 0.056 6.43 2 11.87
3/23/2021 6:45:00 PM 7.76 45.968 0.057 6.43 1.95 11.87
3/23/2021 7:00:00 PM 7.74 45.932 0.057 6.43 1.94 11.86
3/23/2021 7:15:00 PM 7.69 45.842 0.057 6.41 1.93 11.87
3/23/2021 7:30:00 PM 7.66 45.788 0.057 6.42 1.96 11.87
3/23/2021 7:45:00 PM 7.62 45.716 0.057 6.41 2.01 11.87
3/23/2021 8:00:00 PM 7.58 45.644 0.057 6.4 1.89 11.88
3/23/2021 8:15:00 PM 7.55 45.59 0.057 6.41 1.99 11.89
3/23/2021 8:30:00 PM 7.52 45.536 0.057 6.4 2.04 11.9
3/23/2021 8:45:00 PM 7.48 45.464 0.057 6.4 2 11.92
3/23/2021 9:00:00 PM 7.45 45.41 0.057 6.31 2.07 11.93
3/23/2021 9:15:00 PM 7.41 45.338 0.057 6.39 2.02 11.93
3/23/2021 9:30:00 PM 7.36 45.248 0.057 6.41 1.99 11.93
3/23/2021 9:45:00 PM 7.31 45.158 0.057 6.41 2.1 11.94
3/23/2021 10:00:00 PM 7.26 45.068 0.057 6.4 1.91 11.95
3/23/2021 10:15:00 PM 7.21 44.978 0.057 6.4 2.06 11.96
3/23/2021 10:30:00 PM 7.15 44.87 0.057 6.4 2.2 11.98
3/23/2021 10:45:00 PM 7.1 44.78 0.057 6.4 2.47 12
3/23/2021 11:00:00 PM 7.04 44.672 0.057 6.4 2.13 12.02
3/23/2021 11:15:00 PM 7 44.6 0.057 6.4 2.08 12.03
3/23/2021 11:30:00 PM 6.96 44.528 0.057 6.4 1.95 12.05
3/23/2021 11:45:00 PM 6.93 44.474 0.057 6.38 1.96 12.05
3/24/2021 12:00:00 AM 6.88 44.384 0.057 6.4 2.16 12.07
3/24/2021 12:15:00 AM 6.85 44.33 0.057 6.4 2.31 12.08
3/24/2021 12:30:00 AM 6.83 44.294 0.057 6.4 2.19 12.09
3/24/2021 12:45:00 AM 6.79 44.222 0.057 6.4 2.23 12.1
3/24/2021 1:00:00 AM 6.78 44.204 0.057 6.4 2.06 12.1
3/24/2021 1:15:00 AM 6.76 44.168 0.057 6.4 2.2 12.11
3/24/2021 1:30:00 AM 6.74 44.132 0.057 6.4 2.11 12.1
3/24/2021 1:45:00 AM 6.73 44.114 0.057 6.4 2.15 12.1
3/24/2021 2:00:00 AM 6.73 44.114 0.057 6.4 2.08 12.11
3/24/2021 2:15:00 AM 6.72 44.096 0.057 6.4 2.11 12.11
3/24/2021 2:30:00 AM 6.71 44.078 0.057 6.37 2 12.11
3/24/2021 2:45:00 AM 6.7 44.06 0.057 6.41 2.04 12.11
3/24/2021 3:00:00 AM 6.69 44.042 0.057 6.4 2.1 12.11
3/24/2021 3:15:00 AM 6.7 44.06 0.057 6.4 2.15 12.12
3/24/2021 3:30:00 AM 6.7 44.06 0.057 6.41 2.1 12.12
3/24/2021 3:45:00 AM 6.7 44.06 0.057 6.34 2.22 12.12
3/24/2021 4:00:00 AM 6.7 44.06 0.057 6.41 2.07 12.12
3/24/2021 4:15:00 AM 6.69 44.042 0.057 6.4 2.07 12.12
3/24/2021 4:30:00 AM 6.68 44.024 0.057 6.4 2.19 12.12
3/24/2021 4:45:00 AM 6.67 44.006 0.057 6.39 2.1 12.11
3/24/2021 5:00:00 AM 6.67 44.006 0.057 6.4 2.17 12.11
3/24/2021 5:15:00 AM 6.67 44.006 0.057 6.4 2.04 12.12
3/24/2021 5:30:00 AM 6.68 44.024 0.057 6.39 2.3 12.11
3/24/2021 5:45:00 AM 6.68 44.024 0.057 6.4 2.44 12.11
3/24/2021 6:00:00 AM 6.68 44.024 0.057 6.39 2.13 12.11
3/24/2021 6:15:00 AM 6.69 44.042 0.057 6.39 2.19 12.11
3/24/2021 6:30:00 AM 6.7 44.06 0.057 6.39 2.38 12.12
3/24/2021 6:45:00 AM 6.71 44.078 0.057 6.4 2.14 12.1
3/24/2021 7:00:00 AM 6.71 44.078 0.057 6.39 2.32 12.11
3/24/2021 7:15:00 AM 6.71 44.078 0.057 6.39 2.78 12.11
3/24/2021 7:30:00 AM 6.73 44.114 0.057 6.39 2.53 12.1
3/24/2021 7:45:00 AM 6.74 44.132 0.057 6.4 3.17 12.11
3/24/2021 8:00:00 AM 6.75 44.15 0.056 6.4 4.12 12.12
3/24/2021 8:15:00 AM 6.76 44.168 0.056 6.39 4.9 12.12
3/24/2021 8:30:00 AM 6.77 44.186 0.056 6.31 4.63 12.11
3/24/2021 8:45:00 AM 6.77 44.186 0.056 6.39 3.58 12.11
3/24/2021 9:00:00 AM 6.79 44.222 0.056 6.41 4.16 12.13
3/24/2021 9:15:00 AM 6.81 44.258 0.056 6.41 5.66 12.14
3/24/2021 9:30:00 AM 6.83 44.294 0.056 6.43 7.21 12.15
3/24/2021 9:45:00 AM 6.87 44.366 0.056 6.43 6.95 12.15
3/24/2021 10:00:00 AM 6.91 44.438 0.056 6.46 6.57 12.15
3/24/2021 10:15:00 AM 6.95 44.51 0.056 6.48 6.29 12.14
3/24/2021 10:30:00 AM 7 44.6 0.057 6.47 6.14 12.13
3/24/2021 10:45:00 AM 7.05 44.69 0.057 6.46 6.19 12.11
3/24/2021 11:00:00 AM 7.1 44.78 0.057 6.46 5.23 12.1
3/24/2021 11:15:00 AM 7.15 44.87 0.057 6.45 5.1 12.08
3/24/2021 11:30:00 AM 7.21 44.978 0.057 6.44 5.25 12.06
3/24/2021 11:45:00 AM 7.26 45.068 0.057 6.44 6.24 12.05
3/24/2021 12:00:00 PM 7.32 45.176 0.057 6.44 6.34 12.03
3/24/2021 12:15:00 PM 7.39 45.302 0.058 6.4 6.15 12.03
3/24/2021 12:30:00 PM 7.46 45.428 0.058 6.44 5.55 12.02
3/24/2021 12:45:00 PM 7.52 45.536 0.058 6.43 5.28 11.99
3/24/2021 1:00:00 PM 7.61 45.698 0.058 6.43 5.04 11.96
3/24/2021 1:15:00 PM 7.69 45.842 0.059 6.42 4.59 11.94
3/24/2021 1:30:00 PM 7.78 46.004 0.059 6.43 4.43 11.9
3/24/2021 1:45:00 PM 7.83 46.094 0.059 6.42 4.25 11.87
3/24/2021 2:00:00 PM 7.87 46.166 0.059 6.42 4.12 11.86
3/24/2021 2:15:00 PM 7.92 46.256 0.059 6.42 3.38 11.84
3/24/2021 2:30:00 PM 7.97 46.346 0.059 6.42 3.4 11.84
3/24/2021 2:45:00 PM 8.05 46.49 0.059 6.36 3.14 11.83
3/24/2021 3:00:00 PM 8.14 46.652 0.059 6.39 3.05 11.81
3/24/2021 3:15:00 PM 8.22 46.796 0.059 6.42 2.97 11.79
3/24/2021 3:30:00 PM 8.31 46.958 0.059 6.42 2.97 11.74
3/24/2021 3:45:00 PM 8.4 47.12 0.059 6.42 3.1 11.71
3/24/2021 4:00:00 PM 8.48 47.264 0.059 6.42 2.71 11.69
3/24/2021 4:15:00 PM 8.54 47.372 0.059 6.43 2.77 11.66
3/24/2021 4:30:00 PM 8.59 47.462 0.059 6.43 2.71 11.65
3/24/2021 4:45:00 PM 8.65 47.57 0.059 6.42 10.35 11.62
3/24/2021 5:00:00 PM 8.68 47.624 0.059 6.43 3.17 11.63
3/24/2021 5:15:00 PM 8.68 47.624 0.059 6.42 2.78 11.61
3/24/2021 5:30:00 PM 8.69 47.642 0.059 6.43 2.85 11.6
3/24/2021 5:45:00 PM 8.72 47.696 0.059 6.42 2.45 11.59
3/24/2021 6:00:00 PM 8.73 47.714 0.059 6.42 2.65 11.57
3/24/2021 6:15:00 PM 8.74 47.732 0.059 6.34 2.54 11.57
3/24/2021 6:30:00 PM 8.74 47.732 0.059 6.42 2.55 11.55
3/24/2021 6:45:00 PM 8.73 47.714 0.059 6.36 3.34 11.55
3/24/2021 7:00:00 PM 8.72 47.696 0.059 6.42 2.64 11.53
3/24/2021 7:15:00 PM 8.69 47.642 0.059 6.41 2.46 11.53
3/24/2021 7:30:00 PM 8.65 47.57 0.059 6.41 2.73 11.53
3/24/2021 7:45:00 PM 8.61 47.498 0.059 6.33 2.47 11.52
3/24/2021 8:00:00 PM 8.58 47.444 0.059 6.41 2.53 11.52
3/24/2021 8:15:00 PM 8.54 47.372 0.059 6.4 2.51 11.53
3/24/2021 8:30:00 PM 8.51 47.318 0.059 6.4 2.44 11.53
3/24/2021 8:45:00 PM 8.48 47.264 0.059 6.4 2.52 11.54
3/24/2021 9:00:00 PM 8.45 47.21 0.058 6.4 2.36 11.55
3/24/2021 9:15:00 PM 8.43 47.174 0.058 6.32 2.17 11.55
3/24/2021 9:30:00 PM 8.4 47.12 0.058 6.4 2.5 11.57
3/24/2021 9:45:00 PM 8.37 47.066 0.058 6.39 2.51 11.58
3/24/2021 10:00:00 PM 8.36 47.048 0.058 6.4 2.32 11.58
3/24/2021 10:15:00 PM 8.33 46.994 0.058 6.38 2.28 11.6
3/24/2021 10:30:00 PM 8.31 46.958 0.058 6.38 2.42 11.6
3/24/2021 10:45:00 PM 8.29 46.922 0.058 6.4 2.27 11.62
3/24/2021 11:00:00 PM 8.27 46.886 0.058 6.39 2.24 11.64
3/24/2021 11:15:00 PM 8.24 46.832 0.058 6.39 2.28 11.63
3/24/2021 11:30:00 PM 8.22 46.796 0.058 6.39 2.31 11.64
3/24/2021 11:45:00 PM 8.2 46.76 0.058 6.39 2.28 11.66
3/25/2021 12:00:00 AM 8.18 46.724 0.059 6.39 2.22 11.65
3/25/2021 12:15:00 AM 8.17 46.706 0.059 6.39 2.34 11.66
3/25/2021 12:30:00 AM 8.15 46.67 0.059 6.38 2.26 11.66
3/25/2021 12:45:00 AM 8.13 46.634 0.059 6.36 2.22 11.66
3/25/2021 1:00:00 AM 8.12 46.616 0.059 6.39 2.21 11.68
3/25/2021 1:15:00 AM 8.1 46.58 0.059 6.38 2.31 11.69
3/25/2021 1:30:00 AM 8.08 46.544 0.059 6.39 2.38 11.7
3/25/2021 1:45:00 AM 8.06 46.508 0.059 6.39 2.17 11.7
3/25/2021 2:00:00 AM 8.04 46.472 0.059 6.38 2.02 11.69
3/25/2021 2:15:00 AM 8.03 46.454 0.059 6.38 2.3 11.7
3/25/2021 2:30:00 AM 8.02 46.436 0.059 6.38 2.19 11.7
3/25/2021 2:45:00 AM 8 46.4 0.059 6.38 2.17 11.7
3/25/2021 3:00:00 AM 7.98 46.364 0.059 6.37 2.15 11.71
3/25/2021 3:15:00 AM 7.97 46.346 0.059 6.37 2.12 11.71
3/25/2021 3:30:00 AM 7.95 46.31 0.059 6.37 2.19 11.71
3/25/2021 3:45:00 AM 7.93 46.274 0.059 6.37 2.13 11.71
3/25/2021 4:00:00 AM 7.92 46.256 0.059 6.37 2.19 11.71
3/25/2021 4:15:00 AM 7.9 46.22 0.059 6.37 2.05 11.71
3/25/2021 4:30:00 AM 7.88 46.184 0.059 6.34 2.14 11.71
3/25/2021 4:45:00 AM 7.86 46.148 0.059 6.37 2.13 11.73
3/25/2021 5:00:00 AM 7.83 46.094 0.059 6.36 2.25 11.73
3/25/2021 5:15:00 AM 7.8 46.04 0.059 6.36 2.19 11.74
3/25/2021 5:30:00 AM 7.78 46.004 0.059 6.36 2.13 11.74
3/25/2021 5:45:00 AM 7.74 45.932 0.059 6.36 1.97 11.76
3/25/2021 6:00:00 AM 7.71 45.878 0.059 6.29 2.2 11.77
3/25/2021 6:15:00 AM 7.68 45.824 0.059 6.37 2.14 11.79
3/25/2021 6:30:00 AM 7.64 45.752 0.059 6.3 2.46 11.8
3/25/2021 6:45:00 AM 7.6 45.68 0.059 6.36 2.39 11.82
3/25/2021 7:00:00 AM 7.56 45.608 0.059 6.37 2.2 11.84
3/25/2021 7:15:00 AM 7.52 45.536 0.059 6.37 2.42 11.86
3/25/2021 7:30:00 AM 7.49 45.482 0.059 6.37 2.15 11.88
3/25/2021 7:45:00 AM 7.47 45.446 0.059 6.38 2.24 11.89
3/25/2021 8:00:00 AM 7.45 45.41 0.059 6.38 2.15 11.92
3/25/2021 8:15:00 AM 7.44 45.392 0.058 6.39 2.16 11.94
3/25/2021 8:30:00 AM 7.44 45.392 0.058 6.39 2.22 11.96
3/25/2021 8:45:00 AM 7.44 45.392 0.058 6.4 2.26 11.97
3/25/2021 9:00:00 AM 7.46 45.428 0.058 6.4 2.15 11.98
3/25/2021 9:15:00 AM 7.51 45.518 0.058 6.41 2.14 11.98
3/25/2021 9:30:00 AM 7.55 45.59 0.058 6.32 2.08 11.98
3/25/2021 9:45:00 AM 7.62 45.716 0.058 6.41 2.11 11.97
3/25/2021 10:00:00 AM 7.71 45.878 0.058 6.42 2.37 11.96
3/25/2021 10:15:00 AM 7.81 46.058 0.058 6.42 2.04 11.93
3/25/2021 10:30:00 AM 7.92 46.256 0.058 6.42 2.07 11.9
3/25/2021 10:45:00 AM 8.06 46.508 0.058 6.42 2.14 11.89
3/25/2021 11:00:00 AM 8.21 46.778 0.058 6.43 2.19 11.86
3/25/2021 11:15:00 AM 8.36 47.048 0.058 6.42 2.02 11.8
3/25/2021 11:30:00 AM 8.5 47.3 0.058 6.43 2.03 11.76
3/25/2021 11:45:00 AM 8.68 47.624 0.058 6.43 1.97 11.73
3/25/2021 12:00:00 PM 8.85 47.93 0.058 6.44 2.08 11.68
3/25/2021 12:15:00 PM 9 48.2 0.058 6.44 1.98 11.62
3/25/2021 12:30:00 PM 9.2 48.56 0.058 6.44 1.98 11.57
3/25/2021 12:45:00 PM 9.36 48.848 0.059 6.44 2.02 11.55
3/25/2021 1:00:00 PM 9.49 49.082 0.059 6.45 1.96 11.5
3/25/2021 1:15:00 PM 9.65 49.37 0.058 6.45 2 11.44
3/25/2021 1:30:00 PM 9.79 49.622 0.058 6.45 1.95 11.39
3/25/2021 1:45:00 PM 9.9 49.82 0.059 6.37 1.93 11.38
3/25/2021 2:00:00 PM 10 50 0.059 6.45 1.96 11.33
3/25/2021 2:15:00 PM 10.14 50.252 0.059 6.46 2.1 11.29
3/25/2021 2:30:00 PM 10.25 50.45 0.059 6.46 2.21 11.24
3/25/2021 2:45:00 PM 10.35 50.63 0.059 6.46 2.05 11.2
3/25/2021 3:00:00 PM 10.41 50.738 0.058 6.46 1.87 11.18
3/25/2021 3:15:00 PM 10.48 50.864 0.059 6.47 1.86 11.16
3/25/2021 3:30:00 PM 10.53 50.954 0.058 6.47 1.88 11.15
3/25/2021 3:45:00 PM 10.56 51.008 0.058 6.46 1.92 11.12
3/25/2021 4:00:00 PM 10.59 51.062 0.058 6.42 3.19 11.12
3/25/2021 4:15:00 PM 10.6 51.08 0.058 6.45 1.92 11.1
3/25/2021 4:30:00 PM 10.61 51.098 0.058 6.46 2.04 11.1
3/25/2021 4:45:00 PM 10.61 51.098 0.058 6.46 2.09 11.09
3/25/2021 5:00:00 PM 10.61 51.098 0.058 6.46 1.98 11.08
3/25/2021 5:15:00 PM 10.6 51.08 0.058 6.46 2.06 11.08
3/25/2021 5:30:00 PM 10.58 51.044 0.058 6.46 2.03 11.07
3/25/2021 5:45:00 PM 10.54 50.972 0.058 6.46 2.02 11.07
3/25/2021 6:00:00 PM 10.51 50.918 0.058 6.45 2 11.06
3/25/2021 6:15:00 PM 10.48 50.864 0.058 6.41 3.44 11.06
3/25/2021 6:30:00 PM 10.43 50.774 0.058 6.44 2.01 11.05
3/25/2021 6:45:00 PM 10.39 50.702 0.058 6.44 1.95 11.04
3/25/2021 7:00:00 PM 10.33 50.594 0.058 6.44 1.96 11.04
3/25/2021 7:15:00 PM 10.29 50.522 0.058 6.44 1.9 11.04
3/25/2021 7:30:00 PM 10.24 50.432 0.058 6.43 2.03 11.04
3/25/2021 7:45:00 PM 10.2 50.36 0.058 6.43 2.09 11.04
3/25/2021 8:00:00 PM 10.16 50.288 0.058 6.43 2.14 11.06
3/25/2021 8:15:00 PM 10.13 50.234 0.058 6.39 3.42 11.06
3/25/2021 8:30:00 PM 10.09 50.162 0.059 6.35 9.89 11.05
3/25/2021 8:45:00 PM 10.07 50.126 0.059 6.37 5.18 11.05
3/25/2021 9:00:00 PM 10.04 50.072 0.059 6.42 2.47 11.08
3/25/2021 9:15:00 PM 10.02 50.036 0.059 6.43 2.47 11.1
3/25/2021 9:30:00 PM 9.99 49.982 0.059 6.4 3.53 11.1
3/25/2021 9:45:00 PM 9.96 49.928 0.059 6.43 2.29 11.11
3/25/2021 10:00:00 PM 9.92 49.856 0.059 6.42 2.14 11.12
3/25/2021 10:15:00 PM 9.9 49.82 0.059 6.42 2.22 11.13
3/25/2021 10:30:00 PM 9.88 49.784 0.059 6.43 2.19 11.12
3/25/2021 10:45:00 PM 9.87 49.766 0.059 6.43 2.2 11.13
3/25/2021 11:00:00 PM 9.85 49.73 0.059 6.42 2.25 11.13
3/25/2021 11:15:00 PM 9.85 49.73 0.059 6.43 2.26 11.13
3/25/2021 11:30:00 PM 9.84 49.712 0.059 6.39 3.08 11.13
3/25/2021 11:45:00 PM 9.84 49.712 0.059 6.43 2.28 11.12
3/26/2021 12:00:00 AM 9.81 49.658 0.059 6.43 2.16 11.13
3/26/2021 12:15:00 AM 9.79 49.622 0.059 6.43 2.25 11.13
3/26/2021 12:30:00 AM 9.78 49.604 0.059 6.43 2.12 11.12
3/26/2021 12:45:00 AM 9.75 49.55 0.059 6.38 3.46 11.13
3/26/2021 1:00:00 AM 9.73 49.514 0.059 6.43 2.11 11.12
3/26/2021 1:15:00 AM 9.71 49.478 0.059 6.43 2.23 11.12
3/26/2021 1:30:00 AM 9.68 49.424 0.059 6.42 2.09 11.13
3/26/2021 1:45:00 AM 9.66 49.388 0.059 6.41 2.11 11.13
3/26/2021 2:00:00 AM 9.63 49.334 0.059 6.42 2.24 11.14
3/26/2021 2:15:00 AM 9.61 49.298 0.059 6.42 2.36 11.14
3/26/2021 2:30:00 AM 9.59 49.262 0.059 6.42 2.12 11.14
3/26/2021 2:45:00 AM 9.59 49.262 0.059 6.42 2.06 11.14
3/26/2021 3:00:00 AM 9.59 49.262 0.059 6.42 2.14 11.14
3/26/2021 3:15:00 AM 9.6 49.28 0.059 6.42 2.36 11.14
3/26/2021 3:30:00 AM 9.59 49.262 0.059 6.42 2.27 11.13
3/26/2021 3:45:00 AM 9.57 49.226 0.059 6.43 2.28 11.14
3/26/2021 4:00:00 AM 9.57 49.226 0.059 6.43 4.03 11.13
3/26/2021 4:15:00 AM 9.55 49.19 0.059 6.43 2.39 11.13
3/26/2021 4:30:00 AM 9.53 49.154 0.059 6.43 2.05 11.13
3/26/2021 4:45:00 AM 9.51 49.118 0.059 6.42 2.18 11.13
3/26/2021 5:00:00 AM 9.49 49.082 0.059 6.43 2.13 11.14
3/26/2021 5:15:00 AM 9.48 49.064 0.059 6.43 2.2 11.14
3/26/2021 5:30:00 AM 9.46 49.028 0.059 6.42 2.18 11.15
3/26/2021 5:45:00 AM 9.46 49.028 0.059 6.46 3.07 11.14
3/26/2021 6:00:00 AM 9.44 48.992 0.059 6.43 2.73 11.14
3/26/2021 6:15:00 AM 9.43 48.974 0.059 6.43 2.35 11.14
3/26/2021 6:30:00 AM 9.41 48.938 0.059 6.33 2.69 11.15
3/26/2021 6:45:00 AM 9.4 48.92 0.059 6.42 2.57 11.16
3/26/2021 7:00:00 AM 9.37 48.866 0.059 6.42 2.83 11.16
3/26/2021 7:15:00 AM 9.34 48.812 0.059 6.42 2.97 11.17
3/26/2021 7:30:00 AM 9.32 48.776 0.059 6.35 2.8 11.17
3/26/2021 7:45:00 AM 9.33 48.794 0.059 6.41 3.4 11.2
3/26/2021 8:00:00 AM 9.33 48.794 0.059 6.44 2.91 11.22
3/26/2021 8:15:00 AM 9.33 48.794 0.059 6.46 3.45 11.22
3/26/2021 8:30:00 AM 9.35 48.83 0.059 6.43 4.26 11.23
3/26/2021 8:45:00 AM 9.38 48.884 0.059 6.49 3.4 11.23
3/26/2021 9:00:00 AM 9.41 48.938 0.059 6.49 3.44 11.24
3/26/2021 9:15:00 AM 9.5 49.1 0.059 6.43 3.59 11.24
3/26/2021 9:30:00 AM 9.58 49.244 0.059 6.48 3.2 11.21
3/26/2021 9:45:00 AM 9.59 49.262 0.059 6.47 2.98 11.19
3/26/2021 10:00:00 AM 9.62 49.316 0.059 6.47 3.05 11.17
3/26/2021 10:15:00 AM 9.66 49.388 0.059 6.47 3.33 11.17
3/26/2021 10:30:00 AM 9.73 49.514 0.059 6.43 4.25 11.17
3/26/2021 10:45:00 AM 9.78 49.604 0.06 6.47 3.13 11.17
3/26/2021 11:00:00 AM 9.77 49.586 0.06 6.47 3.15 11.16
3/26/2021 11:15:00 AM 9.78 49.604 0.06 6.47 3.04 11.17
3/26/2021 11:30:00 AM 9.84 49.712 0.06 6.43 3.98 11.19
3/26/2021 11:45:00 AM 9.84 49.712 0.06 6.38 3.12 11.18
3/26/2021 12:00:00 PM 9.89 49.802 0.06 6.46 2.9 11.18
3/26/2021 12:15:00 PM 9.92 49.856 0.06 6.47 2.82 11.19
3/26/2021 12:30:00 PM 9.98 49.964 0.06 6.46 2.81 11.19
3/26/2021 12:45:00 PM 9.97 49.946 0.06 6.46 2.69 11.19
3/26/2021 1:00:00 PM 10.04 50.072 0.06 6.45 2.62 11.18
3/26/2021 1:15:00 PM 10 50 0.06 6.46 2.38 11.19
3/26/2021 1:30:00 PM 9.98 49.964 0.06 6.45 2.41 11.19
3/26/2021 1:45:00 PM 9.98 49.964 0.06 6.46 2.61 11.19
3/26/2021 2:00:00 PM 9.92 49.856 0.06 6.44 2.55 11.2
3/26/2021 2:15:00 PM 9.89 49.802 0.06 6.43 3.58 11.22
3/26/2021 2:30:00 PM 9.87 49.766 0.06 6.45 2.58 11.23
3/26/2021 2:45:00 PM 9.84 49.712 0.06 6.45 2.47 11.23
3/26/2021 3:00:00 PM 9.83 49.694 0.06 6.45 2.46 11.25
3/26/2021 3:15:00 PM 9.77 49.586 0.06 6.45 2.62 11.24
3/26/2021 3:30:00 PM 9.73 49.514 0.06 6.45 2.44 11.25
3/26/2021 3:45:00 PM 9.68 49.424 0.06 6.44 2.56 11.26
3/26/2021 4:00:00 PM 9.63 49.334 0.06 6.45 2.72 11.28
3/26/2021 4:15:00 PM 9.62 49.316 0.06 6.45 2.25 11.29
3/26/2021 4:30:00 PM 9.6 49.28 0.06 6.35 2.39 11.3
3/26/2021 4:45:00 PM 9.56 49.208 0.06 6.45 2.49 11.32
3/26/2021 5:00:00 PM 9.52 49.136 0.06 6.45 2.21 11.34
3/26/2021 5:15:00 PM 9.48 49.064 0.06 6.45 2.27 11.34
3/26/2021 5:30:00 PM 9.43 48.974 0.06 6.44 2.45 11.36
3/26/2021 5:45:00 PM 9.38 48.884 0.06 6.44 2.42 11.36
3/26/2021 6:00:00 PM 9.33 48.794 0.06 6.44 2.13 11.39
3/26/2021 6:15:00 PM 9.27 48.686 0.06 6.44 2.26 11.39
3/26/2021 6:30:00 PM 9.21 48.578 0.06 6.44 2.38 11.4
3/26/2021 6:45:00 PM 9.15 48.47 0.06 6.43 2.23 11.39
3/26/2021 7:00:00 PM 9.09 48.362 0.06 6.43 2.36 11.4
3/26/2021 7:15:00 PM 9.03 48.254 0.06 6.42 2.18 11.41
3/26/2021 7:30:00 PM 8.98 48.164 0.06 6.42 2.12 11.41
3/26/2021 7:45:00 PM 8.92 48.056 0.06 6.42 2.3 11.43
3/26/2021 8:00:00 PM 8.87 47.966 0.06 6.42 2.33 11.45
3/26/2021 8:15:00 PM 8.82 47.876 0.06 6.42 2.7 11.45
3/26/2021 8:30:00 PM 8.78 47.804 0.06 6.41 2.28 11.47
3/26/2021 8:45:00 PM 8.74 47.732 0.06 6.41 2.09 11.49
3/26/2021 9:00:00 PM 8.7 47.66 0.06 6.41 2.48 11.5
3/26/2021 9:15:00 PM 8.67 47.606 0.06 6.34 2.38 11.51
3/26/2021 9:30:00 PM 8.63 47.534 0.06 6.41 2.15 11.52
3/26/2021 9:45:00 PM 8.6 47.48 0.06 6.41 2.05 11.53
3/26/2021 10:00:00 PM 8.57 47.426 0.06 6.4 2.19 11.54
3/26/2021 10:15:00 PM 8.54 47.372 0.06 6.41 2.02 11.54
3/26/2021 10:30:00 PM 8.51 47.318 0.06 6.4 2.18 11.55
3/26/2021 10:45:00 PM 8.48 47.264 0.06 6.4 2.05 11.56
3/26/2021 11:00:00 PM 8.46 47.228 0.06 6.4 2.14 11.56
3/26/2021 11:15:00 PM 8.43 47.174 0.06 6.4 2.03 11.58
3/26/2021 11:30:00 PM 8.41 47.138 0.06 6.4 1.99 11.58
3/26/2021 11:45:00 PM 8.38 47.084 0.06 6.32 2.05 11.58
3/27/2021 12:00:00 AM 8.36 47.048 0.06 6.4 2.14 11.6
3/27/2021 12:15:00 AM 8.34 47.012 0.06 6.39 2.17 11.6
3/27/2021 12:30:00 AM 8.32 46.976 0.06 6.4 2.03 11.62
3/27/2021 12:45:00 AM 8.29 46.922 0.06 6.39 2.11 11.62
3/27/2021 1:00:00 AM 8.27 46.886 0.06 6.39 2.14 11.62
3/27/2021 1:15:00 AM 8.25 46.85 0.06 6.36 2.04 11.64
3/27/2021 1:30:00 AM 8.23 46.814 0.06 6.4 2.24 11.64
3/27/2021 1:45:00 AM 8.2 46.76 0.06 6.39 2.23 11.65
3/27/2021 2:00:00 AM 8.18 46.724 0.06 6.4 1.9 11.66
3/27/2021 2:15:00 AM 8.16 46.688 0.06 6.33 1.99 11.67
3/27/2021 2:30:00 AM 8.14 46.652 0.06 6.4 2.14 11.67
3/27/2021 2:45:00 AM 8.12 46.616 0.06 6.4 2.04 11.68
3/27/2021 3:00:00 AM 8.1 46.58 0.06 6.4 2.07 11.69
3/27/2021 3:15:00 AM 8.08 46.544 0.06 6.39 2.04 11.69
3/27/2021 3:30:00 AM 8.06 46.508 0.06 6.39 1.99 11.69
3/27/2021 3:45:00 AM 8.03 46.454 0.06 6.39 1.87 11.7
3/27/2021 4:00:00 AM 8.02 46.436 0.06 6.4 2.06 11.7
3/27/2021 4:15:00 AM 7.99 46.382 0.06 6.39 2.6 11.69
3/27/2021 4:30:00 AM 7.97 46.346 0.06 6.4 2.29 11.72
3/27/2021 4:45:00 AM 7.95 46.31 0.06 6.4 2.27 11.71
3/27/2021 5:00:00 AM 7.93 46.274 0.06 6.4 2.95 11.71
3/27/2021 5:15:00 AM 7.91 46.238 0.06 6.39 5.96 11.72
3/27/2021 5:30:00 AM 7.88 46.184 0.06 6.38 3.33 11.72
3/27/2021 5:45:00 AM 7.86 46.148 0.06 6.39 3.53 11.73
3/27/2021 6:00:00 AM 7.84 46.112 0.06 6.31 3.59 11.75
3/27/2021 6:15:00 AM 7.81 46.058 0.06 6.36 3.68 11.75
3/27/2021 6:30:00 AM 7.78 46.004 0.06 6.37 6.65 11.76
3/27/2021 6:45:00 AM 7.76 45.968 0.06 6.39 2.63 11.78
3/27/2021 7:00:00 AM 7.73 45.914 0.06 6.37 2.17 11.78
3/27/2021 7:15:00 AM 7.7 45.86 0.06 6.39 4.3 11.8
3/27/2021 7:30:00 AM 7.68 45.824 0.06 6.38 4.8 11.81
3/27/2021 7:45:00 AM 7.67 45.806 0.06 6.38 4.3 11.84
3/27/2021 8:00:00 AM 7.66 45.788 0.06 6.39 2.76 11.85
3/27/2021 8:15:00 AM 7.66 45.788 0.06 6.39 4.6 11.88
3/27/2021 8:30:00 AM 7.67 45.806 0.06 6.4 4.45 11.9
3/27/2021 8:45:00 AM 7.68 45.824 0.06 6.33 2.01 11.91
3/27/2021 9:00:00 AM 7.72 45.896 0.06 6.42 1.88 11.91
3/27/2021 9:15:00 AM 7.73 45.914 0.06 6.39 1.95 11.9
3/27/2021 9:30:00 AM 7.76 45.968 0.06 6.42 5.52 11.9
3/27/2021 9:45:00 AM 7.82 46.076 0.06 6.43 1.92 11.9
3/27/2021 10:00:00 AM 7.94 46.292 0.06 6.43 2.15 11.89
3/27/2021 10:15:00 AM 7.97 46.346 0.06 6.34 2.49 11.88
3/27/2021 10:30:00 AM 8.02 46.436 0.06 6.44 1.87 11.87
3/27/2021 10:45:00 AM 8.1 46.58 0.06 6.36 1.8 11.88
3/27/2021 11:00:00 AM 8.23 46.814 0.06 6.44 1.91 11.86
3/27/2021 11:15:00 AM 8.27 46.886 0.06 6.42 1.76 11.82
3/27/2021 11:30:00 AM 8.29 46.922 0.06 6.45 1.77 11.8
3/27/2021 11:45:00 AM 8.41 47.138 0.06 6.44 1.7 11.77
3/27/2021 12:00:00 PM 8.52 47.336 0.06 6.4 2.04 11.74
3/27/2021 12:15:00 PM 8.73 47.714 0.06 6.45 1.7 11.72
3/27/2021 12:30:00 PM 8.9 48.02 0.06 6.45 1.74 11.66
3/27/2021 12:45:00 PM 9.06 48.308 0.06 6.45 3.04 11.61
3/27/2021 1:00:00 PM 9.18 48.524 0.06 6.46 1.63 11.58
3/27/2021 1:15:00 PM 9.29 48.722 0.06 6.46 1.75 11.56
3/27/2021 1:30:00 PM 9.45 49.01 0.06 6.46 1.74 11.52
3/27/2021 1:45:00 PM 9.59 49.262 0.06 6.46 2.9 11.47
3/27/2021 2:00:00 PM 9.71 49.478 0.06 6.46 1.8 11.43
3/27/2021 2:15:00 PM 9.81 49.658 0.06 6.46 1.75 11.4
3/27/2021 2:30:00 PM 9.93 49.874 0.06 6.46 1.65 11.37
3/27/2021 2:45:00 PM 10.03 50.054 0.06 6.46 1.58 11.33
3/27/2021 3:00:00 PM 10.08 50.144 0.06 6.46 1.8 11.29
3/27/2021 3:15:00 PM 10.15 50.27 0.06 6.46 1.59 11.27
3/27/2021 3:30:00 PM 10.2 50.36 0.06 6.43 2.99 11.23
3/27/2021 3:45:00 PM 10.24 50.432 0.06 6.44 1.61 11.22
3/27/2021 4:00:00 PM 10.27 50.486 0.06 6.44 3 11.19
3/27/2021 4:15:00 PM 10.29 50.522 0.06 6.39 1.69 11.19
3/27/2021 4:30:00 PM 10.3 50.54 0.06 6.47 1.58 11.18
3/27/2021 4:45:00 PM 10.28 50.504 0.06 6.48 2.9 11.17
3/27/2021 5:00:00 PM 10.26 50.468 0.06 6.47 1.57 11.17
3/27/2021 5:15:00 PM 10.21 50.378 0.06 6.47 1.53 11.17
3/27/2021 5:30:00 PM 10.18 50.324 0.06 6.47 1.66 11.17
3/27/2021 5:45:00 PM 10.14 50.252 0.06 6.47 1.59 11.16
3/27/2021 6:00:00 PM 10.1 50.18 0.06 6.43 3.05 11.16
3/27/2021 6:15:00 PM 10.04 50.072 0.06 6.47 1.63 11.17
3/27/2021 6:30:00 PM 10.01 50.018 0.06 6.46 1.62 11.16
3/27/2021 6:45:00 PM 9.96 49.928 0.06 6.44 2.84 11.16
3/27/2021 7:00:00 PM 9.91 49.838 0.06 6.46 1.61 11.18
3/27/2021 7:15:00 PM 9.84 49.712 0.06 6.37 1.68 11.17
3/27/2021 7:30:00 PM 9.77 49.586 0.06 6.42 3.28 11.17
3/27/2021 7:45:00 PM 9.69 49.442 0.06 6.38 1.66 11.17
3/27/2021 8:00:00 PM 9.61 49.298 0.06 6.43 1.68 11.19
3/27/2021 8:15:00 PM 9.53 49.154 0.06 6.42 1.78 11.2
3/27/2021 8:30:00 PM 9.45 49.01 0.06 6.43 2.07 11.24
3/27/2021 8:45:00 PM 9.38 48.884 0.06 6.43 1.81 11.25
3/27/2021 9:00:00 PM 9.31 48.758 0.06 6.42 1.8 11.27
3/27/2021 9:15:00 PM 9.24 48.632 0.06 6.41 3.05 11.28
3/27/2021 9:30:00 PM 9.17 48.506 0.06 6.41 1.91 11.29
3/27/2021 9:45:00 PM 9.1 48.38 0.06 6.42 2.01 11.31
3/27/2021 10:00:00 PM 9.04 48.272 0.06 6.4 1.94 11.32
3/27/2021 10:15:00 PM 8.97 48.146 0.06 6.42 2.23 11.35
3/27/2021 10:30:00 PM 8.91 48.038 0.06 6.38 3.26 11.37
3/27/2021 10:45:00 PM 8.84 47.912 0.06 6.41 2.05 11.39
3/27/2021 11:00:00 PM 8.78 47.804 0.06 6.41 1.86 11.4
3/27/2021 11:15:00 PM 8.71 47.678 0.06 6.41 2.37 11.42
3/27/2021 11:30:00 PM 8.65 47.57 0.06 6.41 1.78 11.44
3/27/2021 11:45:00 PM 8.6 47.48 0.06 6.4 1.91 11.44
3/28/2021 12:00:00 AM 8.54 47.372 0.06 6.41 1.89 11.45
3/28/2021 12:15:00 AM 8.48 47.264 0.06 6.37 1.73 11.46
3/28/2021 12:30:00 AM 8.42 47.156 0.06 6.41 1.78 11.46
3/28/2021 12:45:00 AM 8.36 47.048 0.06 6.4 1.97 11.47
3/28/2021 1:00:00 AM 8.3 46.94 0.06 6.39 1.75 11.5
3/28/2021 1:15:00 AM 8.24 46.832 0.06 6.4 1.88 11.53
3/28/2021 1:30:00 AM 8.18 46.724 0.06 6.4 1.78 11.52
3/28/2021 1:45:00 AM 8.13 46.634 0.06 6.32 2.47 11.55
3/28/2021 2:00:00 AM 8.08 46.544 0.06 6.4 1.79 11.56
3/28/2021 2:15:00 AM 8.03 46.454 0.06 6.39 1.77 11.58
3/28/2021 2:30:00 AM 7.97 46.346 0.06 6.36 1.7 11.59
3/28/2021 2:45:00 AM 7.92 46.256 0.06 6.4 1.77 11.59
3/28/2021 3:00:00 AM 7.87 46.166 0.06 6.4 1.88 11.6
3/28/2021 3:15:00 AM 7.82 46.076 0.06 6.34 1.7 11.61
3/28/2021 3:30:00 AM 7.77 45.986 0.06 6.4 1.63 11.62
3/28/2021 3:45:00 AM 7.73 45.914 0.06 6.39 1.68 11.63
3/28/2021 4:00:00 AM 7.68 45.824 0.06 6.39 1.66 11.65
3/28/2021 4:15:00 AM 7.65 45.77 0.06 6.39 1.74 11.67
3/28/2021 4:30:00 AM 7.61 45.698 0.06 6.4 1.69 11.67
3/28/2021 4:45:00 AM 7.58 45.644 0.06 6.39 1.72 11.68
3/28/2021 5:00:00 AM 7.56 45.608 0.06 6.39 1.65 11.69
3/28/2021 5:15:00 AM 7.53 45.554 0.06 6.38 1.72 11.69
3/28/2021 5:30:00 AM 7.51 45.518 0.06 6.39 1.77 11.71
3/28/2021 5:45:00 AM 7.49 45.482 0.06 6.32 1.64 11.7
3/28/2021 6:00:00 AM 7.49 45.482 0.06 6.35 1.68 11.71
3/28/2021 6:15:00 AM 7.48 45.464 0.06 6.38 1.68 11.72
3/28/2021 6:30:00 AM 7.5 45.5 0.06 6.34 1.83 11.71
3/28/2021 6:45:00 AM 7.52 45.536 0.06 6.37 1.66 11.7
3/28/2021 7:00:00 AM 7.55 45.59 0.06 6.39 1.73 11.7
3/28/2021 7:15:00 AM 7.57 45.626 0.06 6.39 1.68 11.69
3/28/2021 7:30:00 AM 7.61 45.698 0.06 6.39 1.57 11.68
3/28/2021 7:45:00 AM 7.63 45.734 0.06 6.34 1.83 11.68
3/28/2021 8:00:00 AM 7.63 45.734 0.06 6.4 1.73 11.67
3/28/2021 8:15:00 AM 7.65 45.77 0.06 6.38 1.66 11.68
3/28/2021 8:30:00 AM 7.67 45.806 0.06 6.4 1.67 11.67
3/28/2021 8:45:00 AM 7.7 45.86 0.06 6.42 1.68 11.67
3/28/2021 9:00:00 AM 7.75 45.95 0.06 6.35 1.67 11.65
3/28/2021 9:15:00 AM 7.79 46.022 0.06 6.43 1.64 11.65
3/28/2021 9:30:00 AM 7.82 46.076 0.06 6.43 1.63 11.63
3/28/2021 9:45:00 AM 7.84 46.112 0.06 6.43 1.68 11.61
3/28/2021 10:00:00 AM 7.88 46.184 0.06 6.43 1.81 11.61
3/28/2021 10:15:00 AM 7.92 46.256 0.06 6.39 1.76 11.6
3/28/2021 10:30:00 AM 7.94 46.292 0.06 6.44 1.8 11.58
3/28/2021 10:45:00 AM 7.96 46.328 0.06 6.37 1.86 11.59
3/28/2021 11:00:00 AM 8 46.4 0.06 6.44 2.28 11.59
3/28/2021 11:15:00 AM 8.03 46.454 0.06 6.44 2.04 11.58
3/28/2021 11:30:00 AM 8.07 46.526 0.06 6.45 2.21 11.58
3/28/2021 11:45:00 AM 8.13 46.634 0.06 6.46 2.22 11.59
3/28/2021 12:00:00 PM 8.21 46.778 0.06 6.38 2.18 11.57
3/28/2021 12:15:00 PM 8.27 46.886 0.06 6.47 2.34 11.56
3/28/2021 12:30:00 PM 8.37 47.066 0.06 6.47 2.27 11.53
3/28/2021 12:45:00 PM 8.46 47.228 0.06 6.48 2.77 11.5
3/28/2021 1:00:00 PM 8.54 47.372 0.06 6.47 2.5 11.48
3/28/2021 1:15:00 PM 8.6 47.48 0.06 6.48 2.6 11.46
3/28/2021 1:30:00 PM 8.66 47.588 0.06 6.48 2.64 11.44
3/28/2021 1:45:00 PM 8.68 47.624 0.06 6.47 2.82 11.4
3/28/2021 2:00:00 PM 8.77 47.786 0.06 6.5 3.95 11.39
3/28/2021 2:15:00 PM 8.79 47.822 0.06 6.48 3.39 11.38
3/28/2021 2:30:00 PM 8.81 47.858 0.06 6.47 6.17 11.39
3/28/2021 2:45:00 PM 8.84 47.912 0.061 6.48 3.99 11.38
3/28/2021 3:00:00 PM 8.85 47.93 0.061 6.47 4.68 11.37
3/28/2021 3:15:00 PM 8.88 47.984 0.061 6.47 4.45 11.37
3/28/2021 3:30:00 PM 8.91 48.038 0.061 6.47 4.63 11.36
3/28/2021 3:45:00 PM 8.91 48.038 0.061 6.48 8.36 11.35
3/28/2021 4:00:00 PM 8.91 48.038 0.061 6.45 7.23 11.36
3/28/2021 4:15:00 PM 8.89 48.002 0.061 6.45 7.72 11.37
3/28/2021 4:30:00 PM 8.88 47.984 0.061 6.45 9.18 11.38
3/28/2021 4:45:00 PM 8.87 47.966 0.061 6.43 11.47 11.39
3/28/2021 5:00:00 PM 8.87 47.966 0.062 6.44 9.46 11.4
3/28/2021 5:15:00 PM 8.88 47.984 0.062 6.41 12.23 11.4
3/28/2021 5:30:00 PM 8.86 47.948 0.062 6.4 13.79 11.4
3/28/2021 5:45:00 PM 8.86 47.948 0.062 6.39 13.68 11.4
3/28/2021 6:00:00 PM 8.83 47.894 0.063 6.37 14.93 11.4
3/28/2021 6:15:00 PM 8.78 47.804 0.063 6.36 15.63 11.41
3/28/2021 6:30:00 PM 8.74 47.732 0.064 6.35 15.01 11.42
3/28/2021 6:45:00 PM 8.69 47.642 0.064 6.34 14.05 11.42
3/28/2021 7:00:00 PM 8.64 47.552 0.064 6.33 13.42 11.43
3/28/2021 7:15:00 PM 8.58 47.444 0.064 6.33 12.63 11.43
3/28/2021 7:30:00 PM 8.52 47.336 0.064 6.33 12.31 11.44
3/28/2021 7:45:00 PM 8.46 47.228 0.064 6.32 11.24 11.46
3/28/2021 8:00:00 PM 8.37 47.066 0.064 6.32 11.14 11.48
3/28/2021 8:15:00 PM 8.29 46.922 0.064 6.29 10.57 11.51
3/28/2021 8:30:00 PM 8.23 46.814 0.064 6.31 10.07 11.54
3/28/2021 8:45:00 PM 8.17 46.706 0.064 6.31 9.3 11.56
3/28/2021 9:00:00 PM 8.11 46.598 0.063 6.31 8.9 11.58
3/28/2021 9:15:00 PM 8.06 46.508 0.063 6.32 8.62 11.6
3/28/2021 9:30:00 PM 8 46.4 0.063 6.32 7.82 11.62
3/28/2021 9:45:00 PM 7.94 46.292 0.063 6.31 7.33 11.62
3/28/2021 10:00:00 PM 7.88 46.184 0.062 6.28 6.85 11.64
3/28/2021 10:15:00 PM 7.83 46.094 0.062 6.31 6.68 11.65
3/28/2021 10:30:00 PM 7.76 45.968 0.062 6.29 6.45 11.69
3/28/2021 10:45:00 PM 7.69 45.842 0.062 6.32 6.23 11.71
3/28/2021 11:00:00 PM 7.62 45.716 0.062 6.32 5.85 11.74
3/28/2021 11:15:00 PM 7.57 45.626 0.062 6.31 6.48 11.76
3/28/2021 11:30:00 PM 7.51 45.518 0.062 6.31 5.56 11.78
3/28/2021 11:45:00 PM 7.43 45.374 0.062 6.26 5.46 11.8
3/29/2021 12:00:00 AM 7.37 45.266 0.062 6.32 5.35 11.81
3/29/2021 12:15:00 AM 7.3 45.14 0.062 6.31 5.15 11.83
3/29/2021 12:30:00 AM 7.24 45.032 0.062 6.31 5.19 11.85
3/29/2021 12:45:00 AM 7.18 44.924 0.063 6.3 5 11.86
3/29/2021 1:00:00 AM 7.12 44.816 0.063 6.3 4.89 11.89
3/29/2021 1:15:00 AM 7.06 44.708 0.063 6.3 4.92 11.92
3/29/2021 1:30:00 AM 7 44.6 0.063 6.3 5.3 11.95
3/29/2021 1:45:00 AM 6.94 44.492 0.063 6.3 4.67 11.97
3/29/2021 2:00:00 AM 6.88 44.384 0.063 6.29 4.8 11.98
3/29/2021 2:15:00 AM 6.83 44.294 0.063 6.29 4.62 12.01
3/29/2021 2:30:00 AM 6.78 44.204 0.063 6.29 4.58 12.02
3/29/2021 2:45:00 AM 6.73 44.114 0.063 6.27 4.36 12.03
3/29/2021 3:00:00 AM 6.68 44.024 0.063 6.28 4.25 12.04
3/29/2021 3:15:00 AM 6.62 43.916 0.063 6.29 4.48 12.06
3/29/2021 3:30:00 AM 6.57 43.826 0.063 6.29 4.19 12.07
3/29/2021 3:45:00 AM 6.51 43.718 0.063 6.28 4.45 12.1
3/29/2021 4:00:00 AM 6.47 43.646 0.063 6.28 4.21 12.13
3/29/2021 4:15:00 AM 6.43 43.574 0.063 6.24 4.07 12.15
3/29/2021 4:30:00 AM 6.38 43.484 0.063 6.28 4.05 12.17
3/29/2021 4:45:00 AM 6.34 43.412 0.063 6.27 3.79 12.18
3/29/2021 5:00:00 AM 6.3 43.34 0.063 6.26 3.71 12.2
3/29/2021 5:15:00 AM 6.26 43.268 0.063 6.27 3.82 12.22
3/29/2021 5:30:00 AM 6.23 43.214 0.063 6.27 3.86 12.23
3/29/2021 5:45:00 AM 6.19 43.142 0.062 6.28 3.75 12.24
3/29/2021 6:00:00 AM 6.15 43.07 0.062 6.28 3.75 12.24
3/29/2021 6:15:00 AM 6.12 43.016 0.062 6.27 3.7 12.26
3/29/2021 6:30:00 AM 6.07 42.926 0.062 6.23 3.77 12.28
3/29/2021 6:45:00 AM 6.02 42.836 0.062 6.27 3.39 12.29
3/29/2021 7:00:00 AM 5.99 42.782 0.062 6.28 3.39 12.31
3/29/2021 7:15:00 AM 5.96 42.728 0.062 6.28 3.3 12.32
3/29/2021 7:30:00 AM 5.93 42.674 0.062 6.29 3.4 12.35
3/29/2021 7:45:00 AM 5.9 42.62 0.062 6.26 3.44 12.36
3/29/2021 8:00:00 AM 5.88 42.584 0.061 6.31 3.29 12.4
3/29/2021 8:15:00 AM 5.84 42.512 0.061 6.31 3.23 12.41
3/29/2021 8:30:00 AM 5.8 42.44 0.061 6.31 3.13 12.43
3/29/2021 8:45:00 AM 5.75 42.35 0.061 6.31 3.17 12.45
3/29/2021 9:00:00 AM 5.73 42.314 0.061 6.31 3.13 12.48
3/29/2021 9:15:00 AM 5.73 42.314 0.061 6.26 3.15 12.48
3/29/2021 9:30:00 AM 5.72 42.296 0.061 6.33 3.07 12.51
3/29/2021 9:45:00 AM 5.73 42.314 0.061 6.33 3 12.51
3/29/2021 10:00:00 AM 5.74 42.332 0.061 6.34 3.08 12.53
3/29/2021 10:15:00 AM 5.74 42.332 0.061 6.34 3.07 12.53
3/29/2021 10:30:00 AM 5.73 42.314 0.061 6.35 3.03 12.55
3/29/2021 10:45:00 AM 5.74 42.332 0.061 6.36 2.91 12.53
3/29/2021 11:00:00 AM 5.74 42.332 0.06 6.35 2.92 12.56
3/29/2021 11:15:00 AM 5.75 42.35 0.06 6.35 2.89 12.56
3/29/2021 11:30:00 AM 5.81 42.458 0.06 6.36 2.91 12.57
3/29/2021 11:45:00 AM 5.86 42.548 0.06 6.36 2.91 12.55
3/29/2021 12:00:00 PM 5.93 42.674 0.06 6.36 2.84 12.53
3/29/2021 12:15:00 PM 5.98 42.764 0.06 6.36 2.88 12.51
3/29/2021 12:30:00 PM 6.07 42.926 0.06 6.37 2.8 12.48
3/29/2021 12:45:00 PM 6.13 43.034 0.06 6.36 2.78 12.47
3/29/2021 1:00:00 PM 6.2 43.16 0.06 6.37 2.72 12.45
3/29/2021 1:15:00 PM 6.28 43.304 0.06 6.37 2.71 12.45
3/29/2021 1:30:00 PM 6.41 43.538 0.06 6.38 2.64 12.41
3/29/2021 1:45:00 PM 6.54 43.772 0.06 6.38 2.67 12.38
3/29/2021 2:00:00 PM 6.63 43.934 0.06 6.3 2.67 12.33
3/29/2021 2:15:00 PM 6.72 44.096 0.06 6.38 2.67 12.3
3/29/2021 2:30:00 PM 6.85 44.33 0.06 6.31 2.72 12.27
3/29/2021 2:45:00 PM 6.98 44.564 0.06 6.38 2.65 12.24
3/29/2021 3:00:00 PM 7.09 44.762 0.06 6.32 2.63 12.18
3/29/2021 3:15:00 PM 7.2 44.96 0.059 6.39 2.61 12.12
3/29/2021 3:30:00 PM 7.28 45.104 0.059 6.39 2.59 12.09
3/29/2021 3:45:00 PM 7.33 45.194 0.059 6.39 2.57 12.06
3/29/2021 4:00:00 PM 7.39 45.302 0.059 6.39 2.59 12.05
3/29/2021 4:15:00 PM 7.43 45.374 0.059 6.39 2.61 12.03
3/29/2021 4:30:00 PM 7.46 45.428 0.059 6.39 2.57 12.03
3/29/2021 4:45:00 PM 7.46 45.428 0.059 6.39 2.5 12.01
3/29/2021 5:00:00 PM 7.45 45.41 0.059 6.39 2.51 12
3/29/2021 5:15:00 PM 7.44 45.392 0.059 6.4 2.63 12
3/29/2021 5:30:00 PM 7.41 45.338 0.059 6.41 2.59 12
3/29/2021 5:45:00 PM 7.38 45.284 0.059 6.38 2.64 12
3/29/2021 6:00:00 PM 7.32 45.176 0.059 6.4 2.61 12
3/29/2021 6:15:00 PM 7.27 45.086 0.059 6.39 2.67 12.01
3/29/2021 6:30:00 PM 7.23 45.014 0.059 6.37 2.66 12.02
3/29/2021 6:45:00 PM 7.17 44.906 0.059 6.38 2.66 12.04
3/29/2021 7:00:00 PM 7.11 44.798 0.059 6.32 2.7 12.07
3/29/2021 7:15:00 PM 7.04 44.672 0.059 6.35 2.67 12.08
3/29/2021 7:30:00 PM 6.97 44.546 0.059 6.35 2.65 12.11
3/29/2021 7:45:00 PM 6.9 44.42 0.059 6.36 2.67 12.11
3/29/2021 8:00:00 PM 6.84 44.312 0.058 6.35 2.69 12.12
3/29/2021 8:15:00 PM 6.78 44.204 0.058 6.36 2.72 12.12
3/29/2021 8:30:00 PM 6.72 44.096 0.058 6.29 2.66 12.14
3/29/2021 8:45:00 PM 6.67 44.006 0.058 6.36 2.72 12.15
3/29/2021 9:00:00 PM 6.62 43.916 0.058 6.36 2.66 12.16
3/29/2021 9:15:00 PM 6.56 43.808 0.058 6.35 2.63 12.19
3/29/2021 9:30:00 PM 6.51 43.718 0.058 6.35 2.74 12.21
3/29/2021 9:45:00 PM 6.46 43.628 0.058 6.31 2.69 12.23
3/29/2021 10:00:00 PM 6.41 43.538 0.058 6.33 2.67 12.25
3/29/2021 10:15:00 PM 6.36 43.448 0.058 6.36 2.64 12.27
3/29/2021 10:30:00 PM 6.3 43.34 0.058 6.36 2.81 12.28
3/29/2021 10:45:00 PM 6.25 43.25 0.058 6.35 2.61 12.3
3/29/2021 11:00:00 PM 6.19 43.142 0.058 6.36 2.62 12.31
3/29/2021 11:15:00 PM 6.13 43.034 0.058 6.36 2.56 12.33
3/29/2021 11:30:00 PM 6.08 42.944 0.058 6.34 3.96 12.34
3/29/2021 11:45:00 PM 6.02 42.836 0.058 6.34 2.6 12.34
3/30/2021 12:00:00 AM 5.96 42.728 0.058 6.35 2.56 12.39
3/30/2021 12:15:00 AM 5.91 42.638 0.058 6.36 2.55 12.4
3/30/2021 12:30:00 AM 5.85 42.53 0.058 6.35 2.53 12.41
3/30/2021 12:45:00 AM 5.8 42.44 0.058 6.35 2.58 12.45
3/30/2021 1:00:00 AM 5.74 42.332 0.058 6.32 2.5 12.46
3/30/2021 1:15:00 AM 5.68 42.224 0.058 6.35 2.3 12.48
3/30/2021 1:30:00 AM 5.63 42.134 0.058 6.35 2.38 12.51
3/30/2021 1:45:00 AM 5.59 42.062 0.058 6.36 2.34 12.52
3/30/2021 2:00:00 AM 5.54 41.972 0.058 6.36 2.77 12.53
3/30/2021 2:15:00 AM 5.48 41.864 0.057 6.29 2.35 12.53
3/30/2021 2:30:00 AM 5.44 41.792 0.057 6.34 2.25 12.54
3/30/2021 2:45:00 AM 5.39 41.702 0.057 6.31 2.32 12.56
3/30/2021 3:00:00 AM 5.35 41.63 0.057 6.32 2.26 12.58
3/30/2021 3:15:00 AM 5.3 41.54 0.057 6.33 2.33 12.61
3/30/2021 3:30:00 AM 5.26 41.468 0.057 6.32 2.28 12.62
3/30/2021 3:45:00 AM 5.21 41.378 0.057 6.31 2.31 12.64
3/30/2021 4:00:00 AM 5.17 41.306 0.057 6.32 2.3 12.66
3/30/2021 4:15:00 AM 5.13 41.234 0.057 6.32 2.27 12.68
3/30/2021 4:30:00 AM 5.08 41.144 0.057 6.32 2.42 12.68
3/30/2021 4:45:00 AM 5.04 41.072 0.057 6.33 2.38 12.7
3/30/2021 5:00:00 AM 5 41 0.057 6.33 2.29 12.7
3/30/2021 5:15:00 AM 4.96 40.928 0.057 6.32 2.28 12.71
3/30/2021 5:30:00 AM 4.92 40.856 0.057 6.32 2.25 12.72
3/30/2021 5:45:00 AM 4.88 40.784 0.057 6.33 2.24 12.73
3/30/2021 6:00:00 AM 4.83 40.694 0.057 6.23 2.22 12.75
3/30/2021 6:15:00 AM 4.8 40.64 0.057 6.31 2.24 12.76
3/30/2021 6:30:00 AM 4.76 40.568 0.057 6.33 2.15 12.77
3/30/2021 6:45:00 AM 4.71 40.478 0.057 6.28 2.23 12.79
3/30/2021 7:00:00 AM 4.68 40.424 0.057 6.33 2.24 12.82
3/30/2021 7:15:00 AM 4.63 40.334 0.057 6.25 2.28 12.84
3/30/2021 7:30:00 AM 4.61 40.298 0.057 6.33 2.31 12.86
3/30/2021 7:45:00 AM 4.58 40.244 0.057 6.34 2.22 12.87
3/30/2021 8:00:00 AM 4.55 40.19 0.057 6.34 2.2 12.89
3/30/2021 8:15:00 AM 4.53 40.154 0.057 6.26 2.15 12.92
3/30/2021 8:30:00 AM 4.57 40.226 0.057 6.35 2.13 12.94
3/30/2021 8:45:00 AM 4.58 40.244 0.057 6.36 2.13 12.93
3/30/2021 9:00:00 AM 4.61 40.298 0.057 6.36 2.14 12.93
3/30/2021 9:15:00 AM 4.66 40.388 0.057 6.36 2.14 12.94
3/30/2021 9:30:00 AM 4.73 40.514 0.057 6.37 2.09 12.93
3/30/2021 9:45:00 AM 4.82 40.676 0.057 6.37 2 12.9
3/30/2021 10:00:00 AM 4.93 40.874 0.057 6.37 1.97 12.86
3/30/2021 10:15:00 AM 5.06 41.108 0.057 6.38 1.98 12.86
3/30/2021 10:30:00 AM 5.2 41.36 0.057 6.38 2.05 12.83
3/30/2021 10:45:00 AM 5.36 41.648 0.057 6.39 1.91 12.77
3/30/2021 11:00:00 AM 5.55 41.99 0.057 6.39 1.88 12.72
3/30/2021 11:15:00 AM 5.74 42.332 0.057 6.32 1.9 12.68
3/30/2021 11:30:00 AM 5.95 42.71 0.057 6.41 1.87 12.6
3/30/2021 11:45:00 AM 6.15 43.07 0.057 6.36 1.93 12.54
3/30/2021 12:00:00 PM 6.37 43.466 0.057 6.41 1.91 12.49
3/30/2021 12:15:00 PM 6.59 43.862 0.057 6.41 1.9 12.4
3/30/2021 12:30:00 PM 6.82 44.276 0.057 6.39 2.14 12.33
3/30/2021 12:45:00 PM 7.04 44.672 0.057 6.39 2.01 12.27
3/30/2021 1:00:00 PM 7.28 45.104 0.057 6.41 2.08 12.17
3/30/2021 1:15:00 PM 7.5 45.5 0.057 6.4 1.96 12.12
3/30/2021 1:30:00 PM 7.72 45.896 0.057 6.41 1.88 12.04
3/30/2021 1:45:00 PM 7.92 46.256 0.057 6.41 1.93 11.96
3/30/2021 2:00:00 PM 8.12 46.616 0.057 6.43 1.93 11.91
3/30/2021 2:15:00 PM 8.3 46.94 0.057 6.43 1.87 11.84
3/30/2021 2:30:00 PM 8.48 47.264 0.057 6.38 1.95 11.76
3/30/2021 2:45:00 PM 8.63 47.534 0.057 6.42 2.03 11.72
3/30/2021 3:00:00 PM 8.76 47.768 0.057 6.43 1.91 11.68
3/30/2021 3:15:00 PM 8.88 47.984 0.057 6.44 1.89 11.63
3/30/2021 3:30:00 PM 8.98 48.164 0.057 6.42 1.95 11.59
3/30/2021 3:45:00 PM 9.08 48.344 0.057 6.44 1.92 11.54
3/30/2021 4:00:00 PM 9.14 48.452 0.057 6.44 1.94 11.51
3/30/2021 4:15:00 PM 9.24 48.632 0.057 6.44 2.01 11.5
3/30/2021 4:30:00 PM 9.28 48.704 0.057 6.45 2.01 11.49
3/30/2021 4:45:00 PM 9.3 48.74 0.057 6.41 3.39 11.46
3/30/2021 5:00:00 PM 9.32 48.776 0.057 6.42 1.92 11.44
3/30/2021 5:15:00 PM 9.32 48.776 0.057 6.44 1.97 11.44
3/30/2021 5:30:00 PM 9.3 48.74 0.057 6.44 1.99 11.42
3/30/2021 5:45:00 PM 9.29 48.722 0.057 6.44 1.99 11.42
3/30/2021 6:00:00 PM 9.27 48.686 0.057 6.42 2.09 11.42
3/30/2021 6:15:00 PM 9.24 48.632 0.057 6.44 2.11 11.43
3/30/2021 6:30:00 PM 9.2 48.56 0.057 6.44 2.08 11.42
3/30/2021 6:45:00 PM 9.16 48.488 0.057 6.44 1.97 11.42
3/30/2021 7:00:00 PM 9.1 48.38 0.057 6.36 2.08 11.43
3/30/2021 7:15:00 PM 9.04 48.272 0.057 6.44 2.08 11.44
3/30/2021 7:30:00 PM 8.98 48.164 0.057 6.43 2.13 11.45
3/30/2021 7:45:00 PM 8.92 48.056 0.057 6.43 2.38 11.47
3/30/2021 8:00:00 PM 8.86 47.948 0.057 6.42 2.15 11.47
3/30/2021 8:15:00 PM 8.8 47.84 0.057 6.42 2.1 11.48
3/30/2021 8:30:00 PM 8.75 47.75 0.057 6.42 2.06 11.49
3/30/2021 8:45:00 PM 8.7 47.66 0.057 6.32 2.21 11.51
3/30/2021 9:00:00 PM 8.65 47.57 0.057 6.41 2.19 11.52
3/30/2021 9:15:00 PM 8.6 47.48 0.057 6.41 2.17 11.53
3/30/2021 9:30:00 PM 8.55 47.39 0.057 6.4 1.98 11.54
3/30/2021 9:45:00 PM 8.51 47.318 0.057 6.4 2.19 11.55
3/30/2021 10:00:00 PM 8.46 47.228 0.057 6.4 2.2 11.57
3/30/2021 10:15:00 PM 8.42 47.156 0.057 6.33 2.29 11.58
3/30/2021 10:30:00 PM 8.38 47.084 0.056 6.4 2.38 11.6
3/30/2021 10:45:00 PM 8.34 47.012 0.056 6.39 2.21 11.61
3/30/2021 11:00:00 PM 8.3 46.94 0.056 6.31 2.22 11.63
3/30/2021 11:15:00 PM 8.26 46.868 0.056 6.39 2.13 11.64
3/30/2021 11:30:00 PM 8.22 46.796 0.056 6.39 2.2 11.64
3/30/2021 11:45:00 PM 8.18 46.724 0.056 6.38 2.24 11.67
3/31/2021 12:00:00 AM 8.15 46.67 0.056 6.39 2.2 11.67
3/31/2021 12:15:00 AM 8.11 46.598 0.056 6.39 2.19 11.7
3/31/2021 12:30:00 AM 8.08 46.544 0.056 6.38 2.19 11.68
3/31/2021 12:45:00 AM 8.05 46.49 0.056 6.39 2.21 11.7
3/31/2021 1:00:00 AM 8.02 46.436 0.056 6.38 2.25 11.7
3/31/2021 1:15:00 AM 7.99 46.382 0.056 6.38 2.2 11.7
3/31/2021 1:30:00 AM 7.96 46.328 0.056 6.39 2.2 11.71
3/31/2021 1:45:00 AM 7.94 46.292 0.056 6.38 2.24 11.71
3/31/2021 2:00:00 AM 7.9 46.22 0.056 6.38 2.17 11.73
3/31/2021 2:15:00 AM 7.88 46.184 0.056 6.38 2.34 11.73
3/31/2021 2:30:00 AM 7.85 46.13 0.056 6.38 2.15 11.73
3/31/2021 2:45:00 AM 7.83 46.094 0.056 6.38 2.19 11.73
3/31/2021 3:00:00 AM 7.8 46.04 0.056 6.39 2.12 11.75
3/31/2021 3:15:00 AM 7.77 45.986 0.056 6.32 2.25 11.75
3/31/2021 3:30:00 AM 7.75 45.95 0.056 6.39 2.43 11.76
3/31/2021 3:45:00 AM 7.72 45.896 0.056 6.38 2.16 11.78
3/31/2021 4:00:00 AM 7.69 45.842 0.056 6.39 2.21 11.78
3/31/2021 4:15:00 AM 7.67 45.806 0.056 6.31 2.23 11.8
3/31/2021 4:30:00 AM 7.64 45.752 0.056 6.39 2.14 11.8
3/31/2021 4:45:00 AM 7.62 45.716 0.056 6.39 2.13 11.81
3/31/2021 5:00:00 AM 7.61 45.698 0.056 6.39 2.19 11.82
3/31/2021 5:15:00 AM 7.59 45.662 0.056 6.39 2.09 11.82
3/31/2021 5:30:00 AM 7.57 45.626 0.056 6.39 2.15 11.82
3/31/2021 5:45:00 AM 7.56 45.608 0.057 6.38 2.32 11.83
3/31/2021 6:00:00 AM 7.54 45.572 0.057 6.39 2.19 11.83
3/31/2021 6:15:00 AM 7.52 45.536 0.057 6.33 2.11 11.83
3/31/2021 6:30:00 AM 7.51 45.518 0.057 6.39 2.1 11.83
3/31/2021 6:45:00 AM 7.5 45.5 0.057 6.39 2.18 11.84
3/31/2021 7:00:00 AM 7.49 45.482 0.057 6.29 2.14 11.85
3/31/2021 7:15:00 AM 7.49 45.482 0.057 6.36 2.03 11.85
3/31/2021 7:30:00 AM 7.48 45.464 0.057 6.36 2.18 11.85
3/31/2021 7:45:00 AM 7.48 45.464 0.057 6.37 2.12 11.86
3/31/2021 8:00:00 AM 7.48 45.464 0.057 6.39 2.1 11.87
3/31/2021 8:15:00 AM 7.48 45.464 0.057 6.33 2.03 11.87
3/31/2021 8:30:00 AM 7.48 45.464 0.057 6.4 2.16 11.87
3/31/2021 8:45:00 AM 7.48 45.464 0.057 6.39 2.12 11.88
3/31/2021 9:00:00 AM 7.49 45.482 0.057 6.4 2.16 11.89
3/31/2021 9:15:00 AM 7.49 45.482 0.056 6.4 2.21 11.89
3/31/2021 9:30:00 AM 7.5 45.5 0.056 6.4 2.25 11.89
3/31/2021 9:45:00 AM 7.51 45.518 0.056 6.4 2.29 11.89
3/31/2021 10:00:00 AM 7.53 45.554 0.056 6.4 2.3 11.89
3/31/2021 10:15:00 AM 7.55 45.59 0.056 6.4 2.42 11.89
3/31/2021 10:30:00 AM 7.57 45.626 0.056 6.41 2.53 11.89
3/31/2021 10:45:00 AM 7.59 45.662 0.056 6.41 2.76 11.87
3/31/2021 11:00:00 AM 7.61 45.698 0.056 6.41 3.38 11.86
3/31/2021 11:15:00 AM 7.62 45.716 0.056 6.42 3.83 11.86
3/31/2021 11:30:00 AM 7.64 45.752 0.056 6.43 3.96 11.87
3/31/2021 11:45:00 AM 7.66 45.788 0.056 6.44 3.84 11.86
3/31/2021 12:00:00 PM 7.68 45.824 0.056 6.43 4.19 11.85
3/31/2021 12:15:00 PM 7.7 45.86 0.056 6.35 4.27 11.86
3/31/2021 12:30:00 PM 7.74 45.932 0.056 6.44 4.46 11.85